<?xml version="1.0" encoding="UTF-8" standalone="no" ?>
<gpx xmlns="http://www.topografix.com/GPX/1/1" xmlns:xsi="http://www.w3.org/2001/XMLSchema-instance" xsi:schemaLocation="http://www.topografix.com/GPX/1/1 http://www.topografix.com/GPX/1/1/gpx.xsd" version="1.1" creator="VisuGPX - https://www.visugpx.com">
  <metadata>
    <name>Fraiture 02 MARCHE ADEPS 2015 (Septembre)</name>
    <desc><![CDATA[BONNE PETITE MARCHE BIEN SYMPA A FAIRE LE DIMANCHE]]></desc>
  </metadata>
  <trk>
    <name><![CDATA[duo choupy & scooby]]></name>
    <trkseg>
      <trkpt lat="50.25434" lon="5.73429">
        <ele>463</ele>
        <time>2015-09-27T08:44:06Z</time>
      </trkpt>
      <trkpt lat="50.25433" lon="5.73423">
        <ele>464</ele>
        <time>2015-09-27T08:44:13Z</time>
      </trkpt>
      <trkpt lat="50.25429" lon="5.73414">
        <ele>465</ele>
        <time>2015-09-27T08:44:18Z</time>
      </trkpt>
      <trkpt lat="50.25426" lon="5.73407">
        <ele>466</ele>
        <time>2015-09-27T08:44:24Z</time>
      </trkpt>
      <trkpt lat="50.25424" lon="5.73398">
        <ele>468</ele>
        <time>2015-09-27T08:44:29Z</time>
      </trkpt>
      <trkpt lat="50.25423" lon="5.73393">
        <ele>470</ele>
        <time>2015-09-27T08:44:34Z</time>
      </trkpt>
      <trkpt lat="50.25422" lon="5.73386">
        <ele>471</ele>
        <time>2015-09-27T08:44:40Z</time>
      </trkpt>
      <trkpt lat="50.25421" lon="5.7338">
        <ele>472</ele>
        <time>2015-09-27T08:44:45Z</time>
      </trkpt>
      <trkpt lat="50.2542" lon="5.73376">
        <ele>473</ele>
        <time>2015-09-27T08:44:51Z</time>
      </trkpt>
      <trkpt lat="50.25418" lon="5.73371">
        <ele>475</ele>
        <time>2015-09-27T08:44:56Z</time>
      </trkpt>
      <trkpt lat="50.25411" lon="5.73366">
        <ele>475</ele>
        <time>2015-09-27T08:45:01Z</time>
      </trkpt>
      <trkpt lat="50.25413" lon="5.73359">
        <ele>475</ele>
        <time>2015-09-27T08:45:07Z</time>
      </trkpt>
      <trkpt lat="50.25412" lon="5.73347">
        <ele>476</ele>
        <time>2015-09-27T08:45:13Z</time>
      </trkpt>
      <trkpt lat="50.25418" lon="5.73338">
        <ele>477</ele>
        <time>2015-09-27T08:45:19Z</time>
      </trkpt>
      <trkpt lat="50.25422" lon="5.7333">
        <ele>477</ele>
        <time>2015-09-27T08:45:24Z</time>
      </trkpt>
      <trkpt lat="50.25425" lon="5.73324">
        <ele>475</ele>
        <time>2015-09-27T08:45:29Z</time>
      </trkpt>
      <trkpt lat="50.25427" lon="5.73321">
        <ele>475</ele>
        <time>2015-09-27T08:45:35Z</time>
      </trkpt>
      <trkpt lat="50.25423" lon="5.73317">
        <ele>473</ele>
        <time>2015-09-27T08:45:41Z</time>
      </trkpt>
      <trkpt lat="50.25422" lon="5.73315">
        <ele>473</ele>
        <time>2015-09-27T08:45:46Z</time>
      </trkpt>
      <trkpt lat="50.25425" lon="5.73314">
        <ele>474</ele>
        <time>2015-09-27T08:45:51Z</time>
      </trkpt>
      <trkpt lat="50.25426" lon="5.73309">
        <ele>475</ele>
        <time>2015-09-27T08:45:56Z</time>
      </trkpt>
      <trkpt lat="50.25427" lon="5.73308">
        <ele>475</ele>
        <time>2015-09-27T08:46:01Z</time>
      </trkpt>
      <trkpt lat="50.25428" lon="5.73309">
        <ele>474</ele>
        <time>2015-09-27T08:46:07Z</time>
      </trkpt>
      <trkpt lat="50.25431" lon="5.73317">
        <ele>474</ele>
        <time>2015-09-27T08:46:12Z</time>
      </trkpt>
      <trkpt lat="50.25432" lon="5.73318">
        <ele>473</ele>
        <time>2015-09-27T08:46:17Z</time>
      </trkpt>
      <trkpt lat="50.25433" lon="5.73319">
        <ele>473</ele>
        <time>2015-09-27T08:46:23Z</time>
      </trkpt>
      <trkpt lat="50.25434" lon="5.73319">
        <ele>474</ele>
        <time>2015-09-27T08:46:28Z</time>
      </trkpt>
      <trkpt lat="50.25434" lon="5.73319">
        <ele>474</ele>
        <time>2015-09-27T08:46:33Z</time>
      </trkpt>
      <trkpt lat="50.25435" lon="5.73319">
        <ele>474</ele>
        <time>2015-09-27T08:46:39Z</time>
      </trkpt>
      <trkpt lat="50.25435" lon="5.73318">
        <ele>474</ele>
        <time>2015-09-27T08:46:44Z</time>
      </trkpt>
      <trkpt lat="50.25435" lon="5.73319">
        <ele>474</ele>
        <time>2015-09-27T08:46:50Z</time>
      </trkpt>
      <trkpt lat="50.25434" lon="5.73319">
        <ele>474</ele>
        <time>2015-09-27T08:46:55Z</time>
      </trkpt>
      <trkpt lat="50.25432" lon="5.73313">
        <ele>473</ele>
        <time>2015-09-27T08:47:00Z</time>
      </trkpt>
      <trkpt lat="50.2543" lon="5.73311">
        <ele>473</ele>
        <time>2015-09-27T08:47:06Z</time>
      </trkpt>
      <trkpt lat="50.25426" lon="5.73304">
        <ele>472</ele>
        <time>2015-09-27T08:47:12Z</time>
      </trkpt>
      <trkpt lat="50.25424" lon="5.73298">
        <ele>471</ele>
        <time>2015-09-27T08:47:17Z</time>
      </trkpt>
      <trkpt lat="50.25422" lon="5.73291">
        <ele>471</ele>
        <time>2015-09-27T08:47:23Z</time>
      </trkpt>
      <trkpt lat="50.2542" lon="5.73282">
        <ele>471</ele>
        <time>2015-09-27T08:47:29Z</time>
      </trkpt>
      <trkpt lat="50.25419" lon="5.73273">
        <ele>471</ele>
        <time>2015-09-27T08:47:34Z</time>
      </trkpt>
      <trkpt lat="50.25418" lon="5.73265">
        <ele>471</ele>
        <time>2015-09-27T08:47:39Z</time>
      </trkpt>
      <trkpt lat="50.25417" lon="5.73256">
        <ele>471</ele>
        <time>2015-09-27T08:47:44Z</time>
      </trkpt>
      <trkpt lat="50.25414" lon="5.73247">
        <ele>471</ele>
        <time>2015-09-27T08:47:50Z</time>
      </trkpt>
      <trkpt lat="50.2541" lon="5.73238">
        <ele>472</ele>
        <time>2015-09-27T08:47:55Z</time>
      </trkpt>
      <trkpt lat="50.25411" lon="5.7323">
        <ele>472</ele>
        <time>2015-09-27T08:48:00Z</time>
      </trkpt>
      <trkpt lat="50.25412" lon="5.73221">
        <ele>472</ele>
        <time>2015-09-27T08:48:06Z</time>
      </trkpt>
      <trkpt lat="50.25414" lon="5.73211">
        <ele>472</ele>
        <time>2015-09-27T08:48:11Z</time>
      </trkpt>
      <trkpt lat="50.25416" lon="5.73202">
        <ele>472</ele>
        <time>2015-09-27T08:48:16Z</time>
      </trkpt>
      <trkpt lat="50.25418" lon="5.73192">
        <ele>472</ele>
        <time>2015-09-27T08:48:22Z</time>
      </trkpt>
      <trkpt lat="50.25423" lon="5.73189">
        <ele>472</ele>
        <time>2015-09-27T08:48:27Z</time>
      </trkpt>
      <trkpt lat="50.25427" lon="5.73188">
        <ele>472</ele>
        <time>2015-09-27T08:48:32Z</time>
      </trkpt>
      <trkpt lat="50.25431" lon="5.73185">
        <ele>472</ele>
        <time>2015-09-27T08:48:37Z</time>
      </trkpt>
      <trkpt lat="50.25438" lon="5.73182">
        <ele>471</ele>
        <time>2015-09-27T08:48:43Z</time>
      </trkpt>
      <trkpt lat="50.25443" lon="5.73177">
        <ele>471</ele>
        <time>2015-09-27T08:48:48Z</time>
      </trkpt>
      <trkpt lat="50.25449" lon="5.73174">
        <ele>471</ele>
        <time>2015-09-27T08:48:54Z</time>
      </trkpt>
      <trkpt lat="50.25452" lon="5.73171">
        <ele>471</ele>
        <time>2015-09-27T08:49:00Z</time>
      </trkpt>
      <trkpt lat="50.25458" lon="5.73167">
        <ele>470</ele>
        <time>2015-09-27T08:49:06Z</time>
      </trkpt>
      <trkpt lat="50.25465" lon="5.73164">
        <ele>470</ele>
        <time>2015-09-27T08:49:12Z</time>
      </trkpt>
      <trkpt lat="50.25472" lon="5.73161">
        <ele>469</ele>
        <time>2015-09-27T08:49:18Z</time>
      </trkpt>
      <trkpt lat="50.25478" lon="5.73159">
        <ele>469</ele>
        <time>2015-09-27T08:49:23Z</time>
      </trkpt>
      <trkpt lat="50.25485" lon="5.73156">
        <ele>469</ele>
        <time>2015-09-27T08:49:29Z</time>
      </trkpt>
      <trkpt lat="50.25492" lon="5.73153">
        <ele>469</ele>
        <time>2015-09-27T08:49:34Z</time>
      </trkpt>
      <trkpt lat="50.25498" lon="5.73149">
        <ele>469</ele>
        <time>2015-09-27T08:49:39Z</time>
      </trkpt>
      <trkpt lat="50.25504" lon="5.73146">
        <ele>468</ele>
        <time>2015-09-27T08:49:44Z</time>
      </trkpt>
      <trkpt lat="50.25511" lon="5.73142">
        <ele>467</ele>
        <time>2015-09-27T08:49:50Z</time>
      </trkpt>
      <trkpt lat="50.25517" lon="5.73139">
        <ele>467</ele>
        <time>2015-09-27T08:49:55Z</time>
      </trkpt>
      <trkpt lat="50.25523" lon="5.73137">
        <ele>467</ele>
        <time>2015-09-27T08:50:00Z</time>
      </trkpt>
      <trkpt lat="50.25527" lon="5.73134">
        <ele>467</ele>
        <time>2015-09-27T08:50:05Z</time>
      </trkpt>
      <trkpt lat="50.25527" lon="5.73132">
        <ele>467</ele>
        <time>2015-09-27T08:50:10Z</time>
      </trkpt>
      <trkpt lat="50.25528" lon="5.73132">
        <ele>467</ele>
        <time>2015-09-27T08:50:15Z</time>
      </trkpt>
      <trkpt lat="50.25527" lon="5.7313">
        <ele>466</ele>
        <time>2015-09-27T08:50:21Z</time>
      </trkpt>
      <trkpt lat="50.25526" lon="5.73128">
        <ele>466</ele>
        <time>2015-09-27T08:50:26Z</time>
      </trkpt>
      <trkpt lat="50.25526" lon="5.73126">
        <ele>466</ele>
        <time>2015-09-27T08:50:32Z</time>
      </trkpt>
      <trkpt lat="50.25525" lon="5.73123">
        <ele>467</ele>
        <time>2015-09-27T08:50:37Z</time>
      </trkpt>
      <trkpt lat="50.25524" lon="5.73121">
        <ele>467</ele>
        <time>2015-09-27T08:50:42Z</time>
      </trkpt>
      <trkpt lat="50.25523" lon="5.7312">
        <ele>467</ele>
        <time>2015-09-27T08:50:47Z</time>
      </trkpt>
      <trkpt lat="50.25522" lon="5.73119">
        <ele>466</ele>
        <time>2015-09-27T08:50:54Z</time>
      </trkpt>
      <trkpt lat="50.25525" lon="5.7312">
        <ele>466</ele>
        <time>2015-09-27T08:50:59Z</time>
      </trkpt>
      <trkpt lat="50.25533" lon="5.73119">
        <ele>466</ele>
        <time>2015-09-27T08:51:05Z</time>
      </trkpt>
      <trkpt lat="50.2554" lon="5.7312">
        <ele>466</ele>
        <time>2015-09-27T08:51:11Z</time>
      </trkpt>
      <trkpt lat="50.25543" lon="5.73119">
        <ele>466</ele>
        <time>2015-09-27T08:51:16Z</time>
      </trkpt>
      <trkpt lat="50.25545" lon="5.7312">
        <ele>466</ele>
        <time>2015-09-27T08:51:21Z</time>
      </trkpt>
      <trkpt lat="50.25549" lon="5.7312">
        <ele>466</ele>
        <time>2015-09-27T08:51:26Z</time>
      </trkpt>
      <trkpt lat="50.25554" lon="5.73119">
        <ele>466</ele>
        <time>2015-09-27T08:51:31Z</time>
      </trkpt>
      <trkpt lat="50.25557" lon="5.73118">
        <ele>465</ele>
        <time>2015-09-27T08:51:37Z</time>
      </trkpt>
      <trkpt lat="50.25563" lon="5.73117">
        <ele>465</ele>
        <time>2015-09-27T08:51:42Z</time>
      </trkpt>
      <trkpt lat="50.2557" lon="5.73116">
        <ele>465</ele>
        <time>2015-09-27T08:51:48Z</time>
      </trkpt>
      <trkpt lat="50.25574" lon="5.73115">
        <ele>465</ele>
        <time>2015-09-27T08:51:53Z</time>
      </trkpt>
      <trkpt lat="50.25579" lon="5.73112">
        <ele>464</ele>
        <time>2015-09-27T08:51:58Z</time>
      </trkpt>
      <trkpt lat="50.25586" lon="5.7311">
        <ele>464</ele>
        <time>2015-09-27T08:52:04Z</time>
      </trkpt>
      <trkpt lat="50.25591" lon="5.73108">
        <ele>463</ele>
        <time>2015-09-27T08:52:09Z</time>
      </trkpt>
      <trkpt lat="50.25596" lon="5.73105">
        <ele>463</ele>
        <time>2015-09-27T08:52:15Z</time>
      </trkpt>
      <trkpt lat="50.25601" lon="5.73102">
        <ele>463</ele>
        <time>2015-09-27T08:52:20Z</time>
      </trkpt>
      <trkpt lat="50.25608" lon="5.73099">
        <ele>463</ele>
        <time>2015-09-27T08:52:26Z</time>
      </trkpt>
      <trkpt lat="50.25613" lon="5.73097">
        <ele>463</ele>
        <time>2015-09-27T08:52:31Z</time>
      </trkpt>
      <trkpt lat="50.25618" lon="5.73095">
        <ele>462</ele>
        <time>2015-09-27T08:52:37Z</time>
      </trkpt>
      <trkpt lat="50.25622" lon="5.73094">
        <ele>462</ele>
        <time>2015-09-27T08:52:43Z</time>
      </trkpt>
      <trkpt lat="50.25624" lon="5.73093">
        <ele>461</ele>
        <time>2015-09-27T08:52:49Z</time>
      </trkpt>
      <trkpt lat="50.25627" lon="5.73095">
        <ele>461</ele>
        <time>2015-09-27T08:52:54Z</time>
      </trkpt>
      <trkpt lat="50.25632" lon="5.73097">
        <ele>462</ele>
        <time>2015-09-27T08:53:00Z</time>
      </trkpt>
      <trkpt lat="50.25635" lon="5.73097">
        <ele>461</ele>
        <time>2015-09-27T08:53:05Z</time>
      </trkpt>
      <trkpt lat="50.25637" lon="5.73097">
        <ele>461</ele>
        <time>2015-09-27T08:53:11Z</time>
      </trkpt>
      <trkpt lat="50.25637" lon="5.73095">
        <ele>462</ele>
        <time>2015-09-27T08:53:16Z</time>
      </trkpt>
      <trkpt lat="50.25637" lon="5.73093">
        <ele>462</ele>
        <time>2015-09-27T08:53:22Z</time>
      </trkpt>
      <trkpt lat="50.25636" lon="5.7309">
        <ele>462</ele>
        <time>2015-09-27T08:53:27Z</time>
      </trkpt>
      <trkpt lat="50.25636" lon="5.73089">
        <ele>462</ele>
        <time>2015-09-27T08:53:33Z</time>
      </trkpt>
      <trkpt lat="50.25639" lon="5.73089">
        <ele>462</ele>
        <time>2015-09-27T08:53:38Z</time>
      </trkpt>
      <trkpt lat="50.25642" lon="5.73088">
        <ele>462</ele>
        <time>2015-09-27T08:53:43Z</time>
      </trkpt>
      <trkpt lat="50.25645" lon="5.73085">
        <ele>461</ele>
        <time>2015-09-27T08:53:48Z</time>
      </trkpt>
      <trkpt lat="50.25649" lon="5.73083">
        <ele>461</ele>
        <time>2015-09-27T08:53:54Z</time>
      </trkpt>
      <trkpt lat="50.25654" lon="5.7308">
        <ele>460</ele>
        <time>2015-09-27T08:54:00Z</time>
      </trkpt>
      <trkpt lat="50.25659" lon="5.73079">
        <ele>460</ele>
        <time>2015-09-27T08:54:05Z</time>
      </trkpt>
      <trkpt lat="50.25664" lon="5.73076">
        <ele>460</ele>
        <time>2015-09-27T08:54:11Z</time>
      </trkpt>
      <trkpt lat="50.25668" lon="5.73073">
        <ele>459</ele>
        <time>2015-09-27T08:54:16Z</time>
      </trkpt>
      <trkpt lat="50.25674" lon="5.73072">
        <ele>459</ele>
        <time>2015-09-27T08:54:21Z</time>
      </trkpt>
      <trkpt lat="50.25681" lon="5.7307">
        <ele>459</ele>
        <time>2015-09-27T08:54:27Z</time>
      </trkpt>
      <trkpt lat="50.25687" lon="5.73067">
        <ele>459</ele>
        <time>2015-09-27T08:54:32Z</time>
      </trkpt>
      <trkpt lat="50.25693" lon="5.73064">
        <ele>458</ele>
        <time>2015-09-27T08:54:37Z</time>
      </trkpt>
      <trkpt lat="50.25698" lon="5.73062">
        <ele>458</ele>
        <time>2015-09-27T08:54:43Z</time>
      </trkpt>
      <trkpt lat="50.25705" lon="5.7306">
        <ele>457</ele>
        <time>2015-09-27T08:54:49Z</time>
      </trkpt>
      <trkpt lat="50.25712" lon="5.73058">
        <ele>457</ele>
        <time>2015-09-27T08:54:55Z</time>
      </trkpt>
      <trkpt lat="50.25718" lon="5.73056">
        <ele>457</ele>
        <time>2015-09-27T08:55:00Z</time>
      </trkpt>
      <trkpt lat="50.25727" lon="5.73053">
        <ele>457</ele>
        <time>2015-09-27T08:55:06Z</time>
      </trkpt>
      <trkpt lat="50.25734" lon="5.73048">
        <ele>456</ele>
        <time>2015-09-27T08:55:11Z</time>
      </trkpt>
      <trkpt lat="50.25742" lon="5.73045">
        <ele>456</ele>
        <time>2015-09-27T08:55:16Z</time>
      </trkpt>
      <trkpt lat="50.2575" lon="5.73042">
        <ele>456</ele>
        <time>2015-09-27T08:55:22Z</time>
      </trkpt>
      <trkpt lat="50.25755" lon="5.73039">
        <ele>455</ele>
        <time>2015-09-27T08:55:27Z</time>
      </trkpt>
      <trkpt lat="50.2576" lon="5.73036">
        <ele>455</ele>
        <time>2015-09-27T08:55:32Z</time>
      </trkpt>
      <trkpt lat="50.25766" lon="5.73033">
        <ele>455</ele>
        <time>2015-09-27T08:55:38Z</time>
      </trkpt>
      <trkpt lat="50.25775" lon="5.73029">
        <ele>455</ele>
        <time>2015-09-27T08:55:43Z</time>
      </trkpt>
      <trkpt lat="50.25781" lon="5.73027">
        <ele>455</ele>
        <time>2015-09-27T08:55:49Z</time>
      </trkpt>
      <trkpt lat="50.25784" lon="5.73025">
        <ele>455</ele>
        <time>2015-09-27T08:55:54Z</time>
      </trkpt>
      <trkpt lat="50.2579" lon="5.73021">
        <ele>454</ele>
        <time>2015-09-27T08:56:00Z</time>
      </trkpt>
      <trkpt lat="50.25795" lon="5.73018">
        <ele>454</ele>
        <time>2015-09-27T08:56:05Z</time>
      </trkpt>
      <trkpt lat="50.25797" lon="5.73015">
        <ele>454</ele>
        <time>2015-09-27T08:56:11Z</time>
      </trkpt>
      <trkpt lat="50.258" lon="5.73012">
        <ele>453</ele>
        <time>2015-09-27T08:56:16Z</time>
      </trkpt>
      <trkpt lat="50.25805" lon="5.73007">
        <ele>453</ele>
        <time>2015-09-27T08:56:21Z</time>
      </trkpt>
      <trkpt lat="50.25814" lon="5.73005">
        <ele>453</ele>
        <time>2015-09-27T08:56:27Z</time>
      </trkpt>
      <trkpt lat="50.25821" lon="5.73003">
        <ele>453</ele>
        <time>2015-09-27T08:56:33Z</time>
      </trkpt>
      <trkpt lat="50.25828" lon="5.73">
        <ele>452</ele>
        <time>2015-09-27T08:56:39Z</time>
      </trkpt>
      <trkpt lat="50.25833" lon="5.72997">
        <ele>452</ele>
        <time>2015-09-27T08:56:44Z</time>
      </trkpt>
      <trkpt lat="50.2584" lon="5.72994">
        <ele>452</ele>
        <time>2015-09-27T08:56:50Z</time>
      </trkpt>
      <trkpt lat="50.25848" lon="5.72992">
        <ele>451</ele>
        <time>2015-09-27T08:56:56Z</time>
      </trkpt>
      <trkpt lat="50.25855" lon="5.72989">
        <ele>451</ele>
        <time>2015-09-27T08:57:02Z</time>
      </trkpt>
      <trkpt lat="50.25861" lon="5.72985">
        <ele>451</ele>
        <time>2015-09-27T08:57:07Z</time>
      </trkpt>
      <trkpt lat="50.25867" lon="5.72982">
        <ele>450</ele>
        <time>2015-09-27T08:57:13Z</time>
      </trkpt>
      <trkpt lat="50.2587" lon="5.72978">
        <ele>450</ele>
        <time>2015-09-27T08:57:18Z</time>
      </trkpt>
      <trkpt lat="50.25878" lon="5.72976">
        <ele>450</ele>
        <time>2015-09-27T08:57:24Z</time>
      </trkpt>
      <trkpt lat="50.25883" lon="5.72974">
        <ele>450</ele>
        <time>2015-09-27T08:57:29Z</time>
      </trkpt>
      <trkpt lat="50.2589" lon="5.72971">
        <ele>449</ele>
        <time>2015-09-27T08:57:35Z</time>
      </trkpt>
      <trkpt lat="50.25896" lon="5.72969">
        <ele>449</ele>
        <time>2015-09-27T08:57:41Z</time>
      </trkpt>
      <trkpt lat="50.25903" lon="5.72965">
        <ele>448</ele>
        <time>2015-09-27T08:57:47Z</time>
      </trkpt>
      <trkpt lat="50.25908" lon="5.72963">
        <ele>449</ele>
        <time>2015-09-27T08:57:53Z</time>
      </trkpt>
      <trkpt lat="50.25916" lon="5.7296">
        <ele>449</ele>
        <time>2015-09-27T08:57:58Z</time>
      </trkpt>
      <trkpt lat="50.25922" lon="5.72958">
        <ele>448</ele>
        <time>2015-09-27T08:58:03Z</time>
      </trkpt>
      <trkpt lat="50.2593" lon="5.72954">
        <ele>448</ele>
        <time>2015-09-27T08:58:09Z</time>
      </trkpt>
      <trkpt lat="50.25937" lon="5.72951">
        <ele>448</ele>
        <time>2015-09-27T08:58:15Z</time>
      </trkpt>
      <trkpt lat="50.25943" lon="5.72948">
        <ele>448</ele>
        <time>2015-09-27T08:58:20Z</time>
      </trkpt>
      <trkpt lat="50.25951" lon="5.72945">
        <ele>448</ele>
        <time>2015-09-27T08:58:26Z</time>
      </trkpt>
      <trkpt lat="50.25958" lon="5.72942">
        <ele>448</ele>
        <time>2015-09-27T08:58:32Z</time>
      </trkpt>
      <trkpt lat="50.25964" lon="5.72941">
        <ele>448</ele>
        <time>2015-09-27T08:58:37Z</time>
      </trkpt>
      <trkpt lat="50.25971" lon="5.72937">
        <ele>447</ele>
        <time>2015-09-27T08:58:43Z</time>
      </trkpt>
      <trkpt lat="50.25977" lon="5.72934">
        <ele>447</ele>
        <time>2015-09-27T08:58:48Z</time>
      </trkpt>
      <trkpt lat="50.25983" lon="5.72931">
        <ele>447</ele>
        <time>2015-09-27T08:58:54Z</time>
      </trkpt>
      <trkpt lat="50.25989" lon="5.72929">
        <ele>447</ele>
        <time>2015-09-27T08:59:00Z</time>
      </trkpt>
      <trkpt lat="50.25993" lon="5.72927">
        <ele>446</ele>
        <time>2015-09-27T08:59:05Z</time>
      </trkpt>
      <trkpt lat="50.25998" lon="5.72925">
        <ele>446</ele>
        <time>2015-09-27T08:59:10Z</time>
      </trkpt>
      <trkpt lat="50.26" lon="5.72923">
        <ele>446</ele>
        <time>2015-09-27T08:59:16Z</time>
      </trkpt>
      <trkpt lat="50.26005" lon="5.72921">
        <ele>446</ele>
        <time>2015-09-27T08:59:21Z</time>
      </trkpt>
      <trkpt lat="50.26012" lon="5.72919">
        <ele>446</ele>
        <time>2015-09-27T08:59:27Z</time>
      </trkpt>
      <trkpt lat="50.26018" lon="5.72915">
        <ele>446</ele>
        <time>2015-09-27T08:59:32Z</time>
      </trkpt>
      <trkpt lat="50.26022" lon="5.72907">
        <ele>445</ele>
        <time>2015-09-27T08:59:38Z</time>
      </trkpt>
      <trkpt lat="50.26026" lon="5.72899">
        <ele>445</ele>
        <time>2015-09-27T08:59:44Z</time>
      </trkpt>
      <trkpt lat="50.26026" lon="5.7289">
        <ele>446</ele>
        <time>2015-09-27T08:59:50Z</time>
      </trkpt>
      <trkpt lat="50.26028" lon="5.72882">
        <ele>447</ele>
        <time>2015-09-27T08:59:55Z</time>
      </trkpt>
      <trkpt lat="50.26029" lon="5.72872">
        <ele>447</ele>
        <time>2015-09-27T09:00:01Z</time>
      </trkpt>
      <trkpt lat="50.26032" lon="5.72862">
        <ele>447</ele>
        <time>2015-09-27T09:00:07Z</time>
      </trkpt>
      <trkpt lat="50.26031" lon="5.72852">
        <ele>447</ele>
        <time>2015-09-27T09:00:13Z</time>
      </trkpt>
      <trkpt lat="50.26032" lon="5.72842">
        <ele>447</ele>
        <time>2015-09-27T09:00:18Z</time>
      </trkpt>
      <trkpt lat="50.26034" lon="5.72833">
        <ele>448</ele>
        <time>2015-09-27T09:00:23Z</time>
      </trkpt>
      <trkpt lat="50.26037" lon="5.72822">
        <ele>448</ele>
        <time>2015-09-27T09:00:29Z</time>
      </trkpt>
      <trkpt lat="50.26039" lon="5.72812">
        <ele>448</ele>
        <time>2015-09-27T09:00:35Z</time>
      </trkpt>
      <trkpt lat="50.26038" lon="5.72807">
        <ele>449</ele>
        <time>2015-09-27T09:00:41Z</time>
      </trkpt>
      <trkpt lat="50.26038" lon="5.72804">
        <ele>449</ele>
        <time>2015-09-27T09:00:47Z</time>
      </trkpt>
      <trkpt lat="50.2604" lon="5.728">
        <ele>449</ele>
        <time>2015-09-27T09:00:52Z</time>
      </trkpt>
      <trkpt lat="50.26042" lon="5.7279">
        <ele>449</ele>
        <time>2015-09-27T09:00:58Z</time>
      </trkpt>
      <trkpt lat="50.26041" lon="5.72784">
        <ele>449</ele>
        <time>2015-09-27T09:01:03Z</time>
      </trkpt>
      <trkpt lat="50.26041" lon="5.72781">
        <ele>449</ele>
        <time>2015-09-27T09:01:09Z</time>
      </trkpt>
      <trkpt lat="50.26041" lon="5.72779">
        <ele>449</ele>
        <time>2015-09-27T09:01:14Z</time>
      </trkpt>
      <trkpt lat="50.26043" lon="5.72777">
        <ele>449</ele>
        <time>2015-09-27T09:01:20Z</time>
      </trkpt>
      <trkpt lat="50.26045" lon="5.72775">
        <ele>449</ele>
        <time>2015-09-27T09:01:25Z</time>
      </trkpt>
      <trkpt lat="50.26047" lon="5.72773">
        <ele>449</ele>
        <time>2015-09-27T09:01:31Z</time>
      </trkpt>
      <trkpt lat="50.2605" lon="5.72766">
        <ele>449</ele>
        <time>2015-09-27T09:01:36Z</time>
      </trkpt>
      <trkpt lat="50.26049" lon="5.7276">
        <ele>449</ele>
        <time>2015-09-27T09:01:41Z</time>
      </trkpt>
      <trkpt lat="50.26051" lon="5.72751">
        <ele>449</ele>
        <time>2015-09-27T09:01:47Z</time>
      </trkpt>
      <trkpt lat="50.2605" lon="5.72744">
        <ele>449</ele>
        <time>2015-09-27T09:01:52Z</time>
      </trkpt>
      <trkpt lat="50.26051" lon="5.72736">
        <ele>449</ele>
        <time>2015-09-27T09:01:57Z</time>
      </trkpt>
      <trkpt lat="50.26052" lon="5.72727">
        <ele>450</ele>
        <time>2015-09-27T09:02:03Z</time>
      </trkpt>
      <trkpt lat="50.26052" lon="5.72719">
        <ele>450</ele>
        <time>2015-09-27T09:02:09Z</time>
      </trkpt>
      <trkpt lat="50.26053" lon="5.72711">
        <ele>450</ele>
        <time>2015-09-27T09:02:14Z</time>
      </trkpt>
      <trkpt lat="50.26052" lon="5.72703">
        <ele>451</ele>
        <time>2015-09-27T09:02:19Z</time>
      </trkpt>
      <trkpt lat="50.26052" lon="5.72694">
        <ele>451</ele>
        <time>2015-09-27T09:02:25Z</time>
      </trkpt>
      <trkpt lat="50.26054" lon="5.72687">
        <ele>451</ele>
        <time>2015-09-27T09:02:30Z</time>
      </trkpt>
      <trkpt lat="50.26055" lon="5.72678">
        <ele>451</ele>
        <time>2015-09-27T09:02:36Z</time>
      </trkpt>
      <trkpt lat="50.26055" lon="5.7267">
        <ele>452</ele>
        <time>2015-09-27T09:02:41Z</time>
      </trkpt>
      <trkpt lat="50.26055" lon="5.72661">
        <ele>452</ele>
        <time>2015-09-27T09:02:47Z</time>
      </trkpt>
      <trkpt lat="50.26057" lon="5.72654">
        <ele>451</ele>
        <time>2015-09-27T09:02:52Z</time>
      </trkpt>
      <trkpt lat="50.26058" lon="5.72647">
        <ele>452</ele>
        <time>2015-09-27T09:02:57Z</time>
      </trkpt>
      <trkpt lat="50.26059" lon="5.72638">
        <ele>452</ele>
        <time>2015-09-27T09:03:03Z</time>
      </trkpt>
      <trkpt lat="50.26059" lon="5.72633">
        <ele>453</ele>
        <time>2015-09-27T09:03:08Z</time>
      </trkpt>
      <trkpt lat="50.26061" lon="5.72628">
        <ele>453</ele>
        <time>2015-09-27T09:03:14Z</time>
      </trkpt>
      <trkpt lat="50.26061" lon="5.72623">
        <ele>452</ele>
        <time>2015-09-27T09:03:20Z</time>
      </trkpt>
      <trkpt lat="50.26063" lon="5.72617">
        <ele>452</ele>
        <time>2015-09-27T09:03:26Z</time>
      </trkpt>
      <trkpt lat="50.26066" lon="5.7261">
        <ele>452</ele>
        <time>2015-09-27T09:03:32Z</time>
      </trkpt>
      <trkpt lat="50.26066" lon="5.72601">
        <ele>452</ele>
        <time>2015-09-27T09:03:37Z</time>
      </trkpt>
      <trkpt lat="50.26066" lon="5.72594">
        <ele>453</ele>
        <time>2015-09-27T09:03:42Z</time>
      </trkpt>
      <trkpt lat="50.26065" lon="5.72587">
        <ele>453</ele>
        <time>2015-09-27T09:03:47Z</time>
      </trkpt>
      <trkpt lat="50.26066" lon="5.72582">
        <ele>454</ele>
        <time>2015-09-27T09:03:52Z</time>
      </trkpt>
      <trkpt lat="50.26069" lon="5.72577">
        <ele>454</ele>
        <time>2015-09-27T09:03:57Z</time>
      </trkpt>
      <trkpt lat="50.26072" lon="5.72575">
        <ele>453</ele>
        <time>2015-09-27T09:04:02Z</time>
      </trkpt>
      <trkpt lat="50.26076" lon="5.72575">
        <ele>453</ele>
        <time>2015-09-27T09:04:07Z</time>
      </trkpt>
      <trkpt lat="50.2608" lon="5.72574">
        <ele>454</ele>
        <time>2015-09-27T09:04:12Z</time>
      </trkpt>
      <trkpt lat="50.26083" lon="5.72574">
        <ele>454</ele>
        <time>2015-09-27T09:04:17Z</time>
      </trkpt>
      <trkpt lat="50.26088" lon="5.72575">
        <ele>454</ele>
        <time>2015-09-27T09:04:22Z</time>
      </trkpt>
      <trkpt lat="50.26093" lon="5.72576">
        <ele>453</ele>
        <time>2015-09-27T09:04:27Z</time>
      </trkpt>
      <trkpt lat="50.26099" lon="5.72579">
        <ele>453</ele>
        <time>2015-09-27T09:04:33Z</time>
      </trkpt>
      <trkpt lat="50.26105" lon="5.7258">
        <ele>454</ele>
        <time>2015-09-27T09:04:38Z</time>
      </trkpt>
      <trkpt lat="50.26111" lon="5.72581">
        <ele>454</ele>
        <time>2015-09-27T09:04:44Z</time>
      </trkpt>
      <trkpt lat="50.26117" lon="5.72583">
        <ele>454</ele>
        <time>2015-09-27T09:04:49Z</time>
      </trkpt>
      <trkpt lat="50.26123" lon="5.72586">
        <ele>454</ele>
        <time>2015-09-27T09:04:54Z</time>
      </trkpt>
      <trkpt lat="50.26128" lon="5.72587">
        <ele>454</ele>
        <time>2015-09-27T09:04:59Z</time>
      </trkpt>
      <trkpt lat="50.26134" lon="5.72589">
        <ele>454</ele>
        <time>2015-09-27T09:05:05Z</time>
      </trkpt>
      <trkpt lat="50.26141" lon="5.72589">
        <ele>454</ele>
        <time>2015-09-27T09:05:10Z</time>
      </trkpt>
      <trkpt lat="50.26145" lon="5.72589">
        <ele>454</ele>
        <time>2015-09-27T09:05:15Z</time>
      </trkpt>
      <trkpt lat="50.26154" lon="5.72589">
        <ele>454</ele>
        <time>2015-09-27T09:05:21Z</time>
      </trkpt>
      <trkpt lat="50.26161" lon="5.72584">
        <ele>455</ele>
        <time>2015-09-27T09:05:26Z</time>
      </trkpt>
      <trkpt lat="50.26165" lon="5.72587">
        <ele>454</ele>
        <time>2015-09-27T09:05:31Z</time>
      </trkpt>
      <trkpt lat="50.26168" lon="5.72594">
        <ele>454</ele>
        <time>2015-09-27T09:05:36Z</time>
      </trkpt>
      <trkpt lat="50.26172" lon="5.72598">
        <ele>455</ele>
        <time>2015-09-27T09:05:42Z</time>
      </trkpt>
      <trkpt lat="50.26175" lon="5.72599">
        <ele>455</ele>
        <time>2015-09-27T09:05:48Z</time>
      </trkpt>
      <trkpt lat="50.26177" lon="5.72598">
        <ele>454</ele>
        <time>2015-09-27T09:05:53Z</time>
      </trkpt>
      <trkpt lat="50.26178" lon="5.726">
        <ele>455</ele>
        <time>2015-09-27T09:05:59Z</time>
      </trkpt>
      <trkpt lat="50.26178" lon="5.72601">
        <ele>455</ele>
        <time>2015-09-27T09:06:04Z</time>
      </trkpt>
      <trkpt lat="50.26181" lon="5.72604">
        <ele>454</ele>
        <time>2015-09-27T09:06:10Z</time>
      </trkpt>
      <trkpt lat="50.26185" lon="5.72607">
        <ele>454</ele>
        <time>2015-09-27T09:06:16Z</time>
      </trkpt>
      <trkpt lat="50.2619" lon="5.72609">
        <ele>455</ele>
        <time>2015-09-27T09:06:22Z</time>
      </trkpt>
      <trkpt lat="50.26195" lon="5.7261">
        <ele>455</ele>
        <time>2015-09-27T09:06:27Z</time>
      </trkpt>
      <trkpt lat="50.26199" lon="5.72611">
        <ele>455</ele>
        <time>2015-09-27T09:06:32Z</time>
      </trkpt>
      <trkpt lat="50.26207" lon="5.72612">
        <ele>455</ele>
        <time>2015-09-27T09:06:38Z</time>
      </trkpt>
      <trkpt lat="50.26213" lon="5.72612">
        <ele>454</ele>
        <time>2015-09-27T09:06:44Z</time>
      </trkpt>
      <trkpt lat="50.2622" lon="5.72613">
        <ele>455</ele>
        <time>2015-09-27T09:06:50Z</time>
      </trkpt>
      <trkpt lat="50.26227" lon="5.72613">
        <ele>454</ele>
        <time>2015-09-27T09:06:56Z</time>
      </trkpt>
      <trkpt lat="50.26233" lon="5.72613">
        <ele>454</ele>
        <time>2015-09-27T09:07:01Z</time>
      </trkpt>
      <trkpt lat="50.2624" lon="5.72615">
        <ele>454</ele>
        <time>2015-09-27T09:07:07Z</time>
      </trkpt>
      <trkpt lat="50.26249" lon="5.72616">
        <ele>454</ele>
        <time>2015-09-27T09:07:13Z</time>
      </trkpt>
      <trkpt lat="50.26257" lon="5.72617">
        <ele>453</ele>
        <time>2015-09-27T09:07:19Z</time>
      </trkpt>
      <trkpt lat="50.26263" lon="5.72618">
        <ele>453</ele>
        <time>2015-09-27T09:07:24Z</time>
      </trkpt>
      <trkpt lat="50.26267" lon="5.72619">
        <ele>454</ele>
        <time>2015-09-27T09:07:29Z</time>
      </trkpt>
      <trkpt lat="50.26269" lon="5.72618">
        <ele>454</ele>
        <time>2015-09-27T09:07:34Z</time>
      </trkpt>
      <trkpt lat="50.26275" lon="5.72618">
        <ele>453</ele>
        <time>2015-09-27T09:07:40Z</time>
      </trkpt>
      <trkpt lat="50.2628" lon="5.72619">
        <ele>453</ele>
        <time>2015-09-27T09:07:45Z</time>
      </trkpt>
      <trkpt lat="50.26285" lon="5.72621">
        <ele>453</ele>
        <time>2015-09-27T09:07:50Z</time>
      </trkpt>
      <trkpt lat="50.26291" lon="5.72622">
        <ele>452</ele>
        <time>2015-09-27T09:07:56Z</time>
      </trkpt>
      <trkpt lat="50.26295" lon="5.72623">
        <ele>452</ele>
        <time>2015-09-27T09:08:01Z</time>
      </trkpt>
      <trkpt lat="50.263" lon="5.72626">
        <ele>452</ele>
        <time>2015-09-27T09:08:06Z</time>
      </trkpt>
      <trkpt lat="50.26302" lon="5.72625">
        <ele>452</ele>
        <time>2015-09-27T09:08:12Z</time>
      </trkpt>
      <trkpt lat="50.26305" lon="5.72624">
        <ele>452</ele>
        <time>2015-09-27T09:08:18Z</time>
      </trkpt>
      <trkpt lat="50.26306" lon="5.72624">
        <ele>452</ele>
        <time>2015-09-27T09:08:23Z</time>
      </trkpt>
      <trkpt lat="50.26309" lon="5.72624">
        <ele>452</ele>
        <time>2015-09-27T09:08:28Z</time>
      </trkpt>
      <trkpt lat="50.26313" lon="5.72625">
        <ele>452</ele>
        <time>2015-09-27T09:08:33Z</time>
      </trkpt>
      <trkpt lat="50.26318" lon="5.72628">
        <ele>452</ele>
        <time>2015-09-27T09:08:39Z</time>
      </trkpt>
      <trkpt lat="50.26321" lon="5.72631">
        <ele>452</ele>
        <time>2015-09-27T09:08:44Z</time>
      </trkpt>
      <trkpt lat="50.26324" lon="5.72633">
        <ele>452</ele>
        <time>2015-09-27T09:08:50Z</time>
      </trkpt>
      <trkpt lat="50.26327" lon="5.72639">
        <ele>452</ele>
        <time>2015-09-27T09:08:55Z</time>
      </trkpt>
      <trkpt lat="50.26329" lon="5.72647">
        <ele>452</ele>
        <time>2015-09-27T09:09:01Z</time>
      </trkpt>
      <trkpt lat="50.26332" lon="5.72655">
        <ele>452</ele>
        <time>2015-09-27T09:09:07Z</time>
      </trkpt>
      <trkpt lat="50.26334" lon="5.72664">
        <ele>452</ele>
        <time>2015-09-27T09:09:12Z</time>
      </trkpt>
      <trkpt lat="50.26336" lon="5.72672">
        <ele>452</ele>
        <time>2015-09-27T09:09:17Z</time>
      </trkpt>
      <trkpt lat="50.26339" lon="5.72681">
        <ele>452</ele>
        <time>2015-09-27T09:09:22Z</time>
      </trkpt>
      <trkpt lat="50.2634" lon="5.7269">
        <ele>451</ele>
        <time>2015-09-27T09:09:27Z</time>
      </trkpt>
      <trkpt lat="50.26342" lon="5.727">
        <ele>451</ele>
        <time>2015-09-27T09:09:32Z</time>
      </trkpt>
      <trkpt lat="50.26345" lon="5.72708">
        <ele>452</ele>
        <time>2015-09-27T09:09:37Z</time>
      </trkpt>
      <trkpt lat="50.26348" lon="5.72716">
        <ele>451</ele>
        <time>2015-09-27T09:09:42Z</time>
      </trkpt>
      <trkpt lat="50.2635" lon="5.72726">
        <ele>451</ele>
        <time>2015-09-27T09:09:48Z</time>
      </trkpt>
      <trkpt lat="50.26351" lon="5.72735">
        <ele>451</ele>
        <time>2015-09-27T09:09:53Z</time>
      </trkpt>
      <trkpt lat="50.26353" lon="5.72746">
        <ele>451</ele>
        <time>2015-09-27T09:09:59Z</time>
      </trkpt>
      <trkpt lat="50.26355" lon="5.72759">
        <ele>450</ele>
        <time>2015-09-27T09:10:05Z</time>
      </trkpt>
      <trkpt lat="50.26358" lon="5.72769">
        <ele>450</ele>
        <time>2015-09-27T09:10:10Z</time>
      </trkpt>
      <trkpt lat="50.26362" lon="5.72779">
        <ele>451</ele>
        <time>2015-09-27T09:10:15Z</time>
      </trkpt>
      <trkpt lat="50.26363" lon="5.72788">
        <ele>451</ele>
        <time>2015-09-27T09:10:20Z</time>
      </trkpt>
      <trkpt lat="50.26365" lon="5.72799">
        <ele>451</ele>
        <time>2015-09-27T09:10:26Z</time>
      </trkpt>
      <trkpt lat="50.26369" lon="5.72808">
        <ele>450</ele>
        <time>2015-09-27T09:10:32Z</time>
      </trkpt>
      <trkpt lat="50.26373" lon="5.72813">
        <ele>450</ele>
        <time>2015-09-27T09:10:37Z</time>
      </trkpt>
      <trkpt lat="50.26378" lon="5.72816">
        <ele>450</ele>
        <time>2015-09-27T09:10:43Z</time>
      </trkpt>
      <trkpt lat="50.2638" lon="5.72817">
        <ele>450</ele>
        <time>2015-09-27T09:10:49Z</time>
      </trkpt>
      <trkpt lat="50.26384" lon="5.72819">
        <ele>450</ele>
        <time>2015-09-27T09:10:54Z</time>
      </trkpt>
      <trkpt lat="50.26389" lon="5.7282">
        <ele>449</ele>
        <time>2015-09-27T09:10:59Z</time>
      </trkpt>
      <trkpt lat="50.26395" lon="5.72821">
        <ele>449</ele>
        <time>2015-09-27T09:11:04Z</time>
      </trkpt>
      <trkpt lat="50.26401" lon="5.72824">
        <ele>449</ele>
        <time>2015-09-27T09:11:10Z</time>
      </trkpt>
      <trkpt lat="50.26406" lon="5.72826">
        <ele>449</ele>
        <time>2015-09-27T09:11:16Z</time>
      </trkpt>
      <trkpt lat="50.26411" lon="5.72827">
        <ele>449</ele>
        <time>2015-09-27T09:11:21Z</time>
      </trkpt>
      <trkpt lat="50.26417" lon="5.72831">
        <ele>448</ele>
        <time>2015-09-27T09:11:26Z</time>
      </trkpt>
      <trkpt lat="50.26423" lon="5.72836">
        <ele>448</ele>
        <time>2015-09-27T09:11:32Z</time>
      </trkpt>
      <trkpt lat="50.26428" lon="5.72841">
        <ele>448</ele>
        <time>2015-09-27T09:11:38Z</time>
      </trkpt>
      <trkpt lat="50.26434" lon="5.72846">
        <ele>447</ele>
        <time>2015-09-27T09:11:44Z</time>
      </trkpt>
      <trkpt lat="50.26438" lon="5.72851">
        <ele>447</ele>
        <time>2015-09-27T09:11:49Z</time>
      </trkpt>
      <trkpt lat="50.26443" lon="5.72857">
        <ele>447</ele>
        <time>2015-09-27T09:11:55Z</time>
      </trkpt>
      <trkpt lat="50.26448" lon="5.7286">
        <ele>447</ele>
        <time>2015-09-27T09:12:00Z</time>
      </trkpt>
      <trkpt lat="50.26451" lon="5.72864">
        <ele>447</ele>
        <time>2015-09-27T09:12:06Z</time>
      </trkpt>
      <trkpt lat="50.26456" lon="5.72867">
        <ele>447</ele>
        <time>2015-09-27T09:12:11Z</time>
      </trkpt>
      <trkpt lat="50.26459" lon="5.72874">
        <ele>447</ele>
        <time>2015-09-27T09:12:17Z</time>
      </trkpt>
      <trkpt lat="50.26463" lon="5.72879">
        <ele>447</ele>
        <time>2015-09-27T09:12:22Z</time>
      </trkpt>
      <trkpt lat="50.26465" lon="5.72885">
        <ele>447</ele>
        <time>2015-09-27T09:12:28Z</time>
      </trkpt>
      <trkpt lat="50.26469" lon="5.72889">
        <ele>447</ele>
        <time>2015-09-27T09:12:33Z</time>
      </trkpt>
      <trkpt lat="50.26469" lon="5.72891">
        <ele>447</ele>
        <time>2015-09-27T09:12:40Z</time>
      </trkpt>
      <trkpt lat="50.2647" lon="5.72896">
        <ele>446</ele>
        <time>2015-09-27T09:12:45Z</time>
      </trkpt>
      <trkpt lat="50.26471" lon="5.72902">
        <ele>446</ele>
        <time>2015-09-27T09:12:50Z</time>
      </trkpt>
      <trkpt lat="50.26472" lon="5.72909">
        <ele>446</ele>
        <time>2015-09-27T09:12:55Z</time>
      </trkpt>
      <trkpt lat="50.26475" lon="5.72914">
        <ele>447</ele>
        <time>2015-09-27T09:13:00Z</time>
      </trkpt>
      <trkpt lat="50.26479" lon="5.72918">
        <ele>447</ele>
        <time>2015-09-27T09:13:06Z</time>
      </trkpt>
      <trkpt lat="50.26479" lon="5.72922">
        <ele>447</ele>
        <time>2015-09-27T09:13:11Z</time>
      </trkpt>
      <trkpt lat="50.26479" lon="5.72923">
        <ele>448</ele>
        <time>2015-09-27T09:13:17Z</time>
      </trkpt>
      <trkpt lat="50.2648" lon="5.72925">
        <ele>447</ele>
        <time>2015-09-27T09:13:22Z</time>
      </trkpt>
      <trkpt lat="50.26481" lon="5.72929">
        <ele>446</ele>
        <time>2015-09-27T09:13:28Z</time>
      </trkpt>
      <trkpt lat="50.26484" lon="5.72933">
        <ele>446</ele>
        <time>2015-09-27T09:13:34Z</time>
      </trkpt>
      <trkpt lat="50.26487" lon="5.72934">
        <ele>447</ele>
        <time>2015-09-27T09:13:40Z</time>
      </trkpt>
      <trkpt lat="50.26489" lon="5.72936">
        <ele>447</ele>
        <time>2015-09-27T09:13:45Z</time>
      </trkpt>
      <trkpt lat="50.2649" lon="5.72937">
        <ele>447</ele>
        <time>2015-09-27T09:13:51Z</time>
      </trkpt>
      <trkpt lat="50.26491" lon="5.7294">
        <ele>447</ele>
        <time>2015-09-27T09:13:56Z</time>
      </trkpt>
      <trkpt lat="50.26494" lon="5.72943">
        <ele>447</ele>
        <time>2015-09-27T09:14:01Z</time>
      </trkpt>
      <trkpt lat="50.26496" lon="5.72946">
        <ele>447</ele>
        <time>2015-09-27T09:14:10Z</time>
      </trkpt>
      <trkpt lat="50.26498" lon="5.72949">
        <ele>447</ele>
        <time>2015-09-27T09:14:16Z</time>
      </trkpt>
      <trkpt lat="50.26498" lon="5.72954">
        <ele>446</ele>
        <time>2015-09-27T09:14:21Z</time>
      </trkpt>
      <trkpt lat="50.26499" lon="5.72961">
        <ele>446</ele>
        <time>2015-09-27T09:14:27Z</time>
      </trkpt>
      <trkpt lat="50.265" lon="5.72966">
        <ele>447</ele>
        <time>2015-09-27T09:14:32Z</time>
      </trkpt>
      <trkpt lat="50.26501" lon="5.72972">
        <ele>447</ele>
        <time>2015-09-27T09:14:37Z</time>
      </trkpt>
      <trkpt lat="50.26502" lon="5.72979">
        <ele>447</ele>
        <time>2015-09-27T09:14:43Z</time>
      </trkpt>
      <trkpt lat="50.26504" lon="5.72985">
        <ele>446</ele>
        <time>2015-09-27T09:14:48Z</time>
      </trkpt>
      <trkpt lat="50.26506" lon="5.7299">
        <ele>447</ele>
        <time>2015-09-27T09:14:53Z</time>
      </trkpt>
      <trkpt lat="50.26508" lon="5.72996">
        <ele>447</ele>
        <time>2015-09-27T09:14:59Z</time>
      </trkpt>
      <trkpt lat="50.26509" lon="5.73001">
        <ele>447</ele>
        <time>2015-09-27T09:15:04Z</time>
      </trkpt>
      <trkpt lat="50.2651" lon="5.73009">
        <ele>447</ele>
        <time>2015-09-27T09:15:10Z</time>
      </trkpt>
      <trkpt lat="50.2651" lon="5.73016">
        <ele>447</ele>
        <time>2015-09-27T09:15:16Z</time>
      </trkpt>
      <trkpt lat="50.2651" lon="5.73021">
        <ele>447</ele>
        <time>2015-09-27T09:15:22Z</time>
      </trkpt>
      <trkpt lat="50.26511" lon="5.73027">
        <ele>446</ele>
        <time>2015-09-27T09:15:27Z</time>
      </trkpt>
      <trkpt lat="50.26512" lon="5.73034">
        <ele>447</ele>
        <time>2015-09-27T09:15:33Z</time>
      </trkpt>
      <trkpt lat="50.26512" lon="5.7304">
        <ele>447</ele>
        <time>2015-09-27T09:15:38Z</time>
      </trkpt>
      <trkpt lat="50.26511" lon="5.73045">
        <ele>447</ele>
        <time>2015-09-27T09:15:43Z</time>
      </trkpt>
      <trkpt lat="50.26511" lon="5.73049">
        <ele>448</ele>
        <time>2015-09-27T09:15:49Z</time>
      </trkpt>
      <trkpt lat="50.26512" lon="5.73054">
        <ele>447</ele>
        <time>2015-09-27T09:15:54Z</time>
      </trkpt>
      <trkpt lat="50.26513" lon="5.73061">
        <ele>447</ele>
        <time>2015-09-27T09:16:00Z</time>
      </trkpt>
      <trkpt lat="50.26515" lon="5.73065">
        <ele>447</ele>
        <time>2015-09-27T09:16:05Z</time>
      </trkpt>
      <trkpt lat="50.26517" lon="5.73069">
        <ele>447</ele>
        <time>2015-09-27T09:16:10Z</time>
      </trkpt>
      <trkpt lat="50.26517" lon="5.73074">
        <ele>447</ele>
        <time>2015-09-27T09:16:15Z</time>
      </trkpt>
      <trkpt lat="50.26518" lon="5.73084">
        <ele>447</ele>
        <time>2015-09-27T09:16:21Z</time>
      </trkpt>
      <trkpt lat="50.26519" lon="5.73093">
        <ele>447</ele>
        <time>2015-09-27T09:16:27Z</time>
      </trkpt>
      <trkpt lat="50.26521" lon="5.731">
        <ele>447</ele>
        <time>2015-09-27T09:16:33Z</time>
      </trkpt>
      <trkpt lat="50.26524" lon="5.73104">
        <ele>447</ele>
        <time>2015-09-27T09:16:39Z</time>
      </trkpt>
      <trkpt lat="50.26527" lon="5.73106">
        <ele>447</ele>
        <time>2015-09-27T09:16:44Z</time>
      </trkpt>
      <trkpt lat="50.26531" lon="5.73109">
        <ele>448</ele>
        <time>2015-09-27T09:16:49Z</time>
      </trkpt>
      <trkpt lat="50.26534" lon="5.73112">
        <ele>448</ele>
        <time>2015-09-27T09:16:54Z</time>
      </trkpt>
      <trkpt lat="50.26537" lon="5.73114">
        <ele>448</ele>
        <time>2015-09-27T09:16:59Z</time>
      </trkpt>
      <trkpt lat="50.26541" lon="5.73116">
        <ele>448</ele>
        <time>2015-09-27T09:17:04Z</time>
      </trkpt>
      <trkpt lat="50.26546" lon="5.7312">
        <ele>448</ele>
        <time>2015-09-27T09:17:10Z</time>
      </trkpt>
      <trkpt lat="50.26548" lon="5.73122">
        <ele>448</ele>
        <time>2015-09-27T09:17:15Z</time>
      </trkpt>
      <trkpt lat="50.26551" lon="5.73123">
        <ele>448</ele>
        <time>2015-09-27T09:17:20Z</time>
      </trkpt>
      <trkpt lat="50.26555" lon="5.73126">
        <ele>448</ele>
        <time>2015-09-27T09:17:26Z</time>
      </trkpt>
      <trkpt lat="50.26558" lon="5.73129">
        <ele>448</ele>
        <time>2015-09-27T09:17:31Z</time>
      </trkpt>
      <trkpt lat="50.26561" lon="5.7313">
        <ele>448</ele>
        <time>2015-09-27T09:17:36Z</time>
      </trkpt>
      <trkpt lat="50.26563" lon="5.73131">
        <ele>448</ele>
        <time>2015-09-27T09:17:42Z</time>
      </trkpt>
      <trkpt lat="50.26565" lon="5.73133">
        <ele>447</ele>
        <time>2015-09-27T09:17:47Z</time>
      </trkpt>
      <trkpt lat="50.26567" lon="5.73135">
        <ele>448</ele>
        <time>2015-09-27T09:17:53Z</time>
      </trkpt>
      <trkpt lat="50.26567" lon="5.73135">
        <ele>448</ele>
        <time>2015-09-27T09:17:59Z</time>
      </trkpt>
      <trkpt lat="50.26569" lon="5.73136">
        <ele>448</ele>
        <time>2015-09-27T09:18:04Z</time>
      </trkpt>
      <trkpt lat="50.26569" lon="5.73136">
        <ele>447</ele>
        <time>2015-09-27T09:18:09Z</time>
      </trkpt>
      <trkpt lat="50.26569" lon="5.73136">
        <ele>447</ele>
        <time>2015-09-27T09:18:15Z</time>
      </trkpt>
      <trkpt lat="50.2657" lon="5.73136">
        <ele>447</ele>
        <time>2015-09-27T09:18:20Z</time>
      </trkpt>
      <trkpt lat="50.26574" lon="5.73137">
        <ele>447</ele>
        <time>2015-09-27T09:18:26Z</time>
      </trkpt>
      <trkpt lat="50.26577" lon="5.73139">
        <ele>447</ele>
        <time>2015-09-27T09:18:31Z</time>
      </trkpt>
      <trkpt lat="50.26578" lon="5.7314">
        <ele>447</ele>
        <time>2015-09-27T09:18:37Z</time>
      </trkpt>
      <trkpt lat="50.26583" lon="5.73143">
        <ele>447</ele>
        <time>2015-09-27T09:18:42Z</time>
      </trkpt>
      <trkpt lat="50.26587" lon="5.73146">
        <ele>447</ele>
        <time>2015-09-27T09:18:47Z</time>
      </trkpt>
      <trkpt lat="50.26591" lon="5.73149">
        <ele>447</ele>
        <time>2015-09-27T09:18:53Z</time>
      </trkpt>
      <trkpt lat="50.26595" lon="5.73151">
        <ele>447</ele>
        <time>2015-09-27T09:18:58Z</time>
      </trkpt>
      <trkpt lat="50.266" lon="5.73155">
        <ele>447</ele>
        <time>2015-09-27T09:19:04Z</time>
      </trkpt>
      <trkpt lat="50.26605" lon="5.73159">
        <ele>447</ele>
        <time>2015-09-27T09:19:09Z</time>
      </trkpt>
      <trkpt lat="50.26606" lon="5.73159">
        <ele>447</ele>
        <time>2015-09-27T09:19:17Z</time>
      </trkpt>
      <trkpt lat="50.26606" lon="5.73159">
        <ele>447</ele>
        <time>2015-09-27T09:19:24Z</time>
      </trkpt>
      <trkpt lat="50.26607" lon="5.73159">
        <ele>446</ele>
        <time>2015-09-27T09:19:30Z</time>
      </trkpt>
      <trkpt lat="50.26607" lon="5.7316">
        <ele>447</ele>
        <time>2015-09-27T09:19:36Z</time>
      </trkpt>
      <trkpt lat="50.26611" lon="5.73163">
        <ele>447</ele>
        <time>2015-09-27T09:19:42Z</time>
      </trkpt>
      <trkpt lat="50.26615" lon="5.73167">
        <ele>447</ele>
        <time>2015-09-27T09:19:47Z</time>
      </trkpt>
      <trkpt lat="50.26621" lon="5.73172">
        <ele>446</ele>
        <time>2015-09-27T09:19:53Z</time>
      </trkpt>
      <trkpt lat="50.26626" lon="5.73175">
        <ele>446</ele>
        <time>2015-09-27T09:19:58Z</time>
      </trkpt>
      <trkpt lat="50.26632" lon="5.7318">
        <ele>446</ele>
        <time>2015-09-27T09:20:04Z</time>
      </trkpt>
      <trkpt lat="50.26638" lon="5.73186">
        <ele>445</ele>
        <time>2015-09-27T09:20:09Z</time>
      </trkpt>
      <trkpt lat="50.26643" lon="5.73189">
        <ele>445</ele>
        <time>2015-09-27T09:20:14Z</time>
      </trkpt>
      <trkpt lat="50.26648" lon="5.73193">
        <ele>445</ele>
        <time>2015-09-27T09:20:19Z</time>
      </trkpt>
      <trkpt lat="50.26651" lon="5.73194">
        <ele>445</ele>
        <time>2015-09-27T09:20:24Z</time>
      </trkpt>
      <trkpt lat="50.26658" lon="5.73199">
        <ele>445</ele>
        <time>2015-09-27T09:20:30Z</time>
      </trkpt>
      <trkpt lat="50.26666" lon="5.73205">
        <ele>445</ele>
        <time>2015-09-27T09:20:36Z</time>
      </trkpt>
      <trkpt lat="50.26674" lon="5.73209">
        <ele>444</ele>
        <time>2015-09-27T09:20:42Z</time>
      </trkpt>
      <trkpt lat="50.26681" lon="5.73212">
        <ele>444</ele>
        <time>2015-09-27T09:20:47Z</time>
      </trkpt>
      <trkpt lat="50.26684" lon="5.73213">
        <ele>444</ele>
        <time>2015-09-27T09:20:52Z</time>
      </trkpt>
      <trkpt lat="50.2669" lon="5.73217">
        <ele>443</ele>
        <time>2015-09-27T09:20:58Z</time>
      </trkpt>
      <trkpt lat="50.26696" lon="5.73222">
        <ele>443</ele>
        <time>2015-09-27T09:21:03Z</time>
      </trkpt>
      <trkpt lat="50.26702" lon="5.73228">
        <ele>443</ele>
        <time>2015-09-27T09:21:09Z</time>
      </trkpt>
      <trkpt lat="50.26709" lon="5.73232">
        <ele>443</ele>
        <time>2015-09-27T09:21:15Z</time>
      </trkpt>
      <trkpt lat="50.26716" lon="5.73235">
        <ele>442</ele>
        <time>2015-09-27T09:21:21Z</time>
      </trkpt>
      <trkpt lat="50.2672" lon="5.73243">
        <ele>442</ele>
        <time>2015-09-27T09:21:26Z</time>
      </trkpt>
      <trkpt lat="50.26721" lon="5.73251">
        <ele>442</ele>
        <time>2015-09-27T09:21:31Z</time>
      </trkpt>
      <trkpt lat="50.26719" lon="5.73259">
        <ele>443</ele>
        <time>2015-09-27T09:21:37Z</time>
      </trkpt>
      <trkpt lat="50.26718" lon="5.7326">
        <ele>443</ele>
        <time>2015-09-27T09:21:42Z</time>
      </trkpt>
      <trkpt lat="50.26717" lon="5.73266">
        <ele>442</ele>
        <time>2015-09-27T09:21:47Z</time>
      </trkpt>
      <trkpt lat="50.26713" lon="5.73271">
        <ele>442</ele>
        <time>2015-09-27T09:21:52Z</time>
      </trkpt>
      <trkpt lat="50.26709" lon="5.73278">
        <ele>443</ele>
        <time>2015-09-27T09:21:58Z</time>
      </trkpt>
      <trkpt lat="50.26706" lon="5.73282">
        <ele>443</ele>
        <time>2015-09-27T09:22:03Z</time>
      </trkpt>
      <trkpt lat="50.26704" lon="5.73285">
        <ele>444</ele>
        <time>2015-09-27T09:22:09Z</time>
      </trkpt>
      <trkpt lat="50.26701" lon="5.73291">
        <ele>443</ele>
        <time>2015-09-27T09:22:14Z</time>
      </trkpt>
      <trkpt lat="50.26695" lon="5.733">
        <ele>443</ele>
        <time>2015-09-27T09:22:20Z</time>
      </trkpt>
      <trkpt lat="50.2669" lon="5.73307">
        <ele>443</ele>
        <time>2015-09-27T09:22:25Z</time>
      </trkpt>
      <trkpt lat="50.26685" lon="5.73313">
        <ele>443</ele>
        <time>2015-09-27T09:22:31Z</time>
      </trkpt>
      <trkpt lat="50.26679" lon="5.73318">
        <ele>444</ele>
        <time>2015-09-27T09:22:37Z</time>
      </trkpt>
      <trkpt lat="50.26675" lon="5.73325">
        <ele>444</ele>
        <time>2015-09-27T09:22:42Z</time>
      </trkpt>
      <trkpt lat="50.26669" lon="5.73331">
        <ele>443</ele>
        <time>2015-09-27T09:22:48Z</time>
      </trkpt>
      <trkpt lat="50.26665" lon="5.73337">
        <ele>444</ele>
        <time>2015-09-27T09:22:53Z</time>
      </trkpt>
      <trkpt lat="50.26662" lon="5.73344">
        <ele>444</ele>
        <time>2015-09-27T09:22:58Z</time>
      </trkpt>
      <trkpt lat="50.26659" lon="5.73349">
        <ele>444</ele>
        <time>2015-09-27T09:23:04Z</time>
      </trkpt>
      <trkpt lat="50.26655" lon="5.73354">
        <ele>444</ele>
        <time>2015-09-27T09:23:10Z</time>
      </trkpt>
      <trkpt lat="50.2665" lon="5.73359">
        <ele>444</ele>
        <time>2015-09-27T09:23:15Z</time>
      </trkpt>
      <trkpt lat="50.26645" lon="5.73366">
        <ele>444</ele>
        <time>2015-09-27T09:23:21Z</time>
      </trkpt>
      <trkpt lat="50.26639" lon="5.73373">
        <ele>444</ele>
        <time>2015-09-27T09:23:27Z</time>
      </trkpt>
      <trkpt lat="50.26634" lon="5.73379">
        <ele>443</ele>
        <time>2015-09-27T09:23:32Z</time>
      </trkpt>
      <trkpt lat="50.26629" lon="5.73385">
        <ele>443</ele>
        <time>2015-09-27T09:23:37Z</time>
      </trkpt>
      <trkpt lat="50.26624" lon="5.73388">
        <ele>443</ele>
        <time>2015-09-27T09:23:43Z</time>
      </trkpt>
      <trkpt lat="50.26622" lon="5.7339">
        <ele>444</ele>
        <time>2015-09-27T09:23:48Z</time>
      </trkpt>
      <trkpt lat="50.26621" lon="5.73392">
        <ele>444</ele>
        <time>2015-09-27T09:23:53Z</time>
      </trkpt>
      <trkpt lat="50.26617" lon="5.73395">
        <ele>444</ele>
        <time>2015-09-27T09:23:58Z</time>
      </trkpt>
      <trkpt lat="50.26612" lon="5.73399">
        <ele>443</ele>
        <time>2015-09-27T09:24:04Z</time>
      </trkpt>
      <trkpt lat="50.26609" lon="5.73402">
        <ele>443</ele>
        <time>2015-09-27T09:24:10Z</time>
      </trkpt>
      <trkpt lat="50.26607" lon="5.73403">
        <ele>443</ele>
        <time>2015-09-27T09:24:15Z</time>
      </trkpt>
      <trkpt lat="50.26604" lon="5.73406">
        <ele>443</ele>
        <time>2015-09-27T09:24:20Z</time>
      </trkpt>
      <trkpt lat="50.26599" lon="5.7341">
        <ele>443</ele>
        <time>2015-09-27T09:24:26Z</time>
      </trkpt>
      <trkpt lat="50.26593" lon="5.73415">
        <ele>443</ele>
        <time>2015-09-27T09:24:31Z</time>
      </trkpt>
      <trkpt lat="50.26589" lon="5.7342">
        <ele>443</ele>
        <time>2015-09-27T09:24:36Z</time>
      </trkpt>
      <trkpt lat="50.26584" lon="5.73426">
        <ele>442</ele>
        <time>2015-09-27T09:24:42Z</time>
      </trkpt>
      <trkpt lat="50.26579" lon="5.7343">
        <ele>442</ele>
        <time>2015-09-27T09:24:47Z</time>
      </trkpt>
      <trkpt lat="50.26575" lon="5.73435">
        <ele>442</ele>
        <time>2015-09-27T09:24:52Z</time>
      </trkpt>
      <trkpt lat="50.2657" lon="5.73441">
        <ele>441</ele>
        <time>2015-09-27T09:24:57Z</time>
      </trkpt>
      <trkpt lat="50.26565" lon="5.73446">
        <ele>441</ele>
        <time>2015-09-27T09:25:02Z</time>
      </trkpt>
      <trkpt lat="50.2656" lon="5.7345">
        <ele>440</ele>
        <time>2015-09-27T09:25:07Z</time>
      </trkpt>
      <trkpt lat="50.26555" lon="5.73456">
        <ele>440</ele>
        <time>2015-09-27T09:25:12Z</time>
      </trkpt>
      <trkpt lat="50.26548" lon="5.73463">
        <ele>439</ele>
        <time>2015-09-27T09:25:18Z</time>
      </trkpt>
      <trkpt lat="50.26543" lon="5.73468">
        <ele>438</ele>
        <time>2015-09-27T09:25:23Z</time>
      </trkpt>
      <trkpt lat="50.26538" lon="5.73475">
        <ele>438</ele>
        <time>2015-09-27T09:25:28Z</time>
      </trkpt>
      <trkpt lat="50.26534" lon="5.73481">
        <ele>438</ele>
        <time>2015-09-27T09:25:33Z</time>
      </trkpt>
      <trkpt lat="50.26528" lon="5.73487">
        <ele>437</ele>
        <time>2015-09-27T09:25:39Z</time>
      </trkpt>
      <trkpt lat="50.26523" lon="5.73492">
        <ele>436</ele>
        <time>2015-09-27T09:25:44Z</time>
      </trkpt>
      <trkpt lat="50.26518" lon="5.73496">
        <ele>435</ele>
        <time>2015-09-27T09:25:49Z</time>
      </trkpt>
      <trkpt lat="50.26512" lon="5.735">
        <ele>435</ele>
        <time>2015-09-27T09:25:55Z</time>
      </trkpt>
      <trkpt lat="50.26508" lon="5.73504">
        <ele>435</ele>
        <time>2015-09-27T09:26:00Z</time>
      </trkpt>
      <trkpt lat="50.26503" lon="5.7351">
        <ele>434</ele>
        <time>2015-09-27T09:26:06Z</time>
      </trkpt>
      <trkpt lat="50.26498" lon="5.73515">
        <ele>433</ele>
        <time>2015-09-27T09:26:11Z</time>
      </trkpt>
      <trkpt lat="50.26493" lon="5.73519">
        <ele>433</ele>
        <time>2015-09-27T09:26:16Z</time>
      </trkpt>
      <trkpt lat="50.26489" lon="5.73525">
        <ele>432</ele>
        <time>2015-09-27T09:26:21Z</time>
      </trkpt>
      <trkpt lat="50.26484" lon="5.73531">
        <ele>431</ele>
        <time>2015-09-27T09:26:26Z</time>
      </trkpt>
      <trkpt lat="50.26479" lon="5.73537">
        <ele>431</ele>
        <time>2015-09-27T09:26:32Z</time>
      </trkpt>
      <trkpt lat="50.26475" lon="5.73542">
        <ele>429</ele>
        <time>2015-09-27T09:26:37Z</time>
      </trkpt>
      <trkpt lat="50.26471" lon="5.73548">
        <ele>429</ele>
        <time>2015-09-27T09:26:42Z</time>
      </trkpt>
      <trkpt lat="50.26467" lon="5.73554">
        <ele>428</ele>
        <time>2015-09-27T09:26:47Z</time>
      </trkpt>
      <trkpt lat="50.26463" lon="5.73562">
        <ele>428</ele>
        <time>2015-09-27T09:26:52Z</time>
      </trkpt>
      <trkpt lat="50.26459" lon="5.73573">
        <ele>427</ele>
        <time>2015-09-27T09:26:58Z</time>
      </trkpt>
      <trkpt lat="50.26456" lon="5.73585">
        <ele>427</ele>
        <time>2015-09-27T09:27:04Z</time>
      </trkpt>
      <trkpt lat="50.26453" lon="5.73594">
        <ele>426</ele>
        <time>2015-09-27T09:27:09Z</time>
      </trkpt>
      <trkpt lat="50.26451" lon="5.73604">
        <ele>426</ele>
        <time>2015-09-27T09:27:15Z</time>
      </trkpt>
      <trkpt lat="50.26448" lon="5.73615">
        <ele>425</ele>
        <time>2015-09-27T09:27:21Z</time>
      </trkpt>
      <trkpt lat="50.26445" lon="5.73626">
        <ele>424</ele>
        <time>2015-09-27T09:27:27Z</time>
      </trkpt>
      <trkpt lat="50.26442" lon="5.73637">
        <ele>423</ele>
        <time>2015-09-27T09:27:33Z</time>
      </trkpt>
      <trkpt lat="50.26439" lon="5.73646">
        <ele>423</ele>
        <time>2015-09-27T09:27:38Z</time>
      </trkpt>
      <trkpt lat="50.26437" lon="5.73655">
        <ele>423</ele>
        <time>2015-09-27T09:27:43Z</time>
      </trkpt>
      <trkpt lat="50.26433" lon="5.73666">
        <ele>422</ele>
        <time>2015-09-27T09:27:49Z</time>
      </trkpt>
      <trkpt lat="50.26431" lon="5.73675">
        <ele>421</ele>
        <time>2015-09-27T09:27:55Z</time>
      </trkpt>
      <trkpt lat="50.26428" lon="5.73683">
        <ele>420</ele>
        <time>2015-09-27T09:28:00Z</time>
      </trkpt>
      <trkpt lat="50.26426" lon="5.73691">
        <ele>420</ele>
        <time>2015-09-27T09:28:05Z</time>
      </trkpt>
      <trkpt lat="50.26423" lon="5.73701">
        <ele>419</ele>
        <time>2015-09-27T09:28:11Z</time>
      </trkpt>
      <trkpt lat="50.2642" lon="5.73708">
        <ele>419</ele>
        <time>2015-09-27T09:28:16Z</time>
      </trkpt>
      <trkpt lat="50.26417" lon="5.73717">
        <ele>418</ele>
        <time>2015-09-27T09:28:22Z</time>
      </trkpt>
      <trkpt lat="50.26414" lon="5.73724">
        <ele>418</ele>
        <time>2015-09-27T09:28:27Z</time>
      </trkpt>
      <trkpt lat="50.26411" lon="5.7373">
        <ele>417</ele>
        <time>2015-09-27T09:28:32Z</time>
      </trkpt>
      <trkpt lat="50.26408" lon="5.73737">
        <ele>417</ele>
        <time>2015-09-27T09:28:37Z</time>
      </trkpt>
      <trkpt lat="50.26405" lon="5.73744">
        <ele>416</ele>
        <time>2015-09-27T09:28:42Z</time>
      </trkpt>
      <trkpt lat="50.26402" lon="5.73751">
        <ele>415</ele>
        <time>2015-09-27T09:28:48Z</time>
      </trkpt>
      <trkpt lat="50.26399" lon="5.7376">
        <ele>415</ele>
        <time>2015-09-27T09:28:54Z</time>
      </trkpt>
      <trkpt lat="50.26395" lon="5.73771">
        <ele>415</ele>
        <time>2015-09-27T09:29:00Z</time>
      </trkpt>
      <trkpt lat="50.26392" lon="5.73779">
        <ele>414</ele>
        <time>2015-09-27T09:29:05Z</time>
      </trkpt>
      <trkpt lat="50.26389" lon="5.73786">
        <ele>414</ele>
        <time>2015-09-27T09:29:11Z</time>
      </trkpt>
      <trkpt lat="50.26386" lon="5.73796">
        <ele>414</ele>
        <time>2015-09-27T09:29:16Z</time>
      </trkpt>
      <trkpt lat="50.26382" lon="5.73805">
        <ele>413</ele>
        <time>2015-09-27T09:29:21Z</time>
      </trkpt>
      <trkpt lat="50.26378" lon="5.73812">
        <ele>412</ele>
        <time>2015-09-27T09:29:26Z</time>
      </trkpt>
      <trkpt lat="50.26375" lon="5.7382">
        <ele>411</ele>
        <time>2015-09-27T09:29:31Z</time>
      </trkpt>
      <trkpt lat="50.26371" lon="5.73829">
        <ele>411</ele>
        <time>2015-09-27T09:29:37Z</time>
      </trkpt>
      <trkpt lat="50.26368" lon="5.73839">
        <ele>411</ele>
        <time>2015-09-27T09:29:42Z</time>
      </trkpt>
      <trkpt lat="50.26365" lon="5.73847">
        <ele>410</ele>
        <time>2015-09-27T09:29:47Z</time>
      </trkpt>
      <trkpt lat="50.26361" lon="5.73856">
        <ele>410</ele>
        <time>2015-09-27T09:29:53Z</time>
      </trkpt>
      <trkpt lat="50.26358" lon="5.73861">
        <ele>409</ele>
        <time>2015-09-27T09:29:58Z</time>
      </trkpt>
      <trkpt lat="50.26355" lon="5.73868">
        <ele>408</ele>
        <time>2015-09-27T09:30:04Z</time>
      </trkpt>
      <trkpt lat="50.26352" lon="5.73874">
        <ele>408</ele>
        <time>2015-09-27T09:30:09Z</time>
      </trkpt>
      <trkpt lat="50.2635" lon="5.73881">
        <ele>408</ele>
        <time>2015-09-27T09:30:14Z</time>
      </trkpt>
      <trkpt lat="50.26346" lon="5.73891">
        <ele>407</ele>
        <time>2015-09-27T09:30:20Z</time>
      </trkpt>
      <trkpt lat="50.26343" lon="5.73899">
        <ele>407</ele>
        <time>2015-09-27T09:30:25Z</time>
      </trkpt>
      <trkpt lat="50.2634" lon="5.73908">
        <ele>406</ele>
        <time>2015-09-27T09:30:31Z</time>
      </trkpt>
      <trkpt lat="50.26337" lon="5.73916">
        <ele>406</ele>
        <time>2015-09-27T09:30:36Z</time>
      </trkpt>
      <trkpt lat="50.26335" lon="5.73923">
        <ele>406</ele>
        <time>2015-09-27T09:30:41Z</time>
      </trkpt>
      <trkpt lat="50.26332" lon="5.73931">
        <ele>405</ele>
        <time>2015-09-27T09:30:46Z</time>
      </trkpt>
      <trkpt lat="50.26329" lon="5.73939">
        <ele>404</ele>
        <time>2015-09-27T09:30:51Z</time>
      </trkpt>
      <trkpt lat="50.26325" lon="5.73946">
        <ele>403</ele>
        <time>2015-09-27T09:30:56Z</time>
      </trkpt>
      <trkpt lat="50.26321" lon="5.73956">
        <ele>403</ele>
        <time>2015-09-27T09:31:02Z</time>
      </trkpt>
      <trkpt lat="50.26318" lon="5.73962">
        <ele>403</ele>
        <time>2015-09-27T09:31:07Z</time>
      </trkpt>
      <trkpt lat="50.26315" lon="5.73971">
        <ele>403</ele>
        <time>2015-09-27T09:31:12Z</time>
      </trkpt>
      <trkpt lat="50.26312" lon="5.73978">
        <ele>402</ele>
        <time>2015-09-27T09:31:17Z</time>
      </trkpt>
      <trkpt lat="50.2631" lon="5.73986">
        <ele>401</ele>
        <time>2015-09-27T09:31:22Z</time>
      </trkpt>
      <trkpt lat="50.26306" lon="5.73997">
        <ele>400</ele>
        <time>2015-09-27T09:31:27Z</time>
      </trkpt>
      <trkpt lat="50.26303" lon="5.74008">
        <ele>400</ele>
        <time>2015-09-27T09:31:33Z</time>
      </trkpt>
      <trkpt lat="50.263" lon="5.74016">
        <ele>399</ele>
        <time>2015-09-27T09:31:38Z</time>
      </trkpt>
      <trkpt lat="50.26297" lon="5.74024">
        <ele>399</ele>
        <time>2015-09-27T09:31:43Z</time>
      </trkpt>
      <trkpt lat="50.26294" lon="5.74034">
        <ele>398</ele>
        <time>2015-09-27T09:31:49Z</time>
      </trkpt>
      <trkpt lat="50.2629" lon="5.74043">
        <ele>397</ele>
        <time>2015-09-27T09:31:55Z</time>
      </trkpt>
      <trkpt lat="50.26287" lon="5.7405">
        <ele>397</ele>
        <time>2015-09-27T09:32:00Z</time>
      </trkpt>
      <trkpt lat="50.26284" lon="5.74059">
        <ele>396</ele>
        <time>2015-09-27T09:32:06Z</time>
      </trkpt>
      <trkpt lat="50.2628" lon="5.74066">
        <ele>395</ele>
        <time>2015-09-27T09:32:11Z</time>
      </trkpt>
      <trkpt lat="50.26277" lon="5.74072">
        <ele>395</ele>
        <time>2015-09-27T09:32:16Z</time>
      </trkpt>
      <trkpt lat="50.26272" lon="5.74079">
        <ele>394</ele>
        <time>2015-09-27T09:32:22Z</time>
      </trkpt>
      <trkpt lat="50.26268" lon="5.74085">
        <ele>394</ele>
        <time>2015-09-27T09:32:27Z</time>
      </trkpt>
      <trkpt lat="50.26263" lon="5.7409">
        <ele>393</ele>
        <time>2015-09-27T09:32:32Z</time>
      </trkpt>
      <trkpt lat="50.26257" lon="5.74096">
        <ele>391</ele>
        <time>2015-09-27T09:32:38Z</time>
      </trkpt>
      <trkpt lat="50.26252" lon="5.74101">
        <ele>390</ele>
        <time>2015-09-27T09:32:43Z</time>
      </trkpt>
      <trkpt lat="50.26247" lon="5.74106">
        <ele>390</ele>
        <time>2015-09-27T09:32:48Z</time>
      </trkpt>
      <trkpt lat="50.26243" lon="5.7411">
        <ele>389</ele>
        <time>2015-09-27T09:32:53Z</time>
      </trkpt>
      <trkpt lat="50.26239" lon="5.74115">
        <ele>389</ele>
        <time>2015-09-27T09:32:59Z</time>
      </trkpt>
      <trkpt lat="50.26236" lon="5.74117">
        <ele>388</ele>
        <time>2015-09-27T09:33:04Z</time>
      </trkpt>
      <trkpt lat="50.26233" lon="5.74122">
        <ele>387</ele>
        <time>2015-09-27T09:33:09Z</time>
      </trkpt>
      <trkpt lat="50.26228" lon="5.74127">
        <ele>386</ele>
        <time>2015-09-27T09:33:15Z</time>
      </trkpt>
      <trkpt lat="50.26222" lon="5.74133">
        <ele>385</ele>
        <time>2015-09-27T09:33:21Z</time>
      </trkpt>
      <trkpt lat="50.26216" lon="5.74139">
        <ele>385</ele>
        <time>2015-09-27T09:33:27Z</time>
      </trkpt>
      <trkpt lat="50.26211" lon="5.74144">
        <ele>385</ele>
        <time>2015-09-27T09:33:32Z</time>
      </trkpt>
      <trkpt lat="50.26206" lon="5.74148">
        <ele>384</ele>
        <time>2015-09-27T09:33:38Z</time>
      </trkpt>
      <trkpt lat="50.26205" lon="5.74151">
        <ele>384</ele>
        <time>2015-09-27T09:33:43Z</time>
      </trkpt>
      <trkpt lat="50.262" lon="5.74155">
        <ele>384</ele>
        <time>2015-09-27T09:33:49Z</time>
      </trkpt>
      <trkpt lat="50.26195" lon="5.74157">
        <ele>383</ele>
        <time>2015-09-27T09:33:54Z</time>
      </trkpt>
      <trkpt lat="50.2619" lon="5.7416">
        <ele>382</ele>
        <time>2015-09-27T09:34:00Z</time>
      </trkpt>
      <trkpt lat="50.26187" lon="5.74163">
        <ele>382</ele>
        <time>2015-09-27T09:34:05Z</time>
      </trkpt>
      <trkpt lat="50.26181" lon="5.74163">
        <ele>381</ele>
        <time>2015-09-27T09:34:11Z</time>
      </trkpt>
      <trkpt lat="50.26176" lon="5.74163">
        <ele>380</ele>
        <time>2015-09-27T09:34:16Z</time>
      </trkpt>
      <trkpt lat="50.2617" lon="5.7416">
        <ele>380</ele>
        <time>2015-09-27T09:34:21Z</time>
      </trkpt>
      <trkpt lat="50.26161" lon="5.74157">
        <ele>380</ele>
        <time>2015-09-27T09:34:27Z</time>
      </trkpt>
      <trkpt lat="50.26155" lon="5.74153">
        <ele>379</ele>
        <time>2015-09-27T09:34:32Z</time>
      </trkpt>
      <trkpt lat="50.2615" lon="5.74149">
        <ele>379</ele>
        <time>2015-09-27T09:34:37Z</time>
      </trkpt>
      <trkpt lat="50.26144" lon="5.74146">
        <ele>379</ele>
        <time>2015-09-27T09:34:42Z</time>
      </trkpt>
      <trkpt lat="50.26139" lon="5.74143">
        <ele>379</ele>
        <time>2015-09-27T09:34:47Z</time>
      </trkpt>
      <trkpt lat="50.26137" lon="5.74142">
        <ele>378</ele>
        <time>2015-09-27T09:34:53Z</time>
      </trkpt>
      <trkpt lat="50.26136" lon="5.74142">
        <ele>379</ele>
        <time>2015-09-27T09:34:59Z</time>
      </trkpt>
      <trkpt lat="50.26137" lon="5.74143">
        <ele>379</ele>
        <time>2015-09-27T09:35:04Z</time>
      </trkpt>
      <trkpt lat="50.26137" lon="5.74144">
        <ele>379</ele>
        <time>2015-09-27T09:35:09Z</time>
      </trkpt>
      <trkpt lat="50.26138" lon="5.74144">
        <ele>379</ele>
        <time>2015-09-27T09:35:16Z</time>
      </trkpt>
      <trkpt lat="50.26138" lon="5.74143">
        <ele>379</ele>
        <time>2015-09-27T09:35:21Z</time>
      </trkpt>
      <trkpt lat="50.26134" lon="5.74141">
        <ele>379</ele>
        <time>2015-09-27T09:35:26Z</time>
      </trkpt>
      <trkpt lat="50.26128" lon="5.74136">
        <ele>379</ele>
        <time>2015-09-27T09:35:31Z</time>
      </trkpt>
      <trkpt lat="50.26125" lon="5.74133">
        <ele>378</ele>
        <time>2015-09-27T09:35:36Z</time>
      </trkpt>
      <trkpt lat="50.2612" lon="5.74128">
        <ele>378</ele>
        <time>2015-09-27T09:35:41Z</time>
      </trkpt>
      <trkpt lat="50.26114" lon="5.74121">
        <ele>378</ele>
        <time>2015-09-27T09:35:47Z</time>
      </trkpt>
      <trkpt lat="50.26109" lon="5.74115">
        <ele>377</ele>
        <time>2015-09-27T09:35:53Z</time>
      </trkpt>
      <trkpt lat="50.26099" lon="5.741">
        <ele>376</ele>
        <time>2015-09-27T09:35:58Z</time>
      </trkpt>
      <trkpt lat="50.26094" lon="5.74093">
        <ele>376</ele>
        <time>2015-09-27T09:36:03Z</time>
      </trkpt>
      <trkpt lat="50.26088" lon="5.74088">
        <ele>375</ele>
        <time>2015-09-27T09:36:09Z</time>
      </trkpt>
      <trkpt lat="50.26083" lon="5.74083">
        <ele>374</ele>
        <time>2015-09-27T09:36:15Z</time>
      </trkpt>
      <trkpt lat="50.26077" lon="5.74079">
        <ele>374</ele>
        <time>2015-09-27T09:36:20Z</time>
      </trkpt>
      <trkpt lat="50.26072" lon="5.74075">
        <ele>374</ele>
        <time>2015-09-27T09:36:25Z</time>
      </trkpt>
      <trkpt lat="50.26067" lon="5.74071">
        <ele>374</ele>
        <time>2015-09-27T09:36:30Z</time>
      </trkpt>
      <trkpt lat="50.2606" lon="5.74069">
        <ele>374</ele>
        <time>2015-09-27T09:36:35Z</time>
      </trkpt>
      <trkpt lat="50.26054" lon="5.74068">
        <ele>374</ele>
        <time>2015-09-27T09:36:40Z</time>
      </trkpt>
      <trkpt lat="50.26046" lon="5.74067">
        <ele>374</ele>
        <time>2015-09-27T09:36:46Z</time>
      </trkpt>
      <trkpt lat="50.26042" lon="5.74068">
        <ele>375</ele>
        <time>2015-09-27T09:36:51Z</time>
      </trkpt>
      <trkpt lat="50.26037" lon="5.74071">
        <ele>375</ele>
        <time>2015-09-27T09:36:57Z</time>
      </trkpt>
      <trkpt lat="50.2603" lon="5.74073">
        <ele>375</ele>
        <time>2015-09-27T09:37:03Z</time>
      </trkpt>
      <trkpt lat="50.26027" lon="5.74076">
        <ele>376</ele>
        <time>2015-09-27T09:37:09Z</time>
      </trkpt>
      <trkpt lat="50.26025" lon="5.74078">
        <ele>376</ele>
        <time>2015-09-27T09:37:15Z</time>
      </trkpt>
      <trkpt lat="50.26019" lon="5.7408">
        <ele>375</ele>
        <time>2015-09-27T09:37:21Z</time>
      </trkpt>
      <trkpt lat="50.26014" lon="5.74084">
        <ele>375</ele>
        <time>2015-09-27T09:37:26Z</time>
      </trkpt>
      <trkpt lat="50.26009" lon="5.74089">
        <ele>376</ele>
        <time>2015-09-27T09:37:32Z</time>
      </trkpt>
      <trkpt lat="50.26002" lon="5.74095">
        <ele>375</ele>
        <time>2015-09-27T09:37:38Z</time>
      </trkpt>
      <trkpt lat="50.25996" lon="5.74102">
        <ele>375</ele>
        <time>2015-09-27T09:37:44Z</time>
      </trkpt>
      <trkpt lat="50.2599" lon="5.74106">
        <ele>375</ele>
        <time>2015-09-27T09:37:49Z</time>
      </trkpt>
      <trkpt lat="50.25985" lon="5.74112">
        <ele>374</ele>
        <time>2015-09-27T09:37:55Z</time>
      </trkpt>
      <trkpt lat="50.25979" lon="5.74119">
        <ele>374</ele>
        <time>2015-09-27T09:38:01Z</time>
      </trkpt>
      <trkpt lat="50.25973" lon="5.74125">
        <ele>374</ele>
        <time>2015-09-27T09:38:07Z</time>
      </trkpt>
      <trkpt lat="50.25968" lon="5.74129">
        <ele>375</ele>
        <time>2015-09-27T09:38:12Z</time>
      </trkpt>
      <trkpt lat="50.25962" lon="5.74134">
        <ele>375</ele>
        <time>2015-09-27T09:38:18Z</time>
      </trkpt>
      <trkpt lat="50.25959" lon="5.74137">
        <ele>374</ele>
        <time>2015-09-27T09:38:23Z</time>
      </trkpt>
      <trkpt lat="50.25958" lon="5.74139">
        <ele>375</ele>
        <time>2015-09-27T09:38:28Z</time>
      </trkpt>
      <trkpt lat="50.25957" lon="5.74141">
        <ele>375</ele>
        <time>2015-09-27T09:38:34Z</time>
      </trkpt>
      <trkpt lat="50.25956" lon="5.74142">
        <ele>374</ele>
        <time>2015-09-27T09:38:39Z</time>
      </trkpt>
      <trkpt lat="50.25956" lon="5.74143">
        <ele>374</ele>
        <time>2015-09-27T09:38:44Z</time>
      </trkpt>
      <trkpt lat="50.25955" lon="5.74144">
        <ele>374</ele>
        <time>2015-09-27T09:38:49Z</time>
      </trkpt>
      <trkpt lat="50.25954" lon="5.74146">
        <ele>374</ele>
        <time>2015-09-27T09:38:55Z</time>
      </trkpt>
      <trkpt lat="50.2595" lon="5.7415">
        <ele>374</ele>
        <time>2015-09-27T09:39:00Z</time>
      </trkpt>
      <trkpt lat="50.25945" lon="5.74155">
        <ele>374</ele>
        <time>2015-09-27T09:39:06Z</time>
      </trkpt>
      <trkpt lat="50.25941" lon="5.7416">
        <ele>374</ele>
        <time>2015-09-27T09:39:11Z</time>
      </trkpt>
      <trkpt lat="50.25936" lon="5.74165">
        <ele>374</ele>
        <time>2015-09-27T09:39:17Z</time>
      </trkpt>
      <trkpt lat="50.25931" lon="5.74169">
        <ele>375</ele>
        <time>2015-09-27T09:39:22Z</time>
      </trkpt>
      <trkpt lat="50.25925" lon="5.74174">
        <ele>374</ele>
        <time>2015-09-27T09:39:28Z</time>
      </trkpt>
      <trkpt lat="50.2592" lon="5.74179">
        <ele>374</ele>
        <time>2015-09-27T09:39:33Z</time>
      </trkpt>
      <trkpt lat="50.25915" lon="5.74183">
        <ele>374</ele>
        <time>2015-09-27T09:39:38Z</time>
      </trkpt>
      <trkpt lat="50.25908" lon="5.74188">
        <ele>374</ele>
        <time>2015-09-27T09:39:44Z</time>
      </trkpt>
      <trkpt lat="50.25903" lon="5.74192">
        <ele>374</ele>
        <time>2015-09-27T09:39:49Z</time>
      </trkpt>
      <trkpt lat="50.25898" lon="5.74196">
        <ele>374</ele>
        <time>2015-09-27T09:39:55Z</time>
      </trkpt>
      <trkpt lat="50.25895" lon="5.74198">
        <ele>374</ele>
        <time>2015-09-27T09:40:00Z</time>
      </trkpt>
      <trkpt lat="50.2589" lon="5.74204">
        <ele>374</ele>
        <time>2015-09-27T09:40:05Z</time>
      </trkpt>
      <trkpt lat="50.25884" lon="5.74209">
        <ele>374</ele>
        <time>2015-09-27T09:40:10Z</time>
      </trkpt>
      <trkpt lat="50.25878" lon="5.74218">
        <ele>374</ele>
        <time>2015-09-27T09:40:16Z</time>
      </trkpt>
      <trkpt lat="50.25872" lon="5.74225">
        <ele>374</ele>
        <time>2015-09-27T09:40:22Z</time>
      </trkpt>
      <trkpt lat="50.25866" lon="5.74234">
        <ele>374</ele>
        <time>2015-09-27T09:40:28Z</time>
      </trkpt>
      <trkpt lat="50.25861" lon="5.7424">
        <ele>374</ele>
        <time>2015-09-27T09:40:33Z</time>
      </trkpt>
      <trkpt lat="50.25857" lon="5.74246">
        <ele>374</ele>
        <time>2015-09-27T09:40:38Z</time>
      </trkpt>
      <trkpt lat="50.25852" lon="5.74254">
        <ele>374</ele>
        <time>2015-09-27T09:40:44Z</time>
      </trkpt>
      <trkpt lat="50.25847" lon="5.74262">
        <ele>374</ele>
        <time>2015-09-27T09:40:50Z</time>
      </trkpt>
      <trkpt lat="50.25843" lon="5.74268">
        <ele>374</ele>
        <time>2015-09-27T09:40:55Z</time>
      </trkpt>
      <trkpt lat="50.25839" lon="5.74275">
        <ele>375</ele>
        <time>2015-09-27T09:41:00Z</time>
      </trkpt>
      <trkpt lat="50.25835" lon="5.74283">
        <ele>375</ele>
        <time>2015-09-27T09:41:05Z</time>
      </trkpt>
      <trkpt lat="50.2583" lon="5.74293">
        <ele>375</ele>
        <time>2015-09-27T09:41:11Z</time>
      </trkpt>
      <trkpt lat="50.25825" lon="5.74301">
        <ele>375</ele>
        <time>2015-09-27T09:41:17Z</time>
      </trkpt>
      <trkpt lat="50.2582" lon="5.74306">
        <ele>375</ele>
        <time>2015-09-27T09:41:22Z</time>
      </trkpt>
      <trkpt lat="50.25815" lon="5.74312">
        <ele>374</ele>
        <time>2015-09-27T09:41:28Z</time>
      </trkpt>
      <trkpt lat="50.2581" lon="5.74317">
        <ele>374</ele>
        <time>2015-09-27T09:41:33Z</time>
      </trkpt>
      <trkpt lat="50.25804" lon="5.74324">
        <ele>374</ele>
        <time>2015-09-27T09:41:39Z</time>
      </trkpt>
      <trkpt lat="50.25799" lon="5.74328">
        <ele>374</ele>
        <time>2015-09-27T09:41:44Z</time>
      </trkpt>
      <trkpt lat="50.25794" lon="5.74334">
        <ele>374</ele>
        <time>2015-09-27T09:41:50Z</time>
      </trkpt>
      <trkpt lat="50.25792" lon="5.74338">
        <ele>374</ele>
        <time>2015-09-27T09:41:55Z</time>
      </trkpt>
      <trkpt lat="50.25792" lon="5.74339">
        <ele>374</ele>
        <time>2015-09-27T09:42:01Z</time>
      </trkpt>
      <trkpt lat="50.2579" lon="5.74342">
        <ele>374</ele>
        <time>2015-09-27T09:42:06Z</time>
      </trkpt>
      <trkpt lat="50.2579" lon="5.74344">
        <ele>374</ele>
        <time>2015-09-27T09:42:12Z</time>
      </trkpt>
      <trkpt lat="50.25788" lon="5.74345">
        <ele>374</ele>
        <time>2015-09-27T09:42:17Z</time>
      </trkpt>
      <trkpt lat="50.25784" lon="5.7435">
        <ele>374</ele>
        <time>2015-09-27T09:42:22Z</time>
      </trkpt>
      <trkpt lat="50.25778" lon="5.74352">
        <ele>374</ele>
        <time>2015-09-27T09:42:28Z</time>
      </trkpt>
      <trkpt lat="50.25773" lon="5.74354">
        <ele>374</ele>
        <time>2015-09-27T09:42:34Z</time>
      </trkpt>
      <trkpt lat="50.25768" lon="5.74357">
        <ele>374</ele>
        <time>2015-09-27T09:42:40Z</time>
      </trkpt>
      <trkpt lat="50.25763" lon="5.7436">
        <ele>374</ele>
        <time>2015-09-27T09:42:45Z</time>
      </trkpt>
      <trkpt lat="50.25757" lon="5.74363">
        <ele>375</ele>
        <time>2015-09-27T09:42:50Z</time>
      </trkpt>
      <trkpt lat="50.25751" lon="5.74369">
        <ele>375</ele>
        <time>2015-09-27T09:42:56Z</time>
      </trkpt>
      <trkpt lat="50.25746" lon="5.74374">
        <ele>375</ele>
        <time>2015-09-27T09:43:01Z</time>
      </trkpt>
      <trkpt lat="50.2574" lon="5.7438">
        <ele>376</ele>
        <time>2015-09-27T09:43:07Z</time>
      </trkpt>
      <trkpt lat="50.25733" lon="5.74387">
        <ele>376</ele>
        <time>2015-09-27T09:43:13Z</time>
      </trkpt>
      <trkpt lat="50.25727" lon="5.74395">
        <ele>376</ele>
        <time>2015-09-27T09:43:19Z</time>
      </trkpt>
      <trkpt lat="50.2572" lon="5.74403">
        <ele>376</ele>
        <time>2015-09-27T09:43:25Z</time>
      </trkpt>
      <trkpt lat="50.25715" lon="5.74408">
        <ele>376</ele>
        <time>2015-09-27T09:43:30Z</time>
      </trkpt>
      <trkpt lat="50.25709" lon="5.74416">
        <ele>377</ele>
        <time>2015-09-27T09:43:36Z</time>
      </trkpt>
      <trkpt lat="50.25704" lon="5.7442">
        <ele>376</ele>
        <time>2015-09-27T09:43:41Z</time>
      </trkpt>
      <trkpt lat="50.25699" lon="5.74426">
        <ele>376</ele>
        <time>2015-09-27T09:43:47Z</time>
      </trkpt>
      <trkpt lat="50.25693" lon="5.74431">
        <ele>376</ele>
        <time>2015-09-27T09:43:53Z</time>
      </trkpt>
      <trkpt lat="50.25688" lon="5.74436">
        <ele>377</ele>
        <time>2015-09-27T09:43:58Z</time>
      </trkpt>
      <trkpt lat="50.25684" lon="5.74442">
        <ele>377</ele>
        <time>2015-09-27T09:44:03Z</time>
      </trkpt>
      <trkpt lat="50.25678" lon="5.74448">
        <ele>377</ele>
        <time>2015-09-27T09:44:09Z</time>
      </trkpt>
      <trkpt lat="50.25671" lon="5.74457">
        <ele>377</ele>
        <time>2015-09-27T09:44:15Z</time>
      </trkpt>
      <trkpt lat="50.25668" lon="5.74461">
        <ele>377</ele>
        <time>2015-09-27T09:44:20Z</time>
      </trkpt>
      <trkpt lat="50.25667" lon="5.74464">
        <ele>376</ele>
        <time>2015-09-27T09:44:26Z</time>
      </trkpt>
      <trkpt lat="50.25662" lon="5.74472">
        <ele>376</ele>
        <time>2015-09-27T09:44:32Z</time>
      </trkpt>
      <trkpt lat="50.25657" lon="5.7448">
        <ele>375</ele>
        <time>2015-09-27T09:44:37Z</time>
      </trkpt>
      <trkpt lat="50.25652" lon="5.74491">
        <ele>376</ele>
        <time>2015-09-27T09:44:43Z</time>
      </trkpt>
      <trkpt lat="50.25649" lon="5.74499">
        <ele>376</ele>
        <time>2015-09-27T09:44:48Z</time>
      </trkpt>
      <trkpt lat="50.25645" lon="5.7451">
        <ele>376</ele>
        <time>2015-09-27T09:44:54Z</time>
      </trkpt>
      <trkpt lat="50.25642" lon="5.74517">
        <ele>375</ele>
        <time>2015-09-27T09:44:59Z</time>
      </trkpt>
      <trkpt lat="50.25639" lon="5.74526">
        <ele>375</ele>
        <time>2015-09-27T09:45:04Z</time>
      </trkpt>
      <trkpt lat="50.25636" lon="5.74538">
        <ele>375</ele>
        <time>2015-09-27T09:45:10Z</time>
      </trkpt>
      <trkpt lat="50.25634" lon="5.74546">
        <ele>375</ele>
        <time>2015-09-27T09:45:15Z</time>
      </trkpt>
      <trkpt lat="50.25634" lon="5.74557">
        <ele>375</ele>
        <time>2015-09-27T09:45:21Z</time>
      </trkpt>
      <trkpt lat="50.25634" lon="5.74569">
        <ele>376</ele>
        <time>2015-09-27T09:45:27Z</time>
      </trkpt>
      <trkpt lat="50.25634" lon="5.74579">
        <ele>375</ele>
        <time>2015-09-27T09:45:32Z</time>
      </trkpt>
      <trkpt lat="50.25634" lon="5.7459">
        <ele>375</ele>
        <time>2015-09-27T09:45:37Z</time>
      </trkpt>
      <trkpt lat="50.25633" lon="5.74601">
        <ele>376</ele>
        <time>2015-09-27T09:45:43Z</time>
      </trkpt>
      <trkpt lat="50.25632" lon="5.7461">
        <ele>375</ele>
        <time>2015-09-27T09:45:49Z</time>
      </trkpt>
      <trkpt lat="50.25632" lon="5.7462">
        <ele>376</ele>
        <time>2015-09-27T09:45:54Z</time>
      </trkpt>
      <trkpt lat="50.25632" lon="5.7463">
        <ele>376</ele>
        <time>2015-09-27T09:45:59Z</time>
      </trkpt>
      <trkpt lat="50.25633" lon="5.74642">
        <ele>376</ele>
        <time>2015-09-27T09:46:05Z</time>
      </trkpt>
      <trkpt lat="50.25634" lon="5.74651">
        <ele>376</ele>
        <time>2015-09-27T09:46:10Z</time>
      </trkpt>
      <trkpt lat="50.25638" lon="5.7466">
        <ele>376</ele>
        <time>2015-09-27T09:46:16Z</time>
      </trkpt>
      <trkpt lat="50.25641" lon="5.74666">
        <ele>376</ele>
        <time>2015-09-27T09:46:21Z</time>
      </trkpt>
      <trkpt lat="50.25645" lon="5.74672">
        <ele>376</ele>
        <time>2015-09-27T09:46:27Z</time>
      </trkpt>
      <trkpt lat="50.25651" lon="5.74675">
        <ele>377</ele>
        <time>2015-09-27T09:46:33Z</time>
      </trkpt>
      <trkpt lat="50.25656" lon="5.7468">
        <ele>377</ele>
        <time>2015-09-27T09:46:38Z</time>
      </trkpt>
      <trkpt lat="50.2566" lon="5.74683">
        <ele>378</ele>
        <time>2015-09-27T09:46:43Z</time>
      </trkpt>
      <trkpt lat="50.25661" lon="5.74684">
        <ele>378</ele>
        <time>2015-09-27T09:46:49Z</time>
      </trkpt>
      <trkpt lat="50.2566" lon="5.74683">
        <ele>378</ele>
        <time>2015-09-27T09:46:55Z</time>
      </trkpt>
      <trkpt lat="50.2566" lon="5.74683">
        <ele>378</ele>
        <time>2015-09-27T09:47:02Z</time>
      </trkpt>
      <trkpt lat="50.2566" lon="5.74683">
        <ele>378</ele>
        <time>2015-09-27T09:47:08Z</time>
      </trkpt>
      <trkpt lat="50.2566" lon="5.74682">
        <ele>378</ele>
        <time>2015-09-27T09:47:16Z</time>
      </trkpt>
      <trkpt lat="50.25663" lon="5.74683">
        <ele>378</ele>
        <time>2015-09-27T09:47:22Z</time>
      </trkpt>
      <trkpt lat="50.25666" lon="5.74686">
        <ele>378</ele>
        <time>2015-09-27T09:47:27Z</time>
      </trkpt>
      <trkpt lat="50.2567" lon="5.74689">
        <ele>379</ele>
        <time>2015-09-27T09:47:32Z</time>
      </trkpt>
      <trkpt lat="50.25675" lon="5.74694">
        <ele>379</ele>
        <time>2015-09-27T09:47:38Z</time>
      </trkpt>
      <trkpt lat="50.25681" lon="5.747">
        <ele>380</ele>
        <time>2015-09-27T09:47:44Z</time>
      </trkpt>
      <trkpt lat="50.25686" lon="5.74705">
        <ele>380</ele>
        <time>2015-09-27T09:47:49Z</time>
      </trkpt>
      <trkpt lat="50.2569" lon="5.74711">
        <ele>381</ele>
        <time>2015-09-27T09:47:54Z</time>
      </trkpt>
      <trkpt lat="50.25697" lon="5.74718">
        <ele>381</ele>
        <time>2015-09-27T09:48:00Z</time>
      </trkpt>
      <trkpt lat="50.25701" lon="5.74723">
        <ele>381</ele>
        <time>2015-09-27T09:48:05Z</time>
      </trkpt>
      <trkpt lat="50.25705" lon="5.74729">
        <ele>382</ele>
        <time>2015-09-27T09:48:10Z</time>
      </trkpt>
      <trkpt lat="50.2571" lon="5.74738">
        <ele>383</ele>
        <time>2015-09-27T09:48:16Z</time>
      </trkpt>
      <trkpt lat="50.25712" lon="5.74746">
        <ele>383</ele>
        <time>2015-09-27T09:48:21Z</time>
      </trkpt>
      <trkpt lat="50.25715" lon="5.74754">
        <ele>384</ele>
        <time>2015-09-27T09:48:27Z</time>
      </trkpt>
      <trkpt lat="50.25718" lon="5.74764">
        <ele>384</ele>
        <time>2015-09-27T09:48:33Z</time>
      </trkpt>
      <trkpt lat="50.2572" lon="5.74773">
        <ele>384</ele>
        <time>2015-09-27T09:48:38Z</time>
      </trkpt>
      <trkpt lat="50.25721" lon="5.74777">
        <ele>385</ele>
        <time>2015-09-27T09:48:44Z</time>
      </trkpt>
      <trkpt lat="50.25721" lon="5.74778">
        <ele>384</ele>
        <time>2015-09-27T09:48:50Z</time>
      </trkpt>
      <trkpt lat="50.25721" lon="5.74779">
        <ele>384</ele>
        <time>2015-09-27T09:48:55Z</time>
      </trkpt>
      <trkpt lat="50.25721" lon="5.7478">
        <ele>384</ele>
        <time>2015-09-27T09:49:01Z</time>
      </trkpt>
      <trkpt lat="50.25721" lon="5.74781">
        <ele>384</ele>
        <time>2015-09-27T09:49:06Z</time>
      </trkpt>
      <trkpt lat="50.25721" lon="5.74783">
        <ele>384</ele>
        <time>2015-09-27T09:49:12Z</time>
      </trkpt>
      <trkpt lat="50.25721" lon="5.74782">
        <ele>385</ele>
        <time>2015-09-27T09:49:19Z</time>
      </trkpt>
      <trkpt lat="50.25721" lon="5.74781">
        <ele>385</ele>
        <time>2015-09-27T09:49:25Z</time>
      </trkpt>
      <trkpt lat="50.25721" lon="5.74781">
        <ele>385</ele>
        <time>2015-09-27T09:49:34Z</time>
      </trkpt>
      <trkpt lat="50.25721" lon="5.7478">
        <ele>385</ele>
        <time>2015-09-27T09:49:39Z</time>
      </trkpt>
      <trkpt lat="50.25721" lon="5.7478">
        <ele>385</ele>
        <time>2015-09-27T09:49:45Z</time>
      </trkpt>
      <trkpt lat="50.25721" lon="5.7478">
        <ele>385</ele>
        <time>2015-09-27T09:49:50Z</time>
      </trkpt>
      <trkpt lat="50.25721" lon="5.7478">
        <ele>385</ele>
        <time>2015-09-27T09:49:55Z</time>
      </trkpt>
      <trkpt lat="50.25721" lon="5.74779">
        <ele>385</ele>
        <time>2015-09-27T09:50:01Z</time>
      </trkpt>
      <trkpt lat="50.25721" lon="5.74778">
        <ele>385</ele>
        <time>2015-09-27T09:50:06Z</time>
      </trkpt>
      <trkpt lat="50.25721" lon="5.74778">
        <ele>385</ele>
        <time>2015-09-27T09:50:12Z</time>
      </trkpt>
      <trkpt lat="50.25721" lon="5.74778">
        <ele>385</ele>
        <time>2015-09-27T09:50:23Z</time>
      </trkpt>
      <trkpt lat="50.25723" lon="5.74782">
        <ele>385</ele>
        <time>2015-09-27T09:50:28Z</time>
      </trkpt>
      <trkpt lat="50.25724" lon="5.74784">
        <ele>385</ele>
        <time>2015-09-27T09:50:33Z</time>
      </trkpt>
      <trkpt lat="50.25724" lon="5.74785">
        <ele>385</ele>
        <time>2015-09-27T09:50:38Z</time>
      </trkpt>
      <trkpt lat="50.25726" lon="5.74788">
        <ele>385</ele>
        <time>2015-09-27T09:50:43Z</time>
      </trkpt>
      <trkpt lat="50.25727" lon="5.74788">
        <ele>385</ele>
        <time>2015-09-27T09:50:49Z</time>
      </trkpt>
      <trkpt lat="50.25728" lon="5.74789">
        <ele>385</ele>
        <time>2015-09-27T09:50:55Z</time>
      </trkpt>
      <trkpt lat="50.25729" lon="5.74789">
        <ele>385</ele>
        <time>2015-09-27T09:51:01Z</time>
      </trkpt>
      <trkpt lat="50.25729" lon="5.7479">
        <ele>385</ele>
        <time>2015-09-27T09:51:09Z</time>
      </trkpt>
      <trkpt lat="50.25729" lon="5.7479">
        <ele>386</ele>
        <time>2015-09-27T09:51:17Z</time>
      </trkpt>
      <trkpt lat="50.2573" lon="5.74796">
        <ele>385</ele>
        <time>2015-09-27T09:51:22Z</time>
      </trkpt>
      <trkpt lat="50.25732" lon="5.74804">
        <ele>385</ele>
        <time>2015-09-27T09:51:28Z</time>
      </trkpt>
      <trkpt lat="50.25734" lon="5.74811">
        <ele>385</ele>
        <time>2015-09-27T09:51:33Z</time>
      </trkpt>
      <trkpt lat="50.25737" lon="5.7482">
        <ele>385</ele>
        <time>2015-09-27T09:51:39Z</time>
      </trkpt>
      <trkpt lat="50.25739" lon="5.74828">
        <ele>384</ele>
        <time>2015-09-27T09:51:44Z</time>
      </trkpt>
      <trkpt lat="50.2574" lon="5.74836">
        <ele>385</ele>
        <time>2015-09-27T09:51:50Z</time>
      </trkpt>
      <trkpt lat="50.25743" lon="5.74842">
        <ele>385</ele>
        <time>2015-09-27T09:51:55Z</time>
      </trkpt>
      <trkpt lat="50.25746" lon="5.74852">
        <ele>384</ele>
        <time>2015-09-27T09:52:01Z</time>
      </trkpt>
      <trkpt lat="50.25749" lon="5.74861">
        <ele>385</ele>
        <time>2015-09-27T09:52:06Z</time>
      </trkpt>
      <trkpt lat="50.25751" lon="5.74869">
        <ele>385</ele>
        <time>2015-09-27T09:52:11Z</time>
      </trkpt>
      <trkpt lat="50.25755" lon="5.7488">
        <ele>385</ele>
        <time>2015-09-27T09:52:17Z</time>
      </trkpt>
      <trkpt lat="50.25758" lon="5.7489">
        <ele>385</ele>
        <time>2015-09-27T09:52:23Z</time>
      </trkpt>
      <trkpt lat="50.25761" lon="5.74899">
        <ele>385</ele>
        <time>2015-09-27T09:52:29Z</time>
      </trkpt>
      <trkpt lat="50.25764" lon="5.74908">
        <ele>385</ele>
        <time>2015-09-27T09:52:34Z</time>
      </trkpt>
      <trkpt lat="50.25766" lon="5.74917">
        <ele>385</ele>
        <time>2015-09-27T09:52:39Z</time>
      </trkpt>
      <trkpt lat="50.25768" lon="5.74926">
        <ele>385</ele>
        <time>2015-09-27T09:52:45Z</time>
      </trkpt>
      <trkpt lat="50.2577" lon="5.74935">
        <ele>386</ele>
        <time>2015-09-27T09:52:50Z</time>
      </trkpt>
      <trkpt lat="50.25771" lon="5.74945">
        <ele>385</ele>
        <time>2015-09-27T09:52:56Z</time>
      </trkpt>
      <trkpt lat="50.25773" lon="5.74954">
        <ele>385</ele>
        <time>2015-09-27T09:53:01Z</time>
      </trkpt>
      <trkpt lat="50.25773" lon="5.74966">
        <ele>385</ele>
        <time>2015-09-27T09:53:07Z</time>
      </trkpt>
      <trkpt lat="50.25774" lon="5.74974">
        <ele>385</ele>
        <time>2015-09-27T09:53:12Z</time>
      </trkpt>
      <trkpt lat="50.25774" lon="5.74983">
        <ele>384</ele>
        <time>2015-09-27T09:53:17Z</time>
      </trkpt>
      <trkpt lat="50.25776" lon="5.74994">
        <ele>383</ele>
        <time>2015-09-27T09:53:23Z</time>
      </trkpt>
      <trkpt lat="50.25777" lon="5.75003">
        <ele>384</ele>
        <time>2015-09-27T09:53:29Z</time>
      </trkpt>
      <trkpt lat="50.25779" lon="5.75013">
        <ele>384</ele>
        <time>2015-09-27T09:53:35Z</time>
      </trkpt>
      <trkpt lat="50.25782" lon="5.75022">
        <ele>384</ele>
        <time>2015-09-27T09:53:40Z</time>
      </trkpt>
      <trkpt lat="50.25786" lon="5.75032">
        <ele>384</ele>
        <time>2015-09-27T09:53:46Z</time>
      </trkpt>
      <trkpt lat="50.25789" lon="5.75039">
        <ele>383</ele>
        <time>2015-09-27T09:53:51Z</time>
      </trkpt>
      <trkpt lat="50.25793" lon="5.75047">
        <ele>383</ele>
        <time>2015-09-27T09:53:57Z</time>
      </trkpt>
      <trkpt lat="50.25795" lon="5.75055">
        <ele>383</ele>
        <time>2015-09-27T09:54:02Z</time>
      </trkpt>
      <trkpt lat="50.25798" lon="5.75064">
        <ele>383</ele>
        <time>2015-09-27T09:54:08Z</time>
      </trkpt>
      <trkpt lat="50.25803" lon="5.75074">
        <ele>383</ele>
        <time>2015-09-27T09:54:14Z</time>
      </trkpt>
      <trkpt lat="50.25807" lon="5.75082">
        <ele>383</ele>
        <time>2015-09-27T09:54:19Z</time>
      </trkpt>
      <trkpt lat="50.25812" lon="5.75091">
        <ele>383</ele>
        <time>2015-09-27T09:54:25Z</time>
      </trkpt>
      <trkpt lat="50.25815" lon="5.75098">
        <ele>383</ele>
        <time>2015-09-27T09:54:30Z</time>
      </trkpt>
      <trkpt lat="50.25819" lon="5.75104">
        <ele>383</ele>
        <time>2015-09-27T09:54:35Z</time>
      </trkpt>
      <trkpt lat="50.25823" lon="5.75114">
        <ele>383</ele>
        <time>2015-09-27T09:54:41Z</time>
      </trkpt>
      <trkpt lat="50.25826" lon="5.75124">
        <ele>383</ele>
        <time>2015-09-27T09:54:46Z</time>
      </trkpt>
      <trkpt lat="50.25823" lon="5.75134">
        <ele>382</ele>
        <time>2015-09-27T09:54:52Z</time>
      </trkpt>
      <trkpt lat="50.25819" lon="5.75141">
        <ele>383</ele>
        <time>2015-09-27T09:54:58Z</time>
      </trkpt>
      <trkpt lat="50.25816" lon="5.75144">
        <ele>384</ele>
        <time>2015-09-27T09:55:04Z</time>
      </trkpt>
      <trkpt lat="50.25812" lon="5.75149">
        <ele>384</ele>
        <time>2015-09-27T09:55:09Z</time>
      </trkpt>
      <trkpt lat="50.25808" lon="5.75151">
        <ele>385</ele>
        <time>2015-09-27T09:55:15Z</time>
      </trkpt>
      <trkpt lat="50.25807" lon="5.75152">
        <ele>385</ele>
        <time>2015-09-27T09:55:21Z</time>
      </trkpt>
      <trkpt lat="50.25806" lon="5.75152">
        <ele>385</ele>
        <time>2015-09-27T09:55:26Z</time>
      </trkpt>
      <trkpt lat="50.25806" lon="5.75153">
        <ele>385</ele>
        <time>2015-09-27T09:55:32Z</time>
      </trkpt>
      <trkpt lat="50.25806" lon="5.75152">
        <ele>386</ele>
        <time>2015-09-27T09:55:38Z</time>
      </trkpt>
      <trkpt lat="50.25806" lon="5.75153">
        <ele>386</ele>
        <time>2015-09-27T09:55:44Z</time>
      </trkpt>
      <trkpt lat="50.25803" lon="5.75156">
        <ele>386</ele>
        <time>2015-09-27T09:55:49Z</time>
      </trkpt>
      <trkpt lat="50.258" lon="5.75158">
        <ele>386</ele>
        <time>2015-09-27T09:55:54Z</time>
      </trkpt>
      <trkpt lat="50.258" lon="5.75159">
        <ele>386</ele>
        <time>2015-09-27T09:56:00Z</time>
      </trkpt>
      <trkpt lat="50.25799" lon="5.7516">
        <ele>386</ele>
        <time>2015-09-27T09:56:07Z</time>
      </trkpt>
      <trkpt lat="50.25799" lon="5.7516">
        <ele>387</ele>
        <time>2015-09-27T09:56:13Z</time>
      </trkpt>
      <trkpt lat="50.25799" lon="5.7516">
        <ele>386</ele>
        <time>2015-09-27T09:56:19Z</time>
      </trkpt>
      <trkpt lat="50.25799" lon="5.75161">
        <ele>386</ele>
        <time>2015-09-27T09:56:25Z</time>
      </trkpt>
      <trkpt lat="50.25799" lon="5.75161">
        <ele>386</ele>
        <time>2015-09-27T09:56:32Z</time>
      </trkpt>
      <trkpt lat="50.25799" lon="5.75161">
        <ele>386</ele>
        <time>2015-09-27T09:56:38Z</time>
      </trkpt>
      <trkpt lat="50.25799" lon="5.7516">
        <ele>386</ele>
        <time>2015-09-27T09:56:44Z</time>
      </trkpt>
      <trkpt lat="50.25798" lon="5.75159">
        <ele>386</ele>
        <time>2015-09-27T09:56:49Z</time>
      </trkpt>
      <trkpt lat="50.25798" lon="5.75157">
        <ele>387</ele>
        <time>2015-09-27T09:56:55Z</time>
      </trkpt>
      <trkpt lat="50.25798" lon="5.75156">
        <ele>386</ele>
        <time>2015-09-27T09:57:02Z</time>
      </trkpt>
      <trkpt lat="50.25798" lon="5.75155">
        <ele>387</ele>
        <time>2015-09-27T09:57:08Z</time>
      </trkpt>
      <trkpt lat="50.25798" lon="5.75153">
        <ele>386</ele>
        <time>2015-09-27T09:57:13Z</time>
      </trkpt>
      <trkpt lat="50.25798" lon="5.75151">
        <ele>387</ele>
        <time>2015-09-27T09:57:18Z</time>
      </trkpt>
      <trkpt lat="50.25799" lon="5.7515">
        <ele>387</ele>
        <time>2015-09-27T09:57:24Z</time>
      </trkpt>
      <trkpt lat="50.25798" lon="5.75149">
        <ele>387</ele>
        <time>2015-09-27T09:57:31Z</time>
      </trkpt>
      <trkpt lat="50.25796" lon="5.75147">
        <ele>387</ele>
        <time>2015-09-27T09:57:37Z</time>
      </trkpt>
      <trkpt lat="50.25795" lon="5.75146">
        <ele>387</ele>
        <time>2015-09-27T09:57:43Z</time>
      </trkpt>
      <trkpt lat="50.25795" lon="5.75147">
        <ele>387</ele>
        <time>2015-09-27T09:57:49Z</time>
      </trkpt>
      <trkpt lat="50.25795" lon="5.75146">
        <ele>387</ele>
        <time>2015-09-27T09:57:54Z</time>
      </trkpt>
      <trkpt lat="50.25793" lon="5.75145">
        <ele>386</ele>
        <time>2015-09-27T09:58:00Z</time>
      </trkpt>
      <trkpt lat="50.2579" lon="5.75145">
        <ele>387</ele>
        <time>2015-09-27T09:58:05Z</time>
      </trkpt>
      <trkpt lat="50.25787" lon="5.75146">
        <ele>387</ele>
        <time>2015-09-27T09:58:10Z</time>
      </trkpt>
      <trkpt lat="50.25781" lon="5.75148">
        <ele>388</ele>
        <time>2015-09-27T09:58:16Z</time>
      </trkpt>
      <trkpt lat="50.25776" lon="5.7515">
        <ele>388</ele>
        <time>2015-09-27T09:58:22Z</time>
      </trkpt>
      <trkpt lat="50.25773" lon="5.75152">
        <ele>389</ele>
        <time>2015-09-27T09:58:27Z</time>
      </trkpt>
      <trkpt lat="50.25772" lon="5.75153">
        <ele>390</ele>
        <time>2015-09-27T09:58:32Z</time>
      </trkpt>
      <trkpt lat="50.25772" lon="5.75154">
        <ele>389</ele>
        <time>2015-09-27T09:58:37Z</time>
      </trkpt>
      <trkpt lat="50.25772" lon="5.75156">
        <ele>389</ele>
        <time>2015-09-27T09:58:42Z</time>
      </trkpt>
      <trkpt lat="50.25769" lon="5.75161">
        <ele>388</ele>
        <time>2015-09-27T09:58:48Z</time>
      </trkpt>
      <trkpt lat="50.25769" lon="5.75161">
        <ele>388</ele>
        <time>2015-09-27T09:58:54Z</time>
      </trkpt>
      <trkpt lat="50.25769" lon="5.75162">
        <ele>388</ele>
        <time>2015-09-27T09:58:59Z</time>
      </trkpt>
      <trkpt lat="50.25769" lon="5.75164">
        <ele>388</ele>
        <time>2015-09-27T09:59:04Z</time>
      </trkpt>
      <trkpt lat="50.25769" lon="5.75166">
        <ele>388</ele>
        <time>2015-09-27T09:59:09Z</time>
      </trkpt>
      <trkpt lat="50.25768" lon="5.75166">
        <ele>389</ele>
        <time>2015-09-27T09:59:15Z</time>
      </trkpt>
      <trkpt lat="50.25766" lon="5.75167">
        <ele>389</ele>
        <time>2015-09-27T09:59:20Z</time>
      </trkpt>
      <trkpt lat="50.25763" lon="5.75165">
        <ele>389</ele>
        <time>2015-09-27T09:59:26Z</time>
      </trkpt>
      <trkpt lat="50.25763" lon="5.75163">
        <ele>389</ele>
        <time>2015-09-27T09:59:32Z</time>
      </trkpt>
      <trkpt lat="50.2576" lon="5.75161">
        <ele>389</ele>
        <time>2015-09-27T09:59:37Z</time>
      </trkpt>
      <trkpt lat="50.25754" lon="5.75159">
        <ele>390</ele>
        <time>2015-09-27T09:59:43Z</time>
      </trkpt>
      <trkpt lat="50.25749" lon="5.75157">
        <ele>390</ele>
        <time>2015-09-27T09:59:49Z</time>
      </trkpt>
      <trkpt lat="50.25745" lon="5.75156">
        <ele>391</ele>
        <time>2015-09-27T09:59:55Z</time>
      </trkpt>
      <trkpt lat="50.2574" lon="5.75155">
        <ele>392</ele>
        <time>2015-09-27T10:00:00Z</time>
      </trkpt>
      <trkpt lat="50.25735" lon="5.75154">
        <ele>392</ele>
        <time>2015-09-27T10:00:05Z</time>
      </trkpt>
      <trkpt lat="50.25729" lon="5.75153">
        <ele>392</ele>
        <time>2015-09-27T10:00:10Z</time>
      </trkpt>
      <trkpt lat="50.25723" lon="5.75152">
        <ele>392</ele>
        <time>2015-09-27T10:00:16Z</time>
      </trkpt>
      <trkpt lat="50.25717" lon="5.75149">
        <ele>393</ele>
        <time>2015-09-27T10:00:22Z</time>
      </trkpt>
      <trkpt lat="50.25712" lon="5.75148">
        <ele>393</ele>
        <time>2015-09-27T10:00:27Z</time>
      </trkpt>
      <trkpt lat="50.25705" lon="5.75146">
        <ele>394</ele>
        <time>2015-09-27T10:00:33Z</time>
      </trkpt>
      <trkpt lat="50.257" lon="5.75146">
        <ele>394</ele>
        <time>2015-09-27T10:00:38Z</time>
      </trkpt>
      <trkpt lat="50.25695" lon="5.75146">
        <ele>395</ele>
        <time>2015-09-27T10:00:44Z</time>
      </trkpt>
      <trkpt lat="50.25691" lon="5.75146">
        <ele>395</ele>
        <time>2015-09-27T10:00:49Z</time>
      </trkpt>
      <trkpt lat="50.25687" lon="5.75145">
        <ele>396</ele>
        <time>2015-09-27T10:00:54Z</time>
      </trkpt>
      <trkpt lat="50.2568" lon="5.75143">
        <ele>396</ele>
        <time>2015-09-27T10:01:00Z</time>
      </trkpt>
      <trkpt lat="50.25674" lon="5.7514">
        <ele>396</ele>
        <time>2015-09-27T10:01:05Z</time>
      </trkpt>
      <trkpt lat="50.25669" lon="5.75138">
        <ele>397</ele>
        <time>2015-09-27T10:01:11Z</time>
      </trkpt>
      <trkpt lat="50.25665" lon="5.75138">
        <ele>398</ele>
        <time>2015-09-27T10:01:16Z</time>
      </trkpt>
      <trkpt lat="50.25664" lon="5.75139">
        <ele>398</ele>
        <time>2015-09-27T10:01:22Z</time>
      </trkpt>
      <trkpt lat="50.25663" lon="5.75139">
        <ele>398</ele>
        <time>2015-09-27T10:01:27Z</time>
      </trkpt>
      <trkpt lat="50.25657" lon="5.75138">
        <ele>398</ele>
        <time>2015-09-27T10:01:33Z</time>
      </trkpt>
      <trkpt lat="50.25651" lon="5.75136">
        <ele>398</ele>
        <time>2015-09-27T10:01:39Z</time>
      </trkpt>
      <trkpt lat="50.25648" lon="5.75134">
        <ele>399</ele>
        <time>2015-09-27T10:01:44Z</time>
      </trkpt>
      <trkpt lat="50.25642" lon="5.75131">
        <ele>399</ele>
        <time>2015-09-27T10:01:49Z</time>
      </trkpt>
      <trkpt lat="50.25637" lon="5.7513">
        <ele>400</ele>
        <time>2015-09-27T10:01:54Z</time>
      </trkpt>
      <trkpt lat="50.25632" lon="5.7513">
        <ele>400</ele>
        <time>2015-09-27T10:01:59Z</time>
      </trkpt>
      <trkpt lat="50.25628" lon="5.7513">
        <ele>401</ele>
        <time>2015-09-27T10:02:05Z</time>
      </trkpt>
      <trkpt lat="50.25623" lon="5.7513">
        <ele>401</ele>
        <time>2015-09-27T10:02:10Z</time>
      </trkpt>
      <trkpt lat="50.25618" lon="5.75128">
        <ele>402</ele>
        <time>2015-09-27T10:02:16Z</time>
      </trkpt>
      <trkpt lat="50.25613" lon="5.75127">
        <ele>402</ele>
        <time>2015-09-27T10:02:21Z</time>
      </trkpt>
      <trkpt lat="50.25608" lon="5.75126">
        <ele>403</ele>
        <time>2015-09-27T10:02:27Z</time>
      </trkpt>
      <trkpt lat="50.25602" lon="5.75127">
        <ele>404</ele>
        <time>2015-09-27T10:02:32Z</time>
      </trkpt>
      <trkpt lat="50.25596" lon="5.75126">
        <ele>404</ele>
        <time>2015-09-27T10:02:38Z</time>
      </trkpt>
      <trkpt lat="50.25591" lon="5.75127">
        <ele>405</ele>
        <time>2015-09-27T10:02:43Z</time>
      </trkpt>
      <trkpt lat="50.25585" lon="5.75127">
        <ele>405</ele>
        <time>2015-09-27T10:02:48Z</time>
      </trkpt>
      <trkpt lat="50.25581" lon="5.75127">
        <ele>406</ele>
        <time>2015-09-27T10:02:54Z</time>
      </trkpt>
      <trkpt lat="50.25576" lon="5.75129">
        <ele>406</ele>
        <time>2015-09-27T10:02:59Z</time>
      </trkpt>
      <trkpt lat="50.25571" lon="5.75133">
        <ele>407</ele>
        <time>2015-09-27T10:03:05Z</time>
      </trkpt>
      <trkpt lat="50.25567" lon="5.75136">
        <ele>407</ele>
        <time>2015-09-27T10:03:11Z</time>
      </trkpt>
      <trkpt lat="50.25565" lon="5.75137">
        <ele>408</ele>
        <time>2015-09-27T10:03:17Z</time>
      </trkpt>
      <trkpt lat="50.2556" lon="5.75143">
        <ele>409</ele>
        <time>2015-09-27T10:03:23Z</time>
      </trkpt>
      <trkpt lat="50.25556" lon="5.75148">
        <ele>409</ele>
        <time>2015-09-27T10:03:28Z</time>
      </trkpt>
      <trkpt lat="50.2555" lon="5.75154">
        <ele>409</ele>
        <time>2015-09-27T10:03:34Z</time>
      </trkpt>
      <trkpt lat="50.25546" lon="5.75157">
        <ele>410</ele>
        <time>2015-09-27T10:03:39Z</time>
      </trkpt>
      <trkpt lat="50.2554" lon="5.75164">
        <ele>411</ele>
        <time>2015-09-27T10:03:45Z</time>
      </trkpt>
      <trkpt lat="50.25536" lon="5.75168">
        <ele>411</ele>
        <time>2015-09-27T10:03:50Z</time>
      </trkpt>
      <trkpt lat="50.25532" lon="5.75173">
        <ele>412</ele>
        <time>2015-09-27T10:03:55Z</time>
      </trkpt>
      <trkpt lat="50.25528" lon="5.75177">
        <ele>413</ele>
        <time>2015-09-27T10:04:01Z</time>
      </trkpt>
      <trkpt lat="50.25523" lon="5.75181">
        <ele>413</ele>
        <time>2015-09-27T10:04:07Z</time>
      </trkpt>
      <trkpt lat="50.2552" lon="5.75184">
        <ele>413</ele>
        <time>2015-09-27T10:04:12Z</time>
      </trkpt>
      <trkpt lat="50.25516" lon="5.75188">
        <ele>413</ele>
        <time>2015-09-27T10:04:17Z</time>
      </trkpt>
      <trkpt lat="50.25511" lon="5.75192">
        <ele>414</ele>
        <time>2015-09-27T10:04:22Z</time>
      </trkpt>
      <trkpt lat="50.25507" lon="5.75196">
        <ele>415</ele>
        <time>2015-09-27T10:04:27Z</time>
      </trkpt>
      <trkpt lat="50.25503" lon="5.75201">
        <ele>416</ele>
        <time>2015-09-27T10:04:32Z</time>
      </trkpt>
      <trkpt lat="50.255" lon="5.75206">
        <ele>416</ele>
        <time>2015-09-27T10:04:38Z</time>
      </trkpt>
      <trkpt lat="50.25495" lon="5.7521">
        <ele>417</ele>
        <time>2015-09-27T10:04:43Z</time>
      </trkpt>
      <trkpt lat="50.25491" lon="5.75214">
        <ele>417</ele>
        <time>2015-09-27T10:04:49Z</time>
      </trkpt>
      <trkpt lat="50.25485" lon="5.75216">
        <ele>417</ele>
        <time>2015-09-27T10:04:54Z</time>
      </trkpt>
      <trkpt lat="50.2548" lon="5.75218">
        <ele>418</ele>
        <time>2015-09-27T10:05:00Z</time>
      </trkpt>
      <trkpt lat="50.25478" lon="5.75219">
        <ele>418</ele>
        <time>2015-09-27T10:05:06Z</time>
      </trkpt>
      <trkpt lat="50.25475" lon="5.75218">
        <ele>419</ele>
        <time>2015-09-27T10:05:12Z</time>
      </trkpt>
      <trkpt lat="50.25471" lon="5.75216">
        <ele>419</ele>
        <time>2015-09-27T10:05:17Z</time>
      </trkpt>
      <trkpt lat="50.2547" lon="5.75215">
        <ele>419</ele>
        <time>2015-09-27T10:05:23Z</time>
      </trkpt>
      <trkpt lat="50.2547" lon="5.75216">
        <ele>419</ele>
        <time>2015-09-27T10:05:29Z</time>
      </trkpt>
      <trkpt lat="50.25469" lon="5.75215">
        <ele>420</ele>
        <time>2015-09-27T10:05:35Z</time>
      </trkpt>
      <trkpt lat="50.25468" lon="5.75214">
        <ele>420</ele>
        <time>2015-09-27T10:05:40Z</time>
      </trkpt>
      <trkpt lat="50.25462" lon="5.75208">
        <ele>420</ele>
        <time>2015-09-27T10:05:46Z</time>
      </trkpt>
      <trkpt lat="50.25462" lon="5.75206">
        <ele>420</ele>
        <time>2015-09-27T10:05:52Z</time>
      </trkpt>
      <trkpt lat="50.25464" lon="5.75212">
        <ele>420</ele>
        <time>2015-09-27T10:05:57Z</time>
      </trkpt>
      <trkpt lat="50.25467" lon="5.75218">
        <ele>420</ele>
        <time>2015-09-27T10:06:02Z</time>
      </trkpt>
      <trkpt lat="50.25469" lon="5.75226">
        <ele>419</ele>
        <time>2015-09-27T10:06:08Z</time>
      </trkpt>
      <trkpt lat="50.25468" lon="5.75228">
        <ele>420</ele>
        <time>2015-09-27T10:06:14Z</time>
      </trkpt>
      <trkpt lat="50.25467" lon="5.75231">
        <ele>420</ele>
        <time>2015-09-27T10:06:19Z</time>
      </trkpt>
      <trkpt lat="50.25462" lon="5.75235">
        <ele>421</ele>
        <time>2015-09-27T10:06:25Z</time>
      </trkpt>
      <trkpt lat="50.25455" lon="5.7524">
        <ele>421</ele>
        <time>2015-09-27T10:06:30Z</time>
      </trkpt>
      <trkpt lat="50.25449" lon="5.75243">
        <ele>422</ele>
        <time>2015-09-27T10:06:37Z</time>
      </trkpt>
      <trkpt lat="50.25443" lon="5.75244">
        <ele>423</ele>
        <time>2015-09-27T10:06:43Z</time>
      </trkpt>
      <trkpt lat="50.25438" lon="5.75241">
        <ele>423</ele>
        <time>2015-09-27T10:06:48Z</time>
      </trkpt>
      <trkpt lat="50.25435" lon="5.75239">
        <ele>424</ele>
        <time>2015-09-27T10:06:53Z</time>
      </trkpt>
      <trkpt lat="50.25435" lon="5.75239">
        <ele>424</ele>
        <time>2015-09-27T10:06:59Z</time>
      </trkpt>
      <trkpt lat="50.25435" lon="5.75239">
        <ele>424</ele>
        <time>2015-09-27T10:07:04Z</time>
      </trkpt>
      <trkpt lat="50.25431" lon="5.75235">
        <ele>424</ele>
        <time>2015-09-27T10:07:10Z</time>
      </trkpt>
      <trkpt lat="50.25426" lon="5.7523">
        <ele>425</ele>
        <time>2015-09-27T10:07:16Z</time>
      </trkpt>
      <trkpt lat="50.25421" lon="5.75224">
        <ele>426</ele>
        <time>2015-09-27T10:07:21Z</time>
      </trkpt>
      <trkpt lat="50.25418" lon="5.7522">
        <ele>426</ele>
        <time>2015-09-27T10:07:26Z</time>
      </trkpt>
      <trkpt lat="50.25414" lon="5.75215">
        <ele>426</ele>
        <time>2015-09-27T10:07:31Z</time>
      </trkpt>
      <trkpt lat="50.25409" lon="5.7521">
        <ele>426</ele>
        <time>2015-09-27T10:07:36Z</time>
      </trkpt>
      <trkpt lat="50.25404" lon="5.75203">
        <ele>427</ele>
        <time>2015-09-27T10:07:41Z</time>
      </trkpt>
      <trkpt lat="50.25399" lon="5.75197">
        <ele>427</ele>
        <time>2015-09-27T10:07:47Z</time>
      </trkpt>
      <trkpt lat="50.25394" lon="5.7519">
        <ele>428</ele>
        <time>2015-09-27T10:07:53Z</time>
      </trkpt>
      <trkpt lat="50.25389" lon="5.75183">
        <ele>428</ele>
        <time>2015-09-27T10:07:58Z</time>
      </trkpt>
      <trkpt lat="50.25383" lon="5.75176">
        <ele>429</ele>
        <time>2015-09-27T10:08:04Z</time>
      </trkpt>
      <trkpt lat="50.25379" lon="5.75171">
        <ele>429</ele>
        <time>2015-09-27T10:08:10Z</time>
      </trkpt>
      <trkpt lat="50.25375" lon="5.75165">
        <ele>430</ele>
        <time>2015-09-27T10:08:15Z</time>
      </trkpt>
      <trkpt lat="50.2537" lon="5.75159">
        <ele>430</ele>
        <time>2015-09-27T10:08:21Z</time>
      </trkpt>
      <trkpt lat="50.25366" lon="5.75154">
        <ele>431</ele>
        <time>2015-09-27T10:08:26Z</time>
      </trkpt>
      <trkpt lat="50.25363" lon="5.75148">
        <ele>431</ele>
        <time>2015-09-27T10:08:32Z</time>
      </trkpt>
      <trkpt lat="50.25362" lon="5.75146">
        <ele>431</ele>
        <time>2015-09-27T10:08:37Z</time>
      </trkpt>
      <trkpt lat="50.25362" lon="5.75145">
        <ele>431</ele>
        <time>2015-09-27T10:08:43Z</time>
      </trkpt>
      <trkpt lat="50.2536" lon="5.75141">
        <ele>431</ele>
        <time>2015-09-27T10:08:49Z</time>
      </trkpt>
      <trkpt lat="50.25357" lon="5.75132">
        <ele>431</ele>
        <time>2015-09-27T10:08:55Z</time>
      </trkpt>
      <trkpt lat="50.25354" lon="5.75126">
        <ele>432</ele>
        <time>2015-09-27T10:09:01Z</time>
      </trkpt>
      <trkpt lat="50.25351" lon="5.75118">
        <ele>431</ele>
        <time>2015-09-27T10:09:07Z</time>
      </trkpt>
      <trkpt lat="50.25349" lon="5.7511">
        <ele>431</ele>
        <time>2015-09-27T10:09:13Z</time>
      </trkpt>
      <trkpt lat="50.25345" lon="5.75104">
        <ele>431</ele>
        <time>2015-09-27T10:09:18Z</time>
      </trkpt>
      <trkpt lat="50.25343" lon="5.75098">
        <ele>431</ele>
        <time>2015-09-27T10:09:23Z</time>
      </trkpt>
      <trkpt lat="50.2534" lon="5.75089">
        <ele>432</ele>
        <time>2015-09-27T10:09:29Z</time>
      </trkpt>
      <trkpt lat="50.25337" lon="5.75082">
        <ele>432</ele>
        <time>2015-09-27T10:09:35Z</time>
      </trkpt>
      <trkpt lat="50.25334" lon="5.75076">
        <ele>432</ele>
        <time>2015-09-27T10:09:40Z</time>
      </trkpt>
      <trkpt lat="50.2533" lon="5.75068">
        <ele>432</ele>
        <time>2015-09-27T10:09:45Z</time>
      </trkpt>
      <trkpt lat="50.25327" lon="5.75061">
        <ele>432</ele>
        <time>2015-09-27T10:09:51Z</time>
      </trkpt>
      <trkpt lat="50.25322" lon="5.75052">
        <ele>432</ele>
        <time>2015-09-27T10:09:57Z</time>
      </trkpt>
      <trkpt lat="50.25318" lon="5.75043">
        <ele>431</ele>
        <time>2015-09-27T10:10:02Z</time>
      </trkpt>
      <trkpt lat="50.25315" lon="5.75037">
        <ele>432</ele>
        <time>2015-09-27T10:10:07Z</time>
      </trkpt>
      <trkpt lat="50.25312" lon="5.7503">
        <ele>432</ele>
        <time>2015-09-27T10:10:13Z</time>
      </trkpt>
      <trkpt lat="50.25309" lon="5.75023">
        <ele>432</ele>
        <time>2015-09-27T10:10:18Z</time>
      </trkpt>
      <trkpt lat="50.25305" lon="5.75015">
        <ele>431</ele>
        <time>2015-09-27T10:10:23Z</time>
      </trkpt>
      <trkpt lat="50.25303" lon="5.75011">
        <ele>431</ele>
        <time>2015-09-27T10:10:28Z</time>
      </trkpt>
      <trkpt lat="50.25302" lon="5.75008">
        <ele>431</ele>
        <time>2015-09-27T10:10:34Z</time>
      </trkpt>
      <trkpt lat="50.25299" lon="5.75002">
        <ele>431</ele>
        <time>2015-09-27T10:10:39Z</time>
      </trkpt>
      <trkpt lat="50.25294" lon="5.74994">
        <ele>432</ele>
        <time>2015-09-27T10:10:45Z</time>
      </trkpt>
      <trkpt lat="50.2529" lon="5.74987">
        <ele>432</ele>
        <time>2015-09-27T10:10:51Z</time>
      </trkpt>
      <trkpt lat="50.25286" lon="5.74981">
        <ele>432</ele>
        <time>2015-09-27T10:10:56Z</time>
      </trkpt>
      <trkpt lat="50.25281" lon="5.74974">
        <ele>433</ele>
        <time>2015-09-27T10:11:02Z</time>
      </trkpt>
      <trkpt lat="50.25277" lon="5.74968">
        <ele>433</ele>
        <time>2015-09-27T10:11:07Z</time>
      </trkpt>
      <trkpt lat="50.25272" lon="5.74962">
        <ele>433</ele>
        <time>2015-09-27T10:11:13Z</time>
      </trkpt>
      <trkpt lat="50.25268" lon="5.74956">
        <ele>433</ele>
        <time>2015-09-27T10:11:18Z</time>
      </trkpt>
      <trkpt lat="50.25264" lon="5.7495">
        <ele>433</ele>
        <time>2015-09-27T10:11:23Z</time>
      </trkpt>
      <trkpt lat="50.25259" lon="5.74941">
        <ele>433</ele>
        <time>2015-09-27T10:11:28Z</time>
      </trkpt>
      <trkpt lat="50.25256" lon="5.74934">
        <ele>433</ele>
        <time>2015-09-27T10:11:33Z</time>
      </trkpt>
      <trkpt lat="50.25253" lon="5.74925">
        <ele>433</ele>
        <time>2015-09-27T10:11:39Z</time>
      </trkpt>
      <trkpt lat="50.25249" lon="5.74917">
        <ele>433</ele>
        <time>2015-09-27T10:11:45Z</time>
      </trkpt>
      <trkpt lat="50.25247" lon="5.74909">
        <ele>433</ele>
        <time>2015-09-27T10:11:51Z</time>
      </trkpt>
      <trkpt lat="50.25245" lon="5.749">
        <ele>433</ele>
        <time>2015-09-27T10:11:56Z</time>
      </trkpt>
      <trkpt lat="50.25242" lon="5.74891">
        <ele>433</ele>
        <time>2015-09-27T10:12:02Z</time>
      </trkpt>
      <trkpt lat="50.2524" lon="5.74884">
        <ele>434</ele>
        <time>2015-09-27T10:12:08Z</time>
      </trkpt>
      <trkpt lat="50.25237" lon="5.74877">
        <ele>433</ele>
        <time>2015-09-27T10:12:13Z</time>
      </trkpt>
      <trkpt lat="50.25234" lon="5.7487">
        <ele>434</ele>
        <time>2015-09-27T10:12:18Z</time>
      </trkpt>
      <trkpt lat="50.25231" lon="5.74863">
        <ele>434</ele>
        <time>2015-09-27T10:12:24Z</time>
      </trkpt>
      <trkpt lat="50.25227" lon="5.74855">
        <ele>434</ele>
        <time>2015-09-27T10:12:29Z</time>
      </trkpt>
      <trkpt lat="50.25224" lon="5.74848">
        <ele>434</ele>
        <time>2015-09-27T10:12:35Z</time>
      </trkpt>
      <trkpt lat="50.25221" lon="5.7484">
        <ele>434</ele>
        <time>2015-09-27T10:12:40Z</time>
      </trkpt>
      <trkpt lat="50.25218" lon="5.74834">
        <ele>433</ele>
        <time>2015-09-27T10:12:46Z</time>
      </trkpt>
      <trkpt lat="50.25214" lon="5.74825">
        <ele>434</ele>
        <time>2015-09-27T10:12:51Z</time>
      </trkpt>
      <trkpt lat="50.25211" lon="5.74817">
        <ele>434</ele>
        <time>2015-09-27T10:12:56Z</time>
      </trkpt>
      <trkpt lat="50.25208" lon="5.7481">
        <ele>434</ele>
        <time>2015-09-27T10:13:01Z</time>
      </trkpt>
      <trkpt lat="50.25205" lon="5.74802">
        <ele>435</ele>
        <time>2015-09-27T10:13:07Z</time>
      </trkpt>
      <trkpt lat="50.25202" lon="5.74795">
        <ele>435</ele>
        <time>2015-09-27T10:13:12Z</time>
      </trkpt>
      <trkpt lat="50.252" lon="5.74787">
        <ele>436</ele>
        <time>2015-09-27T10:13:18Z</time>
      </trkpt>
      <trkpt lat="50.25197" lon="5.7478">
        <ele>436</ele>
        <time>2015-09-27T10:13:23Z</time>
      </trkpt>
      <trkpt lat="50.25195" lon="5.74772">
        <ele>436</ele>
        <time>2015-09-27T10:13:29Z</time>
      </trkpt>
      <trkpt lat="50.25193" lon="5.74763">
        <ele>436</ele>
        <time>2015-09-27T10:13:35Z</time>
      </trkpt>
      <trkpt lat="50.2519" lon="5.74754">
        <ele>436</ele>
        <time>2015-09-27T10:13:41Z</time>
      </trkpt>
      <trkpt lat="50.25188" lon="5.74745">
        <ele>436</ele>
        <time>2015-09-27T10:13:47Z</time>
      </trkpt>
      <trkpt lat="50.25186" lon="5.74736">
        <ele>437</ele>
        <time>2015-09-27T10:13:52Z</time>
      </trkpt>
      <trkpt lat="50.25184" lon="5.74728">
        <ele>437</ele>
        <time>2015-09-27T10:13:58Z</time>
      </trkpt>
      <trkpt lat="50.25182" lon="5.74721">
        <ele>437</ele>
        <time>2015-09-27T10:14:03Z</time>
      </trkpt>
      <trkpt lat="50.2518" lon="5.74714">
        <ele>437</ele>
        <time>2015-09-27T10:14:09Z</time>
      </trkpt>
      <trkpt lat="50.25176" lon="5.74706">
        <ele>438</ele>
        <time>2015-09-27T10:14:14Z</time>
      </trkpt>
      <trkpt lat="50.25174" lon="5.74698">
        <ele>438</ele>
        <time>2015-09-27T10:14:20Z</time>
      </trkpt>
      <trkpt lat="50.25171" lon="5.7469">
        <ele>438</ele>
        <time>2015-09-27T10:14:25Z</time>
      </trkpt>
      <trkpt lat="50.25169" lon="5.74683">
        <ele>438</ele>
        <time>2015-09-27T10:14:30Z</time>
      </trkpt>
      <trkpt lat="50.25166" lon="5.74676">
        <ele>439</ele>
        <time>2015-09-27T10:14:36Z</time>
      </trkpt>
      <trkpt lat="50.25164" lon="5.74671">
        <ele>439</ele>
        <time>2015-09-27T10:14:41Z</time>
      </trkpt>
      <trkpt lat="50.25162" lon="5.74665">
        <ele>439</ele>
        <time>2015-09-27T10:14:46Z</time>
      </trkpt>
      <trkpt lat="50.25159" lon="5.74659">
        <ele>440</ele>
        <time>2015-09-27T10:14:52Z</time>
      </trkpt>
      <trkpt lat="50.25157" lon="5.74654">
        <ele>440</ele>
        <time>2015-09-27T10:14:57Z</time>
      </trkpt>
      <trkpt lat="50.25155" lon="5.74648">
        <ele>440</ele>
        <time>2015-09-27T10:15:02Z</time>
      </trkpt>
      <trkpt lat="50.25153" lon="5.74643">
        <ele>441</ele>
        <time>2015-09-27T10:15:08Z</time>
      </trkpt>
      <trkpt lat="50.25151" lon="5.74637">
        <ele>441</ele>
        <time>2015-09-27T10:15:13Z</time>
      </trkpt>
      <trkpt lat="50.25148" lon="5.74631">
        <ele>442</ele>
        <time>2015-09-27T10:15:18Z</time>
      </trkpt>
      <trkpt lat="50.25146" lon="5.74625">
        <ele>442</ele>
        <time>2015-09-27T10:15:23Z</time>
      </trkpt>
      <trkpt lat="50.25144" lon="5.74619">
        <ele>442</ele>
        <time>2015-09-27T10:15:28Z</time>
      </trkpt>
      <trkpt lat="50.25142" lon="5.74614">
        <ele>442</ele>
        <time>2015-09-27T10:15:33Z</time>
      </trkpt>
      <trkpt lat="50.25139" lon="5.74607">
        <ele>442</ele>
        <time>2015-09-27T10:15:39Z</time>
      </trkpt>
      <trkpt lat="50.25137" lon="5.74601">
        <ele>443</ele>
        <time>2015-09-27T10:15:44Z</time>
      </trkpt>
      <trkpt lat="50.25135" lon="5.74595">
        <ele>443</ele>
        <time>2015-09-27T10:15:49Z</time>
      </trkpt>
      <trkpt lat="50.25132" lon="5.74588">
        <ele>443</ele>
        <time>2015-09-27T10:15:55Z</time>
      </trkpt>
      <trkpt lat="50.25131" lon="5.74584">
        <ele>442</ele>
        <time>2015-09-27T10:16:00Z</time>
      </trkpt>
      <trkpt lat="50.25128" lon="5.74577">
        <ele>443</ele>
        <time>2015-09-27T10:16:06Z</time>
      </trkpt>
      <trkpt lat="50.25127" lon="5.74571">
        <ele>443</ele>
        <time>2015-09-27T10:16:11Z</time>
      </trkpt>
      <trkpt lat="50.25127" lon="5.74568">
        <ele>444</ele>
        <time>2015-09-27T10:16:17Z</time>
      </trkpt>
      <trkpt lat="50.25124" lon="5.7456">
        <ele>444</ele>
        <time>2015-09-27T10:16:22Z</time>
      </trkpt>
      <trkpt lat="50.25122" lon="5.74552">
        <ele>444</ele>
        <time>2015-09-27T10:16:29Z</time>
      </trkpt>
      <trkpt lat="50.25119" lon="5.74545">
        <ele>444</ele>
        <time>2015-09-27T10:16:34Z</time>
      </trkpt>
      <trkpt lat="50.25117" lon="5.74539">
        <ele>444</ele>
        <time>2015-09-27T10:16:39Z</time>
      </trkpt>
      <trkpt lat="50.25115" lon="5.74534">
        <ele>445</ele>
        <time>2015-09-27T10:16:45Z</time>
      </trkpt>
      <trkpt lat="50.25113" lon="5.7453">
        <ele>445</ele>
        <time>2015-09-27T10:16:51Z</time>
      </trkpt>
      <trkpt lat="50.25111" lon="5.74526">
        <ele>445</ele>
        <time>2015-09-27T10:16:57Z</time>
      </trkpt>
      <trkpt lat="50.25109" lon="5.74518">
        <ele>445</ele>
        <time>2015-09-27T10:17:02Z</time>
      </trkpt>
      <trkpt lat="50.25107" lon="5.74509">
        <ele>446</ele>
        <time>2015-09-27T10:17:07Z</time>
      </trkpt>
      <trkpt lat="50.25103" lon="5.74498">
        <ele>446</ele>
        <time>2015-09-27T10:17:13Z</time>
      </trkpt>
      <trkpt lat="50.25102" lon="5.74493">
        <ele>447</ele>
        <time>2015-09-27T10:17:19Z</time>
      </trkpt>
      <trkpt lat="50.25101" lon="5.74491">
        <ele>447</ele>
        <time>2015-09-27T10:17:25Z</time>
      </trkpt>
      <trkpt lat="50.251" lon="5.7449">
        <ele>447</ele>
        <time>2015-09-27T10:17:30Z</time>
      </trkpt>
      <trkpt lat="50.25099" lon="5.74486">
        <ele>447</ele>
        <time>2015-09-27T10:17:36Z</time>
      </trkpt>
      <trkpt lat="50.25098" lon="5.74479">
        <ele>447</ele>
        <time>2015-09-27T10:17:41Z</time>
      </trkpt>
      <trkpt lat="50.25095" lon="5.74469">
        <ele>448</ele>
        <time>2015-09-27T10:17:47Z</time>
      </trkpt>
      <trkpt lat="50.25092" lon="5.7446">
        <ele>448</ele>
        <time>2015-09-27T10:17:53Z</time>
      </trkpt>
      <trkpt lat="50.2509" lon="5.7445">
        <ele>449</ele>
        <time>2015-09-27T10:17:58Z</time>
      </trkpt>
      <trkpt lat="50.25087" lon="5.74444">
        <ele>449</ele>
        <time>2015-09-27T10:18:04Z</time>
      </trkpt>
      <trkpt lat="50.25084" lon="5.74433">
        <ele>449</ele>
        <time>2015-09-27T10:18:10Z</time>
      </trkpt>
      <trkpt lat="50.25081" lon="5.74421">
        <ele>450</ele>
        <time>2015-09-27T10:18:16Z</time>
      </trkpt>
      <trkpt lat="50.25078" lon="5.7441">
        <ele>450</ele>
        <time>2015-09-27T10:18:22Z</time>
      </trkpt>
      <trkpt lat="50.25075" lon="5.74401">
        <ele>450</ele>
        <time>2015-09-27T10:18:28Z</time>
      </trkpt>
      <trkpt lat="50.25072" lon="5.7439">
        <ele>450</ele>
        <time>2015-09-27T10:18:33Z</time>
      </trkpt>
      <trkpt lat="50.2507" lon="5.74382">
        <ele>451</ele>
        <time>2015-09-27T10:18:39Z</time>
      </trkpt>
      <trkpt lat="50.25068" lon="5.74375">
        <ele>451</ele>
        <time>2015-09-27T10:18:44Z</time>
      </trkpt>
      <trkpt lat="50.25066" lon="5.74366">
        <ele>451</ele>
        <time>2015-09-27T10:18:50Z</time>
      </trkpt>
      <trkpt lat="50.25064" lon="5.74359">
        <ele>452</ele>
        <time>2015-09-27T10:18:56Z</time>
      </trkpt>
      <trkpt lat="50.25062" lon="5.7435">
        <ele>452</ele>
        <time>2015-09-27T10:19:01Z</time>
      </trkpt>
      <trkpt lat="50.25061" lon="5.74342">
        <ele>452</ele>
        <time>2015-09-27T10:19:06Z</time>
      </trkpt>
      <trkpt lat="50.2506" lon="5.74335">
        <ele>453</ele>
        <time>2015-09-27T10:19:11Z</time>
      </trkpt>
      <trkpt lat="50.25058" lon="5.74326">
        <ele>453</ele>
        <time>2015-09-27T10:19:17Z</time>
      </trkpt>
      <trkpt lat="50.25056" lon="5.74319">
        <ele>453</ele>
        <time>2015-09-27T10:19:23Z</time>
      </trkpt>
      <trkpt lat="50.25054" lon="5.74311">
        <ele>453</ele>
        <time>2015-09-27T10:19:28Z</time>
      </trkpt>
      <trkpt lat="50.25052" lon="5.74304">
        <ele>453</ele>
        <time>2015-09-27T10:19:33Z</time>
      </trkpt>
      <trkpt lat="50.2505" lon="5.74296">
        <ele>454</ele>
        <time>2015-09-27T10:19:39Z</time>
      </trkpt>
      <trkpt lat="50.25048" lon="5.74289">
        <ele>454</ele>
        <time>2015-09-27T10:19:45Z</time>
      </trkpt>
      <trkpt lat="50.25047" lon="5.74283">
        <ele>455</ele>
        <time>2015-09-27T10:19:50Z</time>
      </trkpt>
      <trkpt lat="50.25046" lon="5.74276">
        <ele>455</ele>
        <time>2015-09-27T10:19:55Z</time>
      </trkpt>
      <trkpt lat="50.25044" lon="5.74269">
        <ele>456</ele>
        <time>2015-09-27T10:20:00Z</time>
      </trkpt>
      <trkpt lat="50.25042" lon="5.74262">
        <ele>456</ele>
        <time>2015-09-27T10:20:06Z</time>
      </trkpt>
      <trkpt lat="50.2504" lon="5.74256">
        <ele>456</ele>
        <time>2015-09-27T10:20:11Z</time>
      </trkpt>
      <trkpt lat="50.25039" lon="5.74251">
        <ele>457</ele>
        <time>2015-09-27T10:20:17Z</time>
      </trkpt>
      <trkpt lat="50.25037" lon="5.74244">
        <ele>456</ele>
        <time>2015-09-27T10:20:22Z</time>
      </trkpt>
      <trkpt lat="50.25037" lon="5.7424">
        <ele>456</ele>
        <time>2015-09-27T10:20:27Z</time>
      </trkpt>
      <trkpt lat="50.25035" lon="5.74235">
        <ele>457</ele>
        <time>2015-09-27T10:20:32Z</time>
      </trkpt>
      <trkpt lat="50.25034" lon="5.7423">
        <ele>457</ele>
        <time>2015-09-27T10:20:37Z</time>
      </trkpt>
      <trkpt lat="50.25032" lon="5.74223">
        <ele>458</ele>
        <time>2015-09-27T10:20:43Z</time>
      </trkpt>
      <trkpt lat="50.25031" lon="5.74219">
        <ele>458</ele>
        <time>2015-09-27T10:20:48Z</time>
      </trkpt>
      <trkpt lat="50.2503" lon="5.74214">
        <ele>458</ele>
        <time>2015-09-27T10:20:53Z</time>
      </trkpt>
      <trkpt lat="50.25029" lon="5.74209">
        <ele>458</ele>
        <time>2015-09-27T10:20:59Z</time>
      </trkpt>
      <trkpt lat="50.25027" lon="5.74206">
        <ele>459</ele>
        <time>2015-09-27T10:21:04Z</time>
      </trkpt>
      <trkpt lat="50.25026" lon="5.74203">
        <ele>458</ele>
        <time>2015-09-27T10:21:09Z</time>
      </trkpt>
      <trkpt lat="50.25024" lon="5.74198">
        <ele>458</ele>
        <time>2015-09-27T10:21:14Z</time>
      </trkpt>
      <trkpt lat="50.25023" lon="5.74192">
        <ele>458</ele>
        <time>2015-09-27T10:21:20Z</time>
      </trkpt>
      <trkpt lat="50.25022" lon="5.74188">
        <ele>459</ele>
        <time>2015-09-27T10:21:25Z</time>
      </trkpt>
      <trkpt lat="50.25022" lon="5.74187">
        <ele>460</ele>
        <time>2015-09-27T10:21:30Z</time>
      </trkpt>
      <trkpt lat="50.25021" lon="5.74184">
        <ele>460</ele>
        <time>2015-09-27T10:21:36Z</time>
      </trkpt>
      <trkpt lat="50.25019" lon="5.74182">
        <ele>459</ele>
        <time>2015-09-27T10:21:42Z</time>
      </trkpt>
      <trkpt lat="50.25019" lon="5.74181">
        <ele>460</ele>
        <time>2015-09-27T10:21:48Z</time>
      </trkpt>
      <trkpt lat="50.25018" lon="5.74178">
        <ele>460</ele>
        <time>2015-09-27T10:21:53Z</time>
      </trkpt>
      <trkpt lat="50.25016" lon="5.74171">
        <ele>460</ele>
        <time>2015-09-27T10:21:59Z</time>
      </trkpt>
      <trkpt lat="50.25015" lon="5.74165">
        <ele>461</ele>
        <time>2015-09-27T10:22:05Z</time>
      </trkpt>
      <trkpt lat="50.25013" lon="5.74157">
        <ele>461</ele>
        <time>2015-09-27T10:22:10Z</time>
      </trkpt>
      <trkpt lat="50.25012" lon="5.7415">
        <ele>461</ele>
        <time>2015-09-27T10:22:16Z</time>
      </trkpt>
      <trkpt lat="50.2501" lon="5.74145">
        <ele>461</ele>
        <time>2015-09-27T10:22:21Z</time>
      </trkpt>
      <trkpt lat="50.25009" lon="5.74139">
        <ele>462</ele>
        <time>2015-09-27T10:22:26Z</time>
      </trkpt>
      <trkpt lat="50.25008" lon="5.74132">
        <ele>462</ele>
        <time>2015-09-27T10:22:32Z</time>
      </trkpt>
      <trkpt lat="50.25006" lon="5.74127">
        <ele>462</ele>
        <time>2015-09-27T10:22:37Z</time>
      </trkpt>
      <trkpt lat="50.25005" lon="5.74121">
        <ele>462</ele>
        <time>2015-09-27T10:22:42Z</time>
      </trkpt>
      <trkpt lat="50.25003" lon="5.74114">
        <ele>463</ele>
        <time>2015-09-27T10:22:48Z</time>
      </trkpt>
      <trkpt lat="50.25001" lon="5.74108">
        <ele>464</ele>
        <time>2015-09-27T10:22:53Z</time>
      </trkpt>
      <trkpt lat="50.24999" lon="5.74103">
        <ele>464</ele>
        <time>2015-09-27T10:22:59Z</time>
      </trkpt>
      <trkpt lat="50.24997" lon="5.74095">
        <ele>464</ele>
        <time>2015-09-27T10:23:05Z</time>
      </trkpt>
      <trkpt lat="50.24994" lon="5.74088">
        <ele>464</ele>
        <time>2015-09-27T10:23:11Z</time>
      </trkpt>
      <trkpt lat="50.24992" lon="5.7408">
        <ele>465</ele>
        <time>2015-09-27T10:23:17Z</time>
      </trkpt>
      <trkpt lat="50.24991" lon="5.74075">
        <ele>465</ele>
        <time>2015-09-27T10:23:22Z</time>
      </trkpt>
      <trkpt lat="50.24989" lon="5.74068">
        <ele>466</ele>
        <time>2015-09-27T10:23:27Z</time>
      </trkpt>
      <trkpt lat="50.24987" lon="5.74061">
        <ele>466</ele>
        <time>2015-09-27T10:23:32Z</time>
      </trkpt>
      <trkpt lat="50.24986" lon="5.74053">
        <ele>467</ele>
        <time>2015-09-27T10:23:38Z</time>
      </trkpt>
      <trkpt lat="50.24984" lon="5.74047">
        <ele>467</ele>
        <time>2015-09-27T10:23:43Z</time>
      </trkpt>
      <trkpt lat="50.24982" lon="5.7404">
        <ele>467</ele>
        <time>2015-09-27T10:23:48Z</time>
      </trkpt>
      <trkpt lat="50.24979" lon="5.74033">
        <ele>467</ele>
        <time>2015-09-27T10:23:53Z</time>
      </trkpt>
      <trkpt lat="50.24976" lon="5.74024">
        <ele>468</ele>
        <time>2015-09-27T10:23:59Z</time>
      </trkpt>
      <trkpt lat="50.24975" lon="5.74018">
        <ele>469</ele>
        <time>2015-09-27T10:24:04Z</time>
      </trkpt>
      <trkpt lat="50.24973" lon="5.74012">
        <ele>469</ele>
        <time>2015-09-27T10:24:09Z</time>
      </trkpt>
      <trkpt lat="50.24971" lon="5.74005">
        <ele>470</ele>
        <time>2015-09-27T10:24:14Z</time>
      </trkpt>
      <trkpt lat="50.24968" lon="5.73997">
        <ele>470</ele>
        <time>2015-09-27T10:24:20Z</time>
      </trkpt>
      <trkpt lat="50.24967" lon="5.7399">
        <ele>470</ele>
        <time>2015-09-27T10:24:25Z</time>
      </trkpt>
      <trkpt lat="50.24969" lon="5.73984">
        <ele>470</ele>
        <time>2015-09-27T10:24:30Z</time>
      </trkpt>
      <trkpt lat="50.24973" lon="5.73978">
        <ele>470</ele>
        <time>2015-09-27T10:24:36Z</time>
      </trkpt>
      <trkpt lat="50.24975" lon="5.73973">
        <ele>470</ele>
        <time>2015-09-27T10:24:41Z</time>
      </trkpt>
      <trkpt lat="50.24977" lon="5.73968">
        <ele>470</ele>
        <time>2015-09-27T10:24:47Z</time>
      </trkpt>
      <trkpt lat="50.24977" lon="5.73966">
        <ele>470</ele>
        <time>2015-09-27T10:24:52Z</time>
      </trkpt>
      <trkpt lat="50.2498" lon="5.73963">
        <ele>470</ele>
        <time>2015-09-27T10:24:58Z</time>
      </trkpt>
      <trkpt lat="50.24984" lon="5.73961">
        <ele>469</ele>
        <time>2015-09-27T10:25:04Z</time>
      </trkpt>
      <trkpt lat="50.24986" lon="5.7396">
        <ele>469</ele>
        <time>2015-09-27T10:25:09Z</time>
      </trkpt>
      <trkpt lat="50.2499" lon="5.73958">
        <ele>469</ele>
        <time>2015-09-27T10:25:15Z</time>
      </trkpt>
      <trkpt lat="50.24993" lon="5.73956">
        <ele>469</ele>
        <time>2015-09-27T10:25:21Z</time>
      </trkpt>
      <trkpt lat="50.24995" lon="5.73957">
        <ele>469</ele>
        <time>2015-09-27T10:25:27Z</time>
      </trkpt>
      <trkpt lat="50.24998" lon="5.73956">
        <ele>469</ele>
        <time>2015-09-27T10:25:33Z</time>
      </trkpt>
      <trkpt lat="50.24999" lon="5.73954">
        <ele>469</ele>
        <time>2015-09-27T10:25:38Z</time>
      </trkpt>
      <trkpt lat="50.25002" lon="5.73953">
        <ele>469</ele>
        <time>2015-09-27T10:25:43Z</time>
      </trkpt>
      <trkpt lat="50.25005" lon="5.73952">
        <ele>469</ele>
        <time>2015-09-27T10:25:48Z</time>
      </trkpt>
      <trkpt lat="50.25008" lon="5.73949">
        <ele>468</ele>
        <time>2015-09-27T10:25:53Z</time>
      </trkpt>
      <trkpt lat="50.25009" lon="5.73945">
        <ele>469</ele>
        <time>2015-09-27T10:25:59Z</time>
      </trkpt>
      <trkpt lat="50.25011" lon="5.73941">
        <ele>469</ele>
        <time>2015-09-27T10:26:04Z</time>
      </trkpt>
      <trkpt lat="50.25011" lon="5.73939">
        <ele>469</ele>
        <time>2015-09-27T10:26:09Z</time>
      </trkpt>
      <trkpt lat="50.25013" lon="5.73938">
        <ele>469</ele>
        <time>2015-09-27T10:26:14Z</time>
      </trkpt>
      <trkpt lat="50.25015" lon="5.73937">
        <ele>468</ele>
        <time>2015-09-27T10:26:20Z</time>
      </trkpt>
      <trkpt lat="50.25018" lon="5.73935">
        <ele>469</ele>
        <time>2015-09-27T10:26:25Z</time>
      </trkpt>
      <trkpt lat="50.25019" lon="5.73933">
        <ele>469</ele>
        <time>2015-09-27T10:26:30Z</time>
      </trkpt>
      <trkpt lat="50.25021" lon="5.7393">
        <ele>469</ele>
        <time>2015-09-27T10:26:36Z</time>
      </trkpt>
      <trkpt lat="50.25023" lon="5.73927">
        <ele>469</ele>
        <time>2015-09-27T10:26:41Z</time>
      </trkpt>
      <trkpt lat="50.25024" lon="5.73926">
        <ele>469</ele>
        <time>2015-09-27T10:26:47Z</time>
      </trkpt>
      <trkpt lat="50.25026" lon="5.73924">
        <ele>468</ele>
        <time>2015-09-27T10:26:53Z</time>
      </trkpt>
      <trkpt lat="50.25027" lon="5.73924">
        <ele>469</ele>
        <time>2015-09-27T10:26:58Z</time>
      </trkpt>
      <trkpt lat="50.25029" lon="5.73924">
        <ele>469</ele>
        <time>2015-09-27T10:27:03Z</time>
      </trkpt>
      <trkpt lat="50.25031" lon="5.73921">
        <ele>469</ele>
        <time>2015-09-27T10:27:09Z</time>
      </trkpt>
      <trkpt lat="50.25032" lon="5.73917">
        <ele>469</ele>
        <time>2015-09-27T10:27:14Z</time>
      </trkpt>
      <trkpt lat="50.25034" lon="5.73913">
        <ele>468</ele>
        <time>2015-09-27T10:27:20Z</time>
      </trkpt>
      <trkpt lat="50.25035" lon="5.73909">
        <ele>469</ele>
        <time>2015-09-27T10:27:26Z</time>
      </trkpt>
      <trkpt lat="50.25036" lon="5.73905">
        <ele>469</ele>
        <time>2015-09-27T10:27:32Z</time>
      </trkpt>
      <trkpt lat="50.25037" lon="5.73902">
        <ele>469</ele>
        <time>2015-09-27T10:27:37Z</time>
      </trkpt>
      <trkpt lat="50.25037" lon="5.73901">
        <ele>469</ele>
        <time>2015-09-27T10:27:45Z</time>
      </trkpt>
      <trkpt lat="50.25038" lon="5.73901">
        <ele>469</ele>
        <time>2015-09-27T10:27:50Z</time>
      </trkpt>
      <trkpt lat="50.25039" lon="5.73901">
        <ele>469</ele>
        <time>2015-09-27T10:27:55Z</time>
      </trkpt>
      <trkpt lat="50.25041" lon="5.73899">
        <ele>469</ele>
        <time>2015-09-27T10:28:00Z</time>
      </trkpt>
      <trkpt lat="50.25043" lon="5.73897">
        <ele>469</ele>
        <time>2015-09-27T10:28:06Z</time>
      </trkpt>
      <trkpt lat="50.25045" lon="5.73894">
        <ele>469</ele>
        <time>2015-09-27T10:28:11Z</time>
      </trkpt>
      <trkpt lat="50.25047" lon="5.73889">
        <ele>468</ele>
        <time>2015-09-27T10:28:17Z</time>
      </trkpt>
      <trkpt lat="50.2505" lon="5.73885">
        <ele>468</ele>
        <time>2015-09-27T10:28:23Z</time>
      </trkpt>
      <trkpt lat="50.25053" lon="5.73882">
        <ele>469</ele>
        <time>2015-09-27T10:28:29Z</time>
      </trkpt>
      <trkpt lat="50.25055" lon="5.73878">
        <ele>469</ele>
        <time>2015-09-27T10:28:35Z</time>
      </trkpt>
      <trkpt lat="50.25058" lon="5.73874">
        <ele>469</ele>
        <time>2015-09-27T10:28:40Z</time>
      </trkpt>
      <trkpt lat="50.25059" lon="5.73871">
        <ele>469</ele>
        <time>2015-09-27T10:28:45Z</time>
      </trkpt>
      <trkpt lat="50.25062" lon="5.73866">
        <ele>468</ele>
        <time>2015-09-27T10:28:51Z</time>
      </trkpt>
      <trkpt lat="50.25063" lon="5.73863">
        <ele>468</ele>
        <time>2015-09-27T10:28:56Z</time>
      </trkpt>
      <trkpt lat="50.25066" lon="5.7386">
        <ele>468</ele>
        <time>2015-09-27T10:29:01Z</time>
      </trkpt>
      <trkpt lat="50.25067" lon="5.73858">
        <ele>468</ele>
        <time>2015-09-27T10:29:07Z</time>
      </trkpt>
      <trkpt lat="50.25068" lon="5.73855">
        <ele>468</ele>
        <time>2015-09-27T10:29:12Z</time>
      </trkpt>
      <trkpt lat="50.25071" lon="5.73853">
        <ele>469</ele>
        <time>2015-09-27T10:29:18Z</time>
      </trkpt>
      <trkpt lat="50.25074" lon="5.73851">
        <ele>469</ele>
        <time>2015-09-27T10:29:24Z</time>
      </trkpt>
      <trkpt lat="50.25077" lon="5.73849">
        <ele>468</ele>
        <time>2015-09-27T10:29:30Z</time>
      </trkpt>
      <trkpt lat="50.25078" lon="5.73848">
        <ele>468</ele>
        <time>2015-09-27T10:29:36Z</time>
      </trkpt>
      <trkpt lat="50.2508" lon="5.73845">
        <ele>468</ele>
        <time>2015-09-27T10:29:41Z</time>
      </trkpt>
      <trkpt lat="50.25081" lon="5.73845">
        <ele>468</ele>
        <time>2015-09-27T10:29:46Z</time>
      </trkpt>
      <trkpt lat="50.25082" lon="5.73846">
        <ele>468</ele>
        <time>2015-09-27T10:29:51Z</time>
      </trkpt>
      <trkpt lat="50.25082" lon="5.73848">
        <ele>468</ele>
        <time>2015-09-27T10:29:57Z</time>
      </trkpt>
      <trkpt lat="50.25083" lon="5.73849">
        <ele>468</ele>
        <time>2015-09-27T10:30:02Z</time>
      </trkpt>
      <trkpt lat="50.25084" lon="5.73851">
        <ele>468</ele>
        <time>2015-09-27T10:30:08Z</time>
      </trkpt>
      <trkpt lat="50.25085" lon="5.73853">
        <ele>468</ele>
        <time>2015-09-27T10:30:13Z</time>
      </trkpt>
      <trkpt lat="50.25087" lon="5.7385">
        <ele>468</ele>
        <time>2015-09-27T10:30:19Z</time>
      </trkpt>
      <trkpt lat="50.25088" lon="5.73847">
        <ele>468</ele>
        <time>2015-09-27T10:30:24Z</time>
      </trkpt>
      <trkpt lat="50.25089" lon="5.73842">
        <ele>468</ele>
        <time>2015-09-27T10:30:30Z</time>
      </trkpt>
      <trkpt lat="50.25091" lon="5.73836">
        <ele>468</ele>
        <time>2015-09-27T10:30:36Z</time>
      </trkpt>
      <trkpt lat="50.25092" lon="5.73832">
        <ele>468</ele>
        <time>2015-09-27T10:30:41Z</time>
      </trkpt>
      <trkpt lat="50.25094" lon="5.73829">
        <ele>468</ele>
        <time>2015-09-27T10:30:47Z</time>
      </trkpt>
      <trkpt lat="50.25096" lon="5.73831">
        <ele>467</ele>
        <time>2015-09-27T10:30:53Z</time>
      </trkpt>
      <trkpt lat="50.25099" lon="5.73831">
        <ele>467</ele>
        <time>2015-09-27T10:30:58Z</time>
      </trkpt>
      <trkpt lat="50.25102" lon="5.73832">
        <ele>467</ele>
        <time>2015-09-27T10:31:03Z</time>
      </trkpt>
      <trkpt lat="50.25105" lon="5.73828">
        <ele>467</ele>
        <time>2015-09-27T10:31:09Z</time>
      </trkpt>
      <trkpt lat="50.25106" lon="5.73824">
        <ele>467</ele>
        <time>2015-09-27T10:31:15Z</time>
      </trkpt>
      <trkpt lat="50.25106" lon="5.73819">
        <ele>467</ele>
        <time>2015-09-27T10:31:20Z</time>
      </trkpt>
      <trkpt lat="50.25108" lon="5.73814">
        <ele>467</ele>
        <time>2015-09-27T10:31:26Z</time>
      </trkpt>
      <trkpt lat="50.25109" lon="5.73808">
        <ele>467</ele>
        <time>2015-09-27T10:31:31Z</time>
      </trkpt>
      <trkpt lat="50.25111" lon="5.73803">
        <ele>466</ele>
        <time>2015-09-27T10:31:36Z</time>
      </trkpt>
      <trkpt lat="50.25111" lon="5.738">
        <ele>467</ele>
        <time>2015-09-27T10:31:41Z</time>
      </trkpt>
      <trkpt lat="50.25113" lon="5.73794">
        <ele>467</ele>
        <time>2015-09-27T10:31:47Z</time>
      </trkpt>
      <trkpt lat="50.25114" lon="5.7379">
        <ele>467</ele>
        <time>2015-09-27T10:31:52Z</time>
      </trkpt>
      <trkpt lat="50.25113" lon="5.73786">
        <ele>467</ele>
        <time>2015-09-27T10:31:58Z</time>
      </trkpt>
      <trkpt lat="50.25114" lon="5.73782">
        <ele>466</ele>
        <time>2015-09-27T10:32:04Z</time>
      </trkpt>
      <trkpt lat="50.25116" lon="5.73778">
        <ele>466</ele>
        <time>2015-09-27T10:32:09Z</time>
      </trkpt>
      <trkpt lat="50.25117" lon="5.73775">
        <ele>466</ele>
        <time>2015-09-27T10:32:14Z</time>
      </trkpt>
      <trkpt lat="50.25116" lon="5.73773">
        <ele>467</ele>
        <time>2015-09-27T10:32:20Z</time>
      </trkpt>
      <trkpt lat="50.25119" lon="5.73771">
        <ele>466</ele>
        <time>2015-09-27T10:32:25Z</time>
      </trkpt>
      <trkpt lat="50.25122" lon="5.73771">
        <ele>466</ele>
        <time>2015-09-27T10:32:30Z</time>
      </trkpt>
      <trkpt lat="50.25127" lon="5.7377">
        <ele>466</ele>
        <time>2015-09-27T10:32:36Z</time>
      </trkpt>
      <trkpt lat="50.25129" lon="5.73769">
        <ele>465</ele>
        <time>2015-09-27T10:32:41Z</time>
      </trkpt>
      <trkpt lat="50.25131" lon="5.73767">
        <ele>465</ele>
        <time>2015-09-27T10:32:46Z</time>
      </trkpt>
      <trkpt lat="50.25134" lon="5.73766">
        <ele>465</ele>
        <time>2015-09-27T10:32:51Z</time>
      </trkpt>
      <trkpt lat="50.25138" lon="5.73764">
        <ele>465</ele>
        <time>2015-09-27T10:32:57Z</time>
      </trkpt>
      <trkpt lat="50.25141" lon="5.73762">
        <ele>464</ele>
        <time>2015-09-27T10:33:02Z</time>
      </trkpt>
      <trkpt lat="50.25147" lon="5.73759">
        <ele>464</ele>
        <time>2015-09-27T10:33:08Z</time>
      </trkpt>
      <trkpt lat="50.25153" lon="5.73756">
        <ele>464</ele>
        <time>2015-09-27T10:33:14Z</time>
      </trkpt>
      <trkpt lat="50.25158" lon="5.73752">
        <ele>464</ele>
        <time>2015-09-27T10:33:19Z</time>
      </trkpt>
      <trkpt lat="50.25163" lon="5.73747">
        <ele>464</ele>
        <time>2015-09-27T10:33:25Z</time>
      </trkpt>
      <trkpt lat="50.25167" lon="5.73742">
        <ele>464</ele>
        <time>2015-09-27T10:33:30Z</time>
      </trkpt>
      <trkpt lat="50.25172" lon="5.73735">
        <ele>464</ele>
        <time>2015-09-27T10:33:36Z</time>
      </trkpt>
      <trkpt lat="50.25175" lon="5.73729">
        <ele>464</ele>
        <time>2015-09-27T10:33:42Z</time>
      </trkpt>
      <trkpt lat="50.25179" lon="5.73724">
        <ele>463</ele>
        <time>2015-09-27T10:33:48Z</time>
      </trkpt>
      <trkpt lat="50.25181" lon="5.73721">
        <ele>464</ele>
        <time>2015-09-27T10:33:53Z</time>
      </trkpt>
      <trkpt lat="50.25184" lon="5.73716">
        <ele>463</ele>
        <time>2015-09-27T10:33:59Z</time>
      </trkpt>
      <trkpt lat="50.25186" lon="5.73709">
        <ele>464</ele>
        <time>2015-09-27T10:34:05Z</time>
      </trkpt>
      <trkpt lat="50.25189" lon="5.73705">
        <ele>464</ele>
        <time>2015-09-27T10:34:10Z</time>
      </trkpt>
      <trkpt lat="50.25192" lon="5.73701">
        <ele>464</ele>
        <time>2015-09-27T10:34:16Z</time>
      </trkpt>
      <trkpt lat="50.25196" lon="5.737">
        <ele>463</ele>
        <time>2015-09-27T10:34:21Z</time>
      </trkpt>
      <trkpt lat="50.25201" lon="5.73697">
        <ele>464</ele>
        <time>2015-09-27T10:34:27Z</time>
      </trkpt>
      <trkpt lat="50.25206" lon="5.73693">
        <ele>463</ele>
        <time>2015-09-27T10:34:32Z</time>
      </trkpt>
      <trkpt lat="50.25209" lon="5.7369">
        <ele>463</ele>
        <time>2015-09-27T10:34:37Z</time>
      </trkpt>
      <trkpt lat="50.25212" lon="5.73687">
        <ele>463</ele>
        <time>2015-09-27T10:34:42Z</time>
      </trkpt>
      <trkpt lat="50.25216" lon="5.73682">
        <ele>463</ele>
        <time>2015-09-27T10:34:48Z</time>
      </trkpt>
      <trkpt lat="50.2522" lon="5.73679">
        <ele>463</ele>
        <time>2015-09-27T10:34:53Z</time>
      </trkpt>
      <trkpt lat="50.25224" lon="5.73676">
        <ele>463</ele>
        <time>2015-09-27T10:34:59Z</time>
      </trkpt>
      <trkpt lat="50.25228" lon="5.73673">
        <ele>463</ele>
        <time>2015-09-27T10:35:04Z</time>
      </trkpt>
      <trkpt lat="50.25231" lon="5.7367">
        <ele>463</ele>
        <time>2015-09-27T10:35:09Z</time>
      </trkpt>
      <trkpt lat="50.25233" lon="5.73666">
        <ele>463</ele>
        <time>2015-09-27T10:35:15Z</time>
      </trkpt>
      <trkpt lat="50.25235" lon="5.73664">
        <ele>463</ele>
        <time>2015-09-27T10:35:20Z</time>
      </trkpt>
      <trkpt lat="50.2524" lon="5.73661">
        <ele>463</ele>
        <time>2015-09-27T10:35:26Z</time>
      </trkpt>
      <trkpt lat="50.25244" lon="5.73659">
        <ele>463</ele>
        <time>2015-09-27T10:35:31Z</time>
      </trkpt>
      <trkpt lat="50.25248" lon="5.73655">
        <ele>462</ele>
        <time>2015-09-27T10:35:37Z</time>
      </trkpt>
      <trkpt lat="50.25253" lon="5.73651">
        <ele>463</ele>
        <time>2015-09-27T10:35:43Z</time>
      </trkpt>
      <trkpt lat="50.25256" lon="5.73648">
        <ele>463</ele>
        <time>2015-09-27T10:35:48Z</time>
      </trkpt>
      <trkpt lat="50.25258" lon="5.73644">
        <ele>463</ele>
        <time>2015-09-27T10:35:53Z</time>
      </trkpt>
      <trkpt lat="50.25259" lon="5.73641">
        <ele>463</ele>
        <time>2015-09-27T10:35:59Z</time>
      </trkpt>
      <trkpt lat="50.25261" lon="5.73639">
        <ele>463</ele>
        <time>2015-09-27T10:36:04Z</time>
      </trkpt>
      <trkpt lat="50.25262" lon="5.73637">
        <ele>462</ele>
        <time>2015-09-27T10:36:10Z</time>
      </trkpt>
      <trkpt lat="50.25265" lon="5.73634">
        <ele>462</ele>
        <time>2015-09-27T10:36:15Z</time>
      </trkpt>
      <trkpt lat="50.25268" lon="5.73631">
        <ele>463</ele>
        <time>2015-09-27T10:36:21Z</time>
      </trkpt>
      <trkpt lat="50.2527" lon="5.73628">
        <ele>463</ele>
        <time>2015-09-27T10:36:27Z</time>
      </trkpt>
      <trkpt lat="50.25273" lon="5.73625">
        <ele>463</ele>
        <time>2015-09-27T10:36:32Z</time>
      </trkpt>
      <trkpt lat="50.25275" lon="5.73623">
        <ele>463</ele>
        <time>2015-09-27T10:36:37Z</time>
      </trkpt>
      <trkpt lat="50.25278" lon="5.7362">
        <ele>463</ele>
        <time>2015-09-27T10:36:43Z</time>
      </trkpt>
      <trkpt lat="50.25282" lon="5.73618">
        <ele>463</ele>
        <time>2015-09-27T10:36:48Z</time>
      </trkpt>
      <trkpt lat="50.25284" lon="5.73614">
        <ele>463</ele>
        <time>2015-09-27T10:36:54Z</time>
      </trkpt>
      <trkpt lat="50.25287" lon="5.73611">
        <ele>462</ele>
        <time>2015-09-27T10:36:59Z</time>
      </trkpt>
      <trkpt lat="50.2529" lon="5.73608">
        <ele>463</ele>
        <time>2015-09-27T10:37:05Z</time>
      </trkpt>
      <trkpt lat="50.25294" lon="5.73605">
        <ele>463</ele>
        <time>2015-09-27T10:37:11Z</time>
      </trkpt>
      <trkpt lat="50.25298" lon="5.73603">
        <ele>463</ele>
        <time>2015-09-27T10:37:16Z</time>
      </trkpt>
      <trkpt lat="50.25301" lon="5.73599">
        <ele>463</ele>
        <time>2015-09-27T10:37:21Z</time>
      </trkpt>
      <trkpt lat="50.25301" lon="5.73593">
        <ele>463</ele>
        <time>2015-09-27T10:37:27Z</time>
      </trkpt>
      <trkpt lat="50.25302" lon="5.73586">
        <ele>464</ele>
        <time>2015-09-27T10:37:33Z</time>
      </trkpt>
      <trkpt lat="50.25303" lon="5.73583">
        <ele>464</ele>
        <time>2015-09-27T10:37:39Z</time>
      </trkpt>
      <trkpt lat="50.25305" lon="5.73583">
        <ele>463</ele>
        <time>2015-09-27T10:37:45Z</time>
      </trkpt>
      <trkpt lat="50.25309" lon="5.73583">
        <ele>463</ele>
        <time>2015-09-27T10:37:51Z</time>
      </trkpt>
      <trkpt lat="50.25313" lon="5.73584">
        <ele>463</ele>
        <time>2015-09-27T10:37:56Z</time>
      </trkpt>
      <trkpt lat="50.25317" lon="5.73582">
        <ele>462</ele>
        <time>2015-09-27T10:38:01Z</time>
      </trkpt>
      <trkpt lat="50.25321" lon="5.73577">
        <ele>463</ele>
        <time>2015-09-27T10:38:07Z</time>
      </trkpt>
      <trkpt lat="50.25324" lon="5.73573">
        <ele>462</ele>
        <time>2015-09-27T10:38:13Z</time>
      </trkpt>
      <trkpt lat="50.25325" lon="5.7357">
        <ele>462</ele>
        <time>2015-09-27T10:38:18Z</time>
      </trkpt>
      <trkpt lat="50.25323" lon="5.73567">
        <ele>463</ele>
        <time>2015-09-27T10:38:24Z</time>
      </trkpt>
      <trkpt lat="50.2532" lon="5.73567">
        <ele>464</ele>
        <time>2015-09-27T10:38:29Z</time>
      </trkpt>
      <trkpt lat="50.25318" lon="5.73568">
        <ele>464</ele>
        <time>2015-09-27T10:38:34Z</time>
      </trkpt>
      <trkpt lat="50.25316" lon="5.7357">
        <ele>464</ele>
        <time>2015-09-27T10:38:40Z</time>
      </trkpt>
      <trkpt lat="50.25315" lon="5.73571">
        <ele>464</ele>
        <time>2015-09-27T10:38:46Z</time>
      </trkpt>
      <trkpt lat="50.25316" lon="5.73569">
        <ele>464</ele>
        <time>2015-09-27T10:38:51Z</time>
      </trkpt>
      <trkpt lat="50.25317" lon="5.73565">
        <ele>464</ele>
        <time>2015-09-27T10:38:57Z</time>
      </trkpt>
      <trkpt lat="50.25318" lon="5.73561">
        <ele>464</ele>
        <time>2015-09-27T10:39:03Z</time>
      </trkpt>
      <trkpt lat="50.25317" lon="5.73561">
        <ele>464</ele>
        <time>2015-09-27T10:39:09Z</time>
      </trkpt>
      <trkpt lat="50.25317" lon="5.73561">
        <ele>464</ele>
        <time>2015-09-27T10:39:15Z</time>
      </trkpt>
      <trkpt lat="50.25317" lon="5.73561">
        <ele>464</ele>
        <time>2015-09-27T10:39:20Z</time>
      </trkpt>
      <trkpt lat="50.25318" lon="5.73559">
        <ele>465</ele>
        <time>2015-09-27T10:39:25Z</time>
      </trkpt>
      <trkpt lat="50.25317" lon="5.73558">
        <ele>465</ele>
        <time>2015-09-27T10:39:32Z</time>
      </trkpt>
      <trkpt lat="50.25315" lon="5.73558">
        <ele>465</ele>
        <time>2015-09-27T10:39:38Z</time>
      </trkpt>
      <trkpt lat="50.25315" lon="5.73559">
        <ele>465</ele>
        <time>2015-09-27T10:39:43Z</time>
      </trkpt>
      <trkpt lat="50.25317" lon="5.73561">
        <ele>464</ele>
        <time>2015-09-27T10:39:49Z</time>
      </trkpt>
      <trkpt lat="50.25317" lon="5.73561">
        <ele>464</ele>
        <time>2015-09-27T10:39:54Z</time>
      </trkpt>
      <trkpt lat="50.25318" lon="5.73561">
        <ele>464</ele>
        <time>2015-09-27T10:39:59Z</time>
      </trkpt>
      <trkpt lat="50.25318" lon="5.73562">
        <ele>464</ele>
        <time>2015-09-27T10:40:05Z</time>
      </trkpt>
      <trkpt lat="50.25318" lon="5.73564">
        <ele>464</ele>
        <time>2015-09-27T10:40:10Z</time>
      </trkpt>
      <trkpt lat="50.25317" lon="5.73565">
        <ele>464</ele>
        <time>2015-09-27T10:40:15Z</time>
      </trkpt>
      <trkpt lat="50.25317" lon="5.73567">
        <ele>464</ele>
        <time>2015-09-27T10:40:21Z</time>
      </trkpt>
      <trkpt lat="50.25316" lon="5.73569">
        <ele>464</ele>
        <time>2015-09-27T10:40:26Z</time>
      </trkpt>
      <trkpt lat="50.25317" lon="5.73571">
        <ele>464</ele>
        <time>2015-09-27T10:40:31Z</time>
      </trkpt>
      <trkpt lat="50.2532" lon="5.73573">
        <ele>464</ele>
        <time>2015-09-27T10:40:37Z</time>
      </trkpt>
      <trkpt lat="50.25324" lon="5.73574">
        <ele>464</ele>
        <time>2015-09-27T10:40:42Z</time>
      </trkpt>
      <trkpt lat="50.25328" lon="5.73576">
        <ele>463</ele>
        <time>2015-09-27T10:40:48Z</time>
      </trkpt>
      <trkpt lat="50.25331" lon="5.73576">
        <ele>462</ele>
        <time>2015-09-27T10:40:54Z</time>
      </trkpt>
      <trkpt lat="50.25333" lon="5.73572">
        <ele>463</ele>
        <time>2015-09-27T10:41:00Z</time>
      </trkpt>
      <trkpt lat="50.25333" lon="5.73568">
        <ele>463</ele>
        <time>2015-09-27T10:41:06Z</time>
      </trkpt>
      <trkpt lat="50.25333" lon="5.73563">
        <ele>463</ele>
        <time>2015-09-27T10:41:11Z</time>
      </trkpt>
      <trkpt lat="50.25334" lon="5.73559">
        <ele>463</ele>
        <time>2015-09-27T10:41:17Z</time>
      </trkpt>
      <trkpt lat="50.25334" lon="5.73554">
        <ele>464</ele>
        <time>2015-09-27T10:41:22Z</time>
      </trkpt>
      <trkpt lat="50.25334" lon="5.73547">
        <ele>464</ele>
        <time>2015-09-27T10:41:28Z</time>
      </trkpt>
      <trkpt lat="50.25335" lon="5.73541">
        <ele>464</ele>
        <time>2015-09-27T10:41:34Z</time>
      </trkpt>
      <trkpt lat="50.25336" lon="5.73536">
        <ele>464</ele>
        <time>2015-09-27T10:41:39Z</time>
      </trkpt>
      <trkpt lat="50.25338" lon="5.73529">
        <ele>465</ele>
        <time>2015-09-27T10:41:45Z</time>
      </trkpt>
      <trkpt lat="50.25338" lon="5.73521">
        <ele>466</ele>
        <time>2015-09-27T10:41:51Z</time>
      </trkpt>
      <trkpt lat="50.25337" lon="5.73514">
        <ele>466</ele>
        <time>2015-09-27T10:41:57Z</time>
      </trkpt>
      <trkpt lat="50.25336" lon="5.73507">
        <ele>466</ele>
        <time>2015-09-27T10:42:03Z</time>
      </trkpt>
      <trkpt lat="50.25335" lon="5.73502">
        <ele>466</ele>
        <time>2015-09-27T10:42:08Z</time>
      </trkpt>
      <trkpt lat="50.25333" lon="5.73496">
        <ele>467</ele>
        <time>2015-09-27T10:42:14Z</time>
      </trkpt>
      <trkpt lat="50.2533" lon="5.7349">
        <ele>468</ele>
        <time>2015-09-27T10:42:20Z</time>
      </trkpt>
      <trkpt lat="50.25329" lon="5.73485">
        <ele>468</ele>
        <time>2015-09-27T10:42:25Z</time>
      </trkpt>
      <trkpt lat="50.25326" lon="5.73479">
        <ele>468</ele>
        <time>2015-09-27T10:42:31Z</time>
      </trkpt>
      <trkpt lat="50.25323" lon="5.73477">
        <ele>469</ele>
        <time>2015-09-27T10:42:36Z</time>
      </trkpt>
      <trkpt lat="50.25321" lon="5.73473">
        <ele>468</ele>
        <time>2015-09-27T10:42:42Z</time>
      </trkpt>
      <trkpt lat="50.2532" lon="5.73469">
        <ele>469</ele>
        <time>2015-09-27T10:42:47Z</time>
      </trkpt>
      <trkpt lat="50.25317" lon="5.73465">
        <ele>469</ele>
        <time>2015-09-27T10:42:52Z</time>
      </trkpt>
      <trkpt lat="50.25315" lon="5.73459">
        <ele>469</ele>
        <time>2015-09-27T10:42:57Z</time>
      </trkpt>
      <trkpt lat="50.25311" lon="5.73452">
        <ele>470</ele>
        <time>2015-09-27T10:43:03Z</time>
      </trkpt>
      <trkpt lat="50.25308" lon="5.73445">
        <ele>470</ele>
        <time>2015-09-27T10:43:09Z</time>
      </trkpt>
      <trkpt lat="50.25304" lon="5.73439">
        <ele>470</ele>
        <time>2015-09-27T10:43:15Z</time>
      </trkpt>
      <trkpt lat="50.25303" lon="5.73434">
        <ele>471</ele>
        <time>2015-09-27T10:43:20Z</time>
      </trkpt>
      <trkpt lat="50.25301" lon="5.73427">
        <ele>471</ele>
        <time>2015-09-27T10:43:26Z</time>
      </trkpt>
      <trkpt lat="50.25297" lon="5.73423">
        <ele>472</ele>
        <time>2015-09-27T10:43:31Z</time>
      </trkpt>
      <trkpt lat="50.25294" lon="5.73417">
        <ele>472</ele>
        <time>2015-09-27T10:43:37Z</time>
      </trkpt>
      <trkpt lat="50.25292" lon="5.73411">
        <ele>473</ele>
        <time>2015-09-27T10:43:43Z</time>
      </trkpt>
      <trkpt lat="50.2529" lon="5.73406">
        <ele>473</ele>
        <time>2015-09-27T10:43:48Z</time>
      </trkpt>
      <trkpt lat="50.25288" lon="5.734">
        <ele>474</ele>
        <time>2015-09-27T10:43:54Z</time>
      </trkpt>
      <trkpt lat="50.25285" lon="5.73393">
        <ele>474</ele>
        <time>2015-09-27T10:43:59Z</time>
      </trkpt>
      <trkpt lat="50.25282" lon="5.73386">
        <ele>474</ele>
        <time>2015-09-27T10:44:05Z</time>
      </trkpt>
      <trkpt lat="50.2528" lon="5.7338">
        <ele>475</ele>
        <time>2015-09-27T10:44:10Z</time>
      </trkpt>
      <trkpt lat="50.25278" lon="5.73372">
        <ele>475</ele>
        <time>2015-09-27T10:44:16Z</time>
      </trkpt>
      <trkpt lat="50.25276" lon="5.73366">
        <ele>475</ele>
        <time>2015-09-27T10:44:21Z</time>
      </trkpt>
      <trkpt lat="50.25274" lon="5.73361">
        <ele>475</ele>
        <time>2015-09-27T10:44:26Z</time>
      </trkpt>
      <trkpt lat="50.2527" lon="5.73356">
        <ele>475</ele>
        <time>2015-09-27T10:44:31Z</time>
      </trkpt>
      <trkpt lat="50.25269" lon="5.73352">
        <ele>475</ele>
        <time>2015-09-27T10:44:36Z</time>
      </trkpt>
      <trkpt lat="50.25269" lon="5.73348">
        <ele>476</ele>
        <time>2015-09-27T10:44:42Z</time>
      </trkpt>
      <trkpt lat="50.25268" lon="5.73345">
        <ele>476</ele>
        <time>2015-09-27T10:44:48Z</time>
      </trkpt>
      <trkpt lat="50.25267" lon="5.73342">
        <ele>475</ele>
        <time>2015-09-27T10:44:53Z</time>
      </trkpt>
      <trkpt lat="50.25267" lon="5.73338">
        <ele>475</ele>
        <time>2015-09-27T10:44:59Z</time>
      </trkpt>
      <trkpt lat="50.25267" lon="5.73335">
        <ele>475</ele>
        <time>2015-09-27T10:45:05Z</time>
      </trkpt>
      <trkpt lat="50.25268" lon="5.73333">
        <ele>475</ele>
        <time>2015-09-27T10:45:11Z</time>
      </trkpt>
      <trkpt lat="50.25269" lon="5.73333">
        <ele>475</ele>
        <time>2015-09-27T10:45:16Z</time>
      </trkpt>
      <trkpt lat="50.25268" lon="5.73333">
        <ele>475</ele>
        <time>2015-09-27T10:45:22Z</time>
      </trkpt>
      <trkpt lat="50.25266" lon="5.73332">
        <ele>475</ele>
        <time>2015-09-27T10:45:27Z</time>
      </trkpt>
      <trkpt lat="50.25262" lon="5.73331">
        <ele>476</ele>
        <time>2015-09-27T10:45:33Z</time>
      </trkpt>
      <trkpt lat="50.25258" lon="5.73329">
        <ele>476</ele>
        <time>2015-09-27T10:45:39Z</time>
      </trkpt>
      <trkpt lat="50.25256" lon="5.73326">
        <ele>476</ele>
        <time>2015-09-27T10:45:44Z</time>
      </trkpt>
      <trkpt lat="50.25258" lon="5.73322">
        <ele>476</ele>
        <time>2015-09-27T10:45:50Z</time>
      </trkpt>
      <trkpt lat="50.2526" lon="5.73317">
        <ele>475</ele>
        <time>2015-09-27T10:45:56Z</time>
      </trkpt>
      <trkpt lat="50.25263" lon="5.73312">
        <ele>476</ele>
        <time>2015-09-27T10:46:01Z</time>
      </trkpt>
      <trkpt lat="50.25265" lon="5.73306">
        <ele>476</ele>
        <time>2015-09-27T10:46:07Z</time>
      </trkpt>
      <trkpt lat="50.25267" lon="5.73302">
        <ele>476</ele>
        <time>2015-09-27T10:46:13Z</time>
      </trkpt>
      <trkpt lat="50.25268" lon="5.73297">
        <ele>476</ele>
        <time>2015-09-27T10:46:18Z</time>
      </trkpt>
      <trkpt lat="50.25271" lon="5.73293">
        <ele>476</ele>
        <time>2015-09-27T10:46:23Z</time>
      </trkpt>
      <trkpt lat="50.25272" lon="5.73287">
        <ele>476</ele>
        <time>2015-09-27T10:46:28Z</time>
      </trkpt>
      <trkpt lat="50.25276" lon="5.7328">
        <ele>476</ele>
        <time>2015-09-27T10:46:34Z</time>
      </trkpt>
      <trkpt lat="50.25277" lon="5.73276">
        <ele>476</ele>
        <time>2015-09-27T10:46:39Z</time>
      </trkpt>
      <trkpt lat="50.25278" lon="5.73272">
        <ele>476</ele>
        <time>2015-09-27T10:46:44Z</time>
      </trkpt>
      <trkpt lat="50.25282" lon="5.73269">
        <ele>476</ele>
        <time>2015-09-27T10:46:50Z</time>
      </trkpt>
      <trkpt lat="50.25286" lon="5.73265">
        <ele>476</ele>
        <time>2015-09-27T10:46:55Z</time>
      </trkpt>
      <trkpt lat="50.25291" lon="5.73264">
        <ele>476</ele>
        <time>2015-09-27T10:47:00Z</time>
      </trkpt>
      <trkpt lat="50.25296" lon="5.73259">
        <ele>476</ele>
        <time>2015-09-27T10:47:06Z</time>
      </trkpt>
      <trkpt lat="50.25303" lon="5.73256">
        <ele>476</ele>
        <time>2015-09-27T10:47:11Z</time>
      </trkpt>
      <trkpt lat="50.25309" lon="5.73254">
        <ele>476</ele>
        <time>2015-09-27T10:47:16Z</time>
      </trkpt>
      <trkpt lat="50.25315" lon="5.73251">
        <ele>476</ele>
        <time>2015-09-27T10:47:22Z</time>
      </trkpt>
      <trkpt lat="50.2532" lon="5.73249">
        <ele>475</ele>
        <time>2015-09-27T10:47:27Z</time>
      </trkpt>
      <trkpt lat="50.25326" lon="5.73247">
        <ele>475</ele>
        <time>2015-09-27T10:47:32Z</time>
      </trkpt>
      <trkpt lat="50.25333" lon="5.73245">
        <ele>475</ele>
        <time>2015-09-27T10:47:38Z</time>
      </trkpt>
      <trkpt lat="50.25337" lon="5.73243">
        <ele>475</ele>
        <time>2015-09-27T10:47:43Z</time>
      </trkpt>
      <trkpt lat="50.25343" lon="5.7324">
        <ele>474</ele>
        <time>2015-09-27T10:47:49Z</time>
      </trkpt>
      <trkpt lat="50.25349" lon="5.73237">
        <ele>474</ele>
        <time>2015-09-27T10:47:55Z</time>
      </trkpt>
      <trkpt lat="50.25354" lon="5.73235">
        <ele>474</ele>
        <time>2015-09-27T10:48:01Z</time>
      </trkpt>
      <trkpt lat="50.25359" lon="5.73233">
        <ele>474</ele>
        <time>2015-09-27T10:48:06Z</time>
      </trkpt>
      <trkpt lat="50.25365" lon="5.7323">
        <ele>474</ele>
        <time>2015-09-27T10:48:12Z</time>
      </trkpt>
      <trkpt lat="50.25371" lon="5.73229">
        <ele>473</ele>
        <time>2015-09-27T10:48:17Z</time>
      </trkpt>
      <trkpt lat="50.25377" lon="5.73228">
        <ele>474</ele>
        <time>2015-09-27T10:48:23Z</time>
      </trkpt>
      <trkpt lat="50.25382" lon="5.73229">
        <ele>473</ele>
        <time>2015-09-27T10:48:28Z</time>
      </trkpt>
      <trkpt lat="50.25383" lon="5.73238">
        <ele>473</ele>
        <time>2015-09-27T10:48:34Z</time>
      </trkpt>
      <trkpt lat="50.25384" lon="5.73245">
        <ele>473</ele>
        <time>2015-09-27T10:48:39Z</time>
      </trkpt>
      <trkpt lat="50.25383" lon="5.73253">
        <ele>473</ele>
        <time>2015-09-27T10:48:45Z</time>
      </trkpt>
      <trkpt lat="50.25383" lon="5.73259">
        <ele>473</ele>
        <time>2015-09-27T10:48:50Z</time>
      </trkpt>
      <trkpt lat="50.25383" lon="5.73268">
        <ele>472</ele>
        <time>2015-09-27T10:48:56Z</time>
      </trkpt>
      <trkpt lat="50.25382" lon="5.73276">
        <ele>472</ele>
        <time>2015-09-27T10:49:02Z</time>
      </trkpt>
      <trkpt lat="50.2538" lon="5.73283">
        <ele>472</ele>
        <time>2015-09-27T10:49:07Z</time>
      </trkpt>
      <trkpt lat="50.25379" lon="5.73291">
        <ele>471</ele>
        <time>2015-09-27T10:49:13Z</time>
      </trkpt>
      <trkpt lat="50.25379" lon="5.73299">
        <ele>472</ele>
        <time>2015-09-27T10:49:18Z</time>
      </trkpt>
      <trkpt lat="50.25378" lon="5.73308">
        <ele>471</ele>
        <time>2015-09-27T10:49:24Z</time>
      </trkpt>
      <trkpt lat="50.25377" lon="5.73316">
        <ele>471</ele>
        <time>2015-09-27T10:49:29Z</time>
      </trkpt>
      <trkpt lat="50.25376" lon="5.73325">
        <ele>471</ele>
        <time>2015-09-27T10:49:35Z</time>
      </trkpt>
      <trkpt lat="50.25375" lon="5.73332">
        <ele>470</ele>
        <time>2015-09-27T10:49:40Z</time>
      </trkpt>
      <trkpt lat="50.25375" lon="5.73339">
        <ele>470</ele>
        <time>2015-09-27T10:49:45Z</time>
      </trkpt>
      <trkpt lat="50.25375" lon="5.73348">
        <ele>470</ele>
        <time>2015-09-27T10:49:51Z</time>
      </trkpt>
      <trkpt lat="50.25373" lon="5.73356">
        <ele>470</ele>
        <time>2015-09-27T10:49:57Z</time>
      </trkpt>
      <trkpt lat="50.25373" lon="5.73363">
        <ele>469</ele>
        <time>2015-09-27T10:50:03Z</time>
      </trkpt>
      <trkpt lat="50.25372" lon="5.73372">
        <ele>470</ele>
        <time>2015-09-27T10:50:09Z</time>
      </trkpt>
      <trkpt lat="50.2537" lon="5.73381">
        <ele>469</ele>
        <time>2015-09-27T10:50:15Z</time>
      </trkpt>
      <trkpt lat="50.25368" lon="5.73388">
        <ele>469</ele>
        <time>2015-09-27T10:50:20Z</time>
      </trkpt>
      <trkpt lat="50.25366" lon="5.73397">
        <ele>469</ele>
        <time>2015-09-27T10:50:26Z</time>
      </trkpt>
      <trkpt lat="50.25364" lon="5.73406">
        <ele>468</ele>
        <time>2015-09-27T10:50:31Z</time>
      </trkpt>
      <trkpt lat="50.25364" lon="5.73415">
        <ele>468</ele>
        <time>2015-09-27T10:50:36Z</time>
      </trkpt>
      <trkpt lat="50.25365" lon="5.73423">
        <ele>468</ele>
        <time>2015-09-27T10:50:41Z</time>
      </trkpt>
      <trkpt lat="50.25366" lon="5.73433">
        <ele>468</ele>
        <time>2015-09-27T10:50:47Z</time>
      </trkpt>
      <trkpt lat="50.25367" lon="5.73443">
        <ele>467</ele>
        <time>2015-09-27T10:50:53Z</time>
      </trkpt>
      <trkpt lat="50.25368" lon="5.73453">
        <ele>466</ele>
        <time>2015-09-27T10:50:59Z</time>
      </trkpt>
      <trkpt lat="50.2537" lon="5.7346">
        <ele>466</ele>
        <time>2015-09-27T10:51:04Z</time>
      </trkpt>
      <trkpt lat="50.25372" lon="5.73469">
        <ele>465</ele>
        <time>2015-09-27T10:51:10Z</time>
      </trkpt>
      <trkpt lat="50.25376" lon="5.73477">
        <ele>464</ele>
        <time>2015-09-27T10:51:16Z</time>
      </trkpt>
      <trkpt lat="50.2538" lon="5.73482">
        <ele>464</ele>
        <time>2015-09-27T10:51:21Z</time>
      </trkpt>
      <trkpt lat="50.25384" lon="5.73486">
        <ele>464</ele>
        <time>2015-09-27T10:51:27Z</time>
      </trkpt>
      <trkpt lat="50.25386" lon="5.7349">
        <ele>463</ele>
        <time>2015-09-27T10:51:33Z</time>
      </trkpt>
      <trkpt lat="50.2539" lon="5.73493">
        <ele>463</ele>
        <time>2015-09-27T10:51:38Z</time>
      </trkpt>
      <trkpt lat="50.25395" lon="5.73495">
        <ele>463</ele>
        <time>2015-09-27T10:51:43Z</time>
      </trkpt>
      <trkpt lat="50.25401" lon="5.73496">
        <ele>462</ele>
        <time>2015-09-27T10:51:48Z</time>
      </trkpt>
      <trkpt lat="50.25408" lon="5.73498">
        <ele>462</ele>
        <time>2015-09-27T10:51:54Z</time>
      </trkpt>
      <trkpt lat="50.25414" lon="5.735">
        <ele>461</ele>
        <time>2015-09-27T10:51:59Z</time>
      </trkpt>
      <trkpt lat="50.2542" lon="5.73502">
        <ele>460</ele>
        <time>2015-09-27T10:52:04Z</time>
      </trkpt>
      <trkpt lat="50.25426" lon="5.73503">
        <ele>460</ele>
        <time>2015-09-27T10:52:10Z</time>
      </trkpt>
      <trkpt lat="50.25431" lon="5.73505">
        <ele>460</ele>
        <time>2015-09-27T10:52:15Z</time>
      </trkpt>
      <trkpt lat="50.25436" lon="5.73506">
        <ele>460</ele>
        <time>2015-09-27T10:52:20Z</time>
      </trkpt>
      <trkpt lat="50.25442" lon="5.73507">
        <ele>459</ele>
        <time>2015-09-27T10:52:26Z</time>
      </trkpt>
      <trkpt lat="50.25448" lon="5.73508">
        <ele>459</ele>
        <time>2015-09-27T10:52:31Z</time>
      </trkpt>
      <trkpt lat="50.25454" lon="5.73509">
        <ele>458</ele>
        <time>2015-09-27T10:52:37Z</time>
      </trkpt>
      <trkpt lat="50.2546" lon="5.7351">
        <ele>457</ele>
        <time>2015-09-27T10:52:42Z</time>
      </trkpt>
      <trkpt lat="50.25464" lon="5.73515">
        <ele>458</ele>
        <time>2015-09-27T10:52:47Z</time>
      </trkpt>
      <trkpt lat="50.25463" lon="5.73522">
        <ele>458</ele>
        <time>2015-09-27T10:52:52Z</time>
      </trkpt>
      <trkpt lat="50.25463" lon="5.73526">
        <ele>457</ele>
        <time>2015-09-27T10:52:57Z</time>
      </trkpt>
      <trkpt lat="50.25463" lon="5.73528">
        <ele>457</ele>
        <time>2015-09-27T10:53:03Z</time>
      </trkpt>
      <trkpt lat="50.25463" lon="5.73529">
        <ele>457</ele>
        <time>2015-09-27T10:53:08Z</time>
      </trkpt>
      <trkpt lat="50.25462" lon="5.73532">
        <ele>457</ele>
        <time>2015-09-27T10:53:14Z</time>
      </trkpt>
      <trkpt lat="50.25464" lon="5.73534">
        <ele>457</ele>
        <time>2015-09-27T10:53:19Z</time>
      </trkpt>
      <trkpt lat="50.25466" lon="5.73536">
        <ele>457</ele>
        <time>2015-09-27T10:53:24Z</time>
      </trkpt>
      <trkpt lat="50.25465" lon="5.73541">
        <ele>457</ele>
        <time>2015-09-27T10:53:30Z</time>
      </trkpt>
      <trkpt lat="50.25464" lon="5.73543">
        <ele>457</ele>
        <time>2015-09-27T10:53:35Z</time>
      </trkpt>
      <trkpt lat="50.25463" lon="5.73546">
        <ele>457</ele>
        <time>2015-09-27T10:53:40Z</time>
      </trkpt>
      <trkpt lat="50.25462" lon="5.73549">
        <ele>458</ele>
        <time>2015-09-27T10:53:46Z</time>
      </trkpt>
      <trkpt lat="50.25463" lon="5.73552">
        <ele>458</ele>
        <time>2015-09-27T10:53:51Z</time>
      </trkpt>
      <trkpt lat="50.25466" lon="5.73555">
        <ele>458</ele>
        <time>2015-09-27T10:53:56Z</time>
      </trkpt>
      <trkpt lat="50.25467" lon="5.73556">
        <ele>457</ele>
        <time>2015-09-27T10:54:02Z</time>
      </trkpt>
      <trkpt lat="50.25467" lon="5.73557">
        <ele>457</ele>
        <time>2015-09-27T10:54:03Z</time>
      </trkpt>
    </trkseg>
  </trk>
</gpx>